Wetterdaten: Dienstag, 07.04.2026
Datum Zeit Temp. I. Temp. A. Feuchte I. Feuchte A. Luftdruck Regen Wind Richtung Richtung Sonnenschein Solar Taupunkt Windchill Windböen
07.04.2026 00:00 24,7 °C 4,5 °C 41 % 72 % 1026,9 hPa 0,0 l/m² 0,6 km/h (0 Bft) SW 229 ° 0 min 0 W/m² -0,1 °C 4,5 °C 1,6 km/h (1 Bft)
07.04.2026 00:02 24,6 °C 4,4 °C 41 % 72 % 1026,9 hPa 0,0 l/m² 0,7 km/h (0 Bft) SW 229 ° 0 min 0 W/m² -0,2 °C 4,4 °C 3,2 km/h (1 Bft)
07.04.2026 00:03 24,6 °C 4,4 °C 41 % 72 % 1026,9 hPa 0,0 l/m² 0,0 km/h (0 Bft) SW 229 ° 0 min 0 W/m² -0,2 °C 4,4 °C 0,0 km/h (0 Bft)
07.04.2026 00:05 24,6 °C 4,4 °C 42 % 72 % 1026,9 hPa 0,0 l/m² 0,0 km/h (0 Bft) SW 229 ° 0 min 0 W/m² -0,2 °C 4,4 °C 0,0 km/h (0 Bft)
07.04.2026 00:07 24,6 °C 4,3 °C 42 % 72 % 1026,9 hPa 0,0 l/m² 0,0 km/h (0 Bft) SW 229 ° 0 min 0 W/m² -0,3 °C 4,3 °C 0,0 km/h (0 Bft)
07.04.2026 00:09 24,6 °C 4,3 °C 42 % 72 % 1026,9 hPa 0,0 l/m² 0,3 km/h (0 Bft) SW 229 ° 0 min 0 W/m² -0,3 °C 4,3 °C 1,6 km/h (1 Bft)
07.04.2026 00:10 24,6 °C 4,3 °C 42 % 72 % 1026,9 hPa 0,0 l/m² 0,0 km/h (0 Bft) SW 229 ° 0 min 0 W/m² -0,3 °C 4,3 °C 0,0 km/h (0 Bft)
07.04.2026 00:12 24,6 °C 4,2 °C 42 % 72 % 1026,9 hPa 0,0 l/m² 0,1 km/h (0 Bft) SW 229 ° 0 min 0 W/m² -0,4 °C 4,2 °C 1,6 km/h (1 Bft)
07.04.2026 00:13 24,6 °C 4,2 °C 42 % 72 % 1026,9 hPa 0,0 l/m² 0,0 km/h (0 Bft) SW 229 ° 0 min 0 W/m² -0,4 °C 4,2 °C 0,0 km/h (0 Bft)
07.04.2026 00:15 24,6 °C 4,2 °C 42 % 72 % 1026,9 hPa 0,0 l/m² 1,0 km/h (0 Bft) SW 229 ° 0 min 0 W/m² -0,4 °C 4,2 °C 3,2 km/h (1 Bft)
07.04.2026 00:17 24,5 °C 4,1 °C 42 % 72 % 1026,9 hPa 0,0 l/m² 0,7 km/h (0 Bft) SW 229 ° 0 min 0 W/m² -0,5 °C 4,1 °C 3,2 km/h (1 Bft)
07.04.2026 00:19 24,6 °C 4,1 °C 42 % 72 % 1026,8 hPa 0,0 l/m² 2,7 km/h (1 Bft) NW 314 ° 0 min 0 W/m² -0,5 °C 4,1 °C 9,7 km/h (2 Bft)
07.04.2026 00:21 24,5 °C 4,1 °C 42 % 73 % 1026,8 hPa 0,0 l/m² 2,5 km/h (1 Bft) W-NW 296 ° 0 min 0 W/m² -0,3 °C 4,1 °C 8,0 km/h (2 Bft)
07.04.2026 00:22 24,5 °C 4,1 °C 42 % 73 % 1026,8 hPa 0,0 l/m² 2,5 km/h (1 Bft) W-NW 290 ° 0 min 0 W/m² -0,3 °C 4,1 °C 4,8 km/h (1 Bft)
07.04.2026 00:23 24,5 °C 4,0 °C 42 % 73 % 1026,7 hPa 0,0 l/m² 7,0 km/h (2 Bft) W-NW 293 ° 0 min 0 W/m² -0,4 °C 3,5 °C 9,7 km/h (2 Bft)
07.04.2026 00:25 24,4 °C 4,0 °C 42 % 73 % 1026,8 hPa 0,0 l/m² 5,7 km/h (2 Bft) NW 304 ° 0 min 0 W/m² -0,4 °C 4,0 °C 8,0 km/h (2 Bft)
07.04.2026 00:27 24,4 °C 3,9 °C 42 % 74 % 1026,8 hPa 0,0 l/m² 5,7 km/h (2 Bft) NW 324 ° 0 min 0 W/m² -0,3 °C 3,9 °C 8,0 km/h (2 Bft)
07.04.2026 00:29 24,4 °C 3,9 °C 42 % 74 % 1026,8 hPa 0,0 l/m² 6,9 km/h (2 Bft) N-NW 336 ° 0 min 0 W/m² -0,3 °C 3,4 °C 9,7 km/h (2 Bft)
07.04.2026 00:31 24,4 °C 3,9 °C 42 % 74 % 1026,7 hPa 0,0 l/m² 6,3 km/h (2 Bft) NW 319 ° 0 min 0 W/m² -0,3 °C 3,9 °C 9,7 km/h (2 Bft)
07.04.2026 00:32 24,4 °C 3,9 °C 42 % 74 % 1026,7 hPa 0,0 l/m² 5,6 km/h (2 Bft) N-NW 332 ° 0 min 0 W/m² -0,3 °C 3,9 °C 9,7 km/h (2 Bft)
07.04.2026 00:33 24,4 °C 3,9 °C 42 % 74 % 1026,8 hPa 0,0 l/m² 7,4 km/h (2 Bft) NW 314 ° 0 min 0 W/m² -0,3 °C 3,0 °C 9,7 km/h (2 Bft)
07.04.2026 00:35 24,4 °C 3,9 °C 42 % 74 % 1026,7 hPa 0,0 l/m² 5,5 km/h (2 Bft) N-NW 327 ° 0 min 0 W/m² -0,3 °C 3,9 °C 12,9 km/h (3 Bft)
07.04.2026 00:37 24,4 °C 3,9 °C 42 % 75 % 1026,9 hPa 0,0 l/m² 5,5 km/h (2 Bft) N-NW 329 ° 0 min 0 W/m² -0,1 °C 3,9 °C 11,3 km/h (2 Bft)
07.04.2026 00:39 24,4 °C 3,9 °C 42 % 75 % 1026,8 hPa 0,0 l/m² 5,1 km/h (1 Bft) NW 314 ° 0 min 0 W/m² -0,1 °C 3,9 °C 8,0 km/h (2 Bft)
07.04.2026 00:41 24,4 °C 3,9 °C 42 % 75 % 1026,9 hPa 0,0 l/m² 3,3 km/h (1 Bft) NW 304 ° 0 min 0 W/m² -0,1 °C 3,9 °C 8,0 km/h (2 Bft)
07.04.2026 00:42 24,3 °C 3,9 °C 42 % 75 % 1026,8 hPa 0,0 l/m² 2,5 km/h (1 Bft) NW 305 ° 0 min 0 W/m² -0,1 °C 3,9 °C 4,8 km/h (1 Bft)
07.04.2026 00:43 24,4 °C 4,0 °C 42 % 75 % 1026,8 hPa 0,0 l/m² 3,4 km/h (1 Bft) NW 310 ° 0 min 0 W/m² -0,0 °C 4,0 °C 4,8 km/h (1 Bft)
07.04.2026 00:46 24,3 °C 4,0 °C 42 % 75 % 1026,8 hPa 0,0 l/m² 3,3 km/h (1 Bft) NW 325 ° 0 min 0 W/m² -0,0 °C 4,0 °C 8,0 km/h (2 Bft)
07.04.2026 00:48 24,3 °C 4,1 °C 42 % 75 % 1026,8 hPa 0,0 l/m² 3,8 km/h (1 Bft) NW 319 ° 0 min 0 W/m² 0,1 °C 4,1 °C 6,4 km/h (2 Bft)
07.04.2026 00:50 24,3 °C 4,1 °C 42 % 75 % 1026,9 hPa 0,0 l/m² 3,0 km/h (1 Bft) NW 316 ° 0 min 0 W/m² 0,1 °C 4,1 °C 4,8 km/h (1 Bft)
07.04.2026 00:52 24,3 °C 4,1 °C 42 % 75 % 1026,9 hPa 0,0 l/m² 1,5 km/h (1 Bft) NW 320 ° 0 min 0 W/m² 0,1 °C 4,1 °C 3,2 km/h (1 Bft)
07.04.2026 00:53 24,3 °C 4,1 °C 42 % 75 % 1026,9 hPa 0,0 l/m² 3,5 km/h (1 Bft) NW 323 ° 0 min 0 W/m² 0,1 °C 4,1 °C 4,8 km/h (1 Bft)
07.04.2026 00:54 24,3 °C 4,1 °C 42 % 75 % 1026,9 hPa 0,0 l/m² 0,9 km/h (0 Bft) NW 319 ° 0 min 0 W/m² 0,1 °C 4,1 °C 3,2 km/h (1 Bft)
07.04.2026 00:56 24,3 °C 4,1 °C 42 % 75 % 1026,9 hPa 0,0 l/m² 3,0 km/h (1 Bft) NW 305 ° 0 min 0 W/m² 0,1 °C 4,1 °C 6,4 km/h (2 Bft)
07.04.2026 00:58 24,3 °C 4,1 °C 42 % 75 % 1027,0 hPa 0,0 l/m² 2,9 km/h (1 Bft) NW 308 ° 0 min 0 W/m² 0,1 °C 4,1 °C 6,4 km/h (2 Bft)
07.04.2026 01:00 24,3 °C 4,1 °C 42 % 74 % 1026,9 hPa 0,0 l/m² 3,0 km/h (1 Bft) NW 309 ° 0 min 0 W/m² -0,1 °C 4,1 °C 6,4 km/h (2 Bft)
07.04.2026 01:02 24,2 °C 4,1 °C 42 % 74 % 1027,0 hPa 0,0 l/m² 3,1 km/h (1 Bft) NW 317 ° 0 min 0 W/m² -0,1 °C 4,1 °C 8,0 km/h (2 Bft)
07.04.2026 01:03 24,3 °C 4,1 °C 42 % 74 % 1027,0 hPa 0,0 l/m² 2,1 km/h (1 Bft) NW 315 ° 0 min 0 W/m² -0,1 °C 4,1 °C 3,2 km/h (1 Bft)
07.04.2026 01:05 24,2 °C 4,1 °C 42 % 74 % 1027,1 hPa 0,0 l/m² 1,4 km/h (1 Bft) W-NW 294 ° 0 min 0 W/m² -0,1 °C 4,1 °C 3,2 km/h (1 Bft)
07.04.2026 01:07 24,2 °C 4,1 °C 42 % 74 % 1027,1 hPa 0,0 l/m² 0,3 km/h (0 Bft) W-NW 294 ° 0 min 0 W/m² -0,1 °C 4,1 °C 1,6 km/h (1 Bft)
07.04.2026 01:09 24,2 °C 4,1 °C 42 % 74 % 1027,1 hPa 0,0 l/m² 0,0 km/h (0 Bft) W-NW 294 ° 0 min 0 W/m² -0,1 °C 4,1 °C 0,0 km/h (0 Bft)
07.04.2026 01:10 24,2 °C 4,1 °C 42 % 74 % 1027,2 hPa 0,0 l/m² 0,3 km/h (0 Bft) W 259 ° 0 min 0 W/m² -0,1 °C 4,1 °C 1,6 km/h (1 Bft)
07.04.2026 01:12 24,2 °C 4,1 °C 42 % 74 % 1027,3 hPa 0,0 l/m² 2,4 km/h (1 Bft) S-SW 207 ° 0 min 0 W/m² -0,1 °C 4,1 °C 4,8 km/h (1 Bft)
07.04.2026 01:13 24,2 °C 4,1 °C 42 % 74 % 1027,2 hPa 0,0 l/m² 1,7 km/h (1 Bft) S-SW 207 ° 0 min 0 W/m² -0,1 °C 4,1 °C 3,2 km/h (1 Bft)
07.04.2026 01:14 24,2 °C 4,0 °C 42 % 74 % 1027,2 hPa 0,0 l/m² 4,3 km/h (1 Bft) S-SW 194 ° 0 min 0 W/m² -0,2 °C 4,0 °C 6,4 km/h (2 Bft)
07.04.2026 01:16 24,2 °C 4,0 °C 42 % 74 % 1027,2 hPa 0,0 l/m² 4,3 km/h (1 Bft) S 191 ° 0 min 0 W/m² -0,2 °C 4,0 °C 6,4 km/h (2 Bft)
07.04.2026 01:18 24,2 °C 4,0 °C 42 % 74 % 1027,2 hPa 0,0 l/m² 3,9 km/h (1 Bft) S 191 ° 0 min 0 W/m² -0,2 °C 4,0 °C 6,4 km/h (2 Bft)
07.04.2026 01:20 24,2 °C 3,9 °C 42 % 74 % 1027,3 hPa 0,0 l/m² 4,7 km/h (1 Bft) S-SW 196 ° 0 min 0 W/m² -0,3 °C 3,9 °C 6,4 km/h (2 Bft)
07.04.2026 01:22 24,1 °C 3,8 °C 42 % 74 % 1027,3 hPa 0,0 l/m² 4,2 km/h (1 Bft) S-SW 196 ° 0 min 0 W/m² -0,4 °C 3,8 °C 4,8 km/h (1 Bft)
07.04.2026 01:23 24,1 °C 3,8 °C 42 % 74 % 1027,4 hPa 0,0 l/m² 3,5 km/h (1 Bft) S-SW 196 ° 0 min 0 W/m² -0,4 °C 3,8 °C 4,8 km/h (1 Bft)
07.04.2026 01:24 24,1 °C 3,8 °C 42 % 75 % 1027,3 hPa 0,0 l/m² 3,0 km/h (1 Bft) S-SW 196 ° 0 min 0 W/m² -0,2 °C 3,8 °C 3,2 km/h (1 Bft)
07.04.2026 01:26 24,1 °C 3,8 °C 42 % 74 % 1027,3 hPa 0,0 l/m² 4,0 km/h (1 Bft) S-SW 196 ° 0 min 0 W/m² -0,4 °C 3,8 °C 6,4 km/h (2 Bft)
07.04.2026 01:28 24,1 °C 3,8 °C 42 % 75 % 1027,4 hPa 0,0 l/m² 3,3 km/h (1 Bft) S-SW 196 ° 0 min 0 W/m² -0,2 °C 3,8 °C 4,8 km/h (1 Bft)
07.04.2026 01:30 24,1 °C 3,8 °C 42 % 75 % 1027,4 hPa 0,0 l/m² 1,6 km/h (1 Bft) S-SW 196 ° 0 min 0 W/m² -0,2 °C 3,8 °C 3,2 km/h (1 Bft)
07.04.2026 01:32 24,1 °C 3,8 °C 43 % 75 % 1027,3 hPa 0,0 l/m² 3,3 km/h (1 Bft) S-SW 196 ° 0 min 0 W/m² -0,2 °C 3,8 °C 4,8 km/h (1 Bft)
07.04.2026 01:33 24,1 °C 3,7 °C 43 % 75 % 1027,3 hPa 0,0 l/m² 2,7 km/h (1 Bft) S-SW 196 ° 0 min 0 W/m² -0,3 °C 3,7 °C 3,2 km/h (1 Bft)
07.04.2026 01:34 24,1 °C 3,7 °C 42 % 75 % 1027,3 hPa 0,0 l/m² 2,1 km/h (1 Bft) S-SW 196 ° 0 min 0 W/m² -0,3 °C 3,7 °C 3,2 km/h (1 Bft)
07.04.2026 01:36 24,1 °C 3,8 °C 43 % 76 % 1027,3 hPa 0,0 l/m² 2,6 km/h (1 Bft) S-SW 196 ° 0 min 0 W/m² -0,0 °C 3,8 °C 4,8 km/h (1 Bft)
07.04.2026 01:38 24,1 °C 3,7 °C 43 % 76 % 1027,3 hPa 0,0 l/m² 3,0 km/h (1 Bft) S-SW 196 ° 0 min 0 W/m² -0,1 °C 3,7 °C 4,8 km/h (1 Bft)
07.04.2026 01:40 24,1 °C 3,7 °C 43 % 76 % 1027,3 hPa 0,0 l/m² 2,6 km/h (1 Bft) S-SW 196 ° 0 min 0 W/m² -0,1 °C 3,7 °C 4,8 km/h (1 Bft)
07.04.2026 01:42 24,1 °C 3,8 °C 43 % 76 % 1027,4 hPa 0,0 l/m² 2,4 km/h (1 Bft) S-SW 196 ° 0 min 0 W/m² -0,0 °C 3,8 °C 3,2 km/h (1 Bft)
07.04.2026 01:43 24,1 °C 3,8 °C 43 % 76 % 1027,3 hPa 0,0 l/m² 1,6 km/h (1 Bft) S-SW 196 ° 0 min 0 W/m² -0,0 °C 3,8 °C 1,6 km/h (1 Bft)
07.04.2026 01:44 24,1 °C 3,8 °C 43 % 76 % 1027,3 hPa 0,0 l/m² 1,0 km/h (0 Bft) S-SW 196 ° 0 min 0 W/m² -0,0 °C 3,8 °C 1,6 km/h (1 Bft)
07.04.2026 01:46 24,0 °C 3,8 °C 43 % 76 % 1027,3 hPa 0,0 l/m² 0,9 km/h (0 Bft) S-SW 196 ° 0 min 0 W/m² -0,0 °C 3,8 °C 3,2 km/h (1 Bft)
07.04.2026 01:48 24,0 °C 3,7 °C 43 % 76 % 1027,3 hPa 0,0 l/m² 2,9 km/h (1 Bft) S-SW 196 ° 0 min 0 W/m² -0,1 °C 3,7 °C 4,8 km/h (1 Bft)
07.04.2026 01:50 24,0 °C 3,7 °C 43 % 76 % 1027,4 hPa 0,0 l/m² 3,3 km/h (1 Bft) W-SW 244 ° 0 min 0 W/m² -0,1 °C 3,7 °C 4,8 km/h (1 Bft)
07.04.2026 01:52 24,0 °C 3,7 °C 43 % 76 % 1027,3 hPa 0,0 l/m² 3,6 km/h (1 Bft) W-SW 258 ° 0 min 0 W/m² -0,1 °C 3,7 °C 4,8 km/h (1 Bft)
07.04.2026 01:53 24,0 °C 3,7 °C 43 % 76 % 1027,4 hPa 0,0 l/m² 3,1 km/h (1 Bft) W-SW 258 ° 0 min 0 W/m² -0,1 °C 3,7 °C 3,2 km/h (1 Bft)
07.04.2026 01:54 24,0 °C 3,7 °C 43 % 75 % 1027,4 hPa 0,0 l/m² 4,0 km/h (1 Bft) W 268 ° 0 min 0 W/m² -0,3 °C 3,7 °C 6,4 km/h (2 Bft)
07.04.2026 01:56 24,0 °C 3,7 °C 43 % 76 % 1027,3 hPa 0,0 l/m² 3,1 km/h (1 Bft) W 271 ° 0 min 0 W/m² -0,1 °C 3,7 °C 4,8 km/h (1 Bft)
07.04.2026 01:58 24,0 °C 3,7 °C 43 % 75 % 1027,3 hPa 0,0 l/m² 2,1 km/h (1 Bft) W 271 ° 0 min 0 W/m² -0,3 °C 3,7 °C 4,8 km/h (1 Bft)
07.04.2026 02:00 23,9 °C 3,6 °C 43 % 75 % 1027,3 hPa 0,0 l/m² 2,7 km/h (1 Bft) W 271 ° 0 min 0 W/m² -0,4 °C 3,6 °C 4,8 km/h (1 Bft)
07.04.2026 02:02 24,0 °C 3,6 °C 43 % 75 % 1027,3 hPa 0,0 l/m² 0,8 km/h (0 Bft) W 271 ° 0 min 0 W/m² -0,4 °C 3,6 °C 3,2 km/h (1 Bft)
07.04.2026 02:03 24,0 °C 3,6 °C 43 % 75 % 1027,4 hPa 0,0 l/m² 0,0 km/h (0 Bft) W 271 ° 0 min 0 W/m² -0,4 °C 3,6 °C 0,0 km/h (0 Bft)
07.04.2026 02:04 23,9 °C 3,6 °C 43 % 75 % 1027,4 hPa 0,0 l/m² 0,0 km/h (0 Bft) W 271 ° 0 min 0 W/m² -0,4 °C 3,6 °C 0,0 km/h (0 Bft)
07.04.2026 02:06 24,0 °C 3,6 °C 43 % 75 % 1027,3 hPa 0,0 l/m² 1,0 km/h (0 Bft) W 271 ° 0 min 0 W/m² -0,4 °C 3,6 °C 3,2 km/h (1 Bft)
07.04.2026 02:08 23,9 °C 3,6 °C 43 % 76 % 1027,3 hPa 0,0 l/m² 1,3 km/h (1 Bft) W 271 ° 0 min 0 W/m² -0,2 °C 3,6 °C 3,2 km/h (1 Bft)
07.04.2026 02:10 23,9 °C 3,6 °C 43 % 75 % 1027,3 hPa 0,0 l/m² 4,5 km/h (1 Bft) W 271 ° 0 min 0 W/m² -0,4 °C 3,6 °C 6,4 km/h (2 Bft)
07.04.2026 02:12 23,9 °C 3,5 °C 43 % 75 % 1027,3 hPa 0,0 l/m² 5,4 km/h (2 Bft) W 271 ° 0 min 0 W/m² -0,5 °C 3,5 °C 9,7 km/h (2 Bft)
07.04.2026 02:13 23,9 °C 3,5 °C 43 % 75 % 1027,3 hPa 0,0 l/m² 6,9 km/h (2 Bft) W 271 ° 0 min 0 W/m² -0,5 °C 3,0 °C 9,7 km/h (2 Bft)
07.04.2026 02:14 23,9 °C 3,5 °C 43 % 76 % 1027,4 hPa 0,0 l/m² 5,9 km/h (2 Bft) W 271 ° 0 min 0 W/m² -0,3 °C 3,5 °C 9,7 km/h (2 Bft)
07.04.2026 02:16 23,9 °C 3,4 °C 43 % 76 % 1027,3 hPa 0,0 l/m² 5,7 km/h (2 Bft) W 272 ° 0 min 0 W/m² -0,4 °C 3,4 °C 9,7 km/h (2 Bft)
07.04.2026 02:18 23,9 °C 3,4 °C 43 % 76 % 1027,3 hPa 0,0 l/m² 4,6 km/h (1 Bft) W 271 ° 0 min 0 W/m² -0,4 °C 3,4 °C 6,4 km/h (2 Bft)
07.04.2026 02:20 23,9 °C 3,4 °C 43 % 76 % 1027,3 hPa 0,0 l/m² 4,5 km/h (1 Bft) W 271 ° 0 min 0 W/m² -0,4 °C 3,4 °C 6,4 km/h (2 Bft)
07.04.2026 02:22 23,9 °C 3,4 °C 43 % 76 % 1027,3 hPa 0,0 l/m² 4,8 km/h (1 Bft) W 267 ° 0 min 0 W/m² -0,4 °C 3,4 °C 6,4 km/h (2 Bft)
07.04.2026 02:23 23,9 °C 3,4 °C 43 % 76 % 1027,3 hPa 0,0 l/m² 1,8 km/h (1 Bft) W 267 ° 0 min 0 W/m² -0,4 °C 3,4 °C 3,2 km/h (1 Bft)
07.04.2026 02:24 23,9 °C 3,4 °C 43 % 76 % 1027,3 hPa 0,0 l/m² 0,6 km/h (0 Bft) W 267 ° 0 min 0 W/m² -0,4 °C 3,4 °C 3,2 km/h (1 Bft)
07.04.2026 02:26 23,9 °C 3,4 °C 43 % 76 % 1027,3 hPa 0,0 l/m² 4,0 km/h (1 Bft) W 275 ° 0 min 0 W/m² -0,4 °C 3,4 °C 6,4 km/h (2 Bft)
07.04.2026 02:28 23,9 °C 3,4 °C 43 % 76 % 1027,3 hPa 0,0 l/m² 4,4 km/h (1 Bft) W-NW 291 ° 0 min 0 W/m² -0,4 °C 3,4 °C 8,0 km/h (2 Bft)
07.04.2026 02:30 23,9 °C 3,3 °C 43 % 76 % 1027,2 hPa 0,0 l/m² 4,2 km/h (1 Bft) W 280 ° 0 min 0 W/m² -0,5 °C 3,3 °C 6,4 km/h (2 Bft)
07.04.2026 02:32 23,9 °C 3,4 °C 43 % 76 % 1027,2 hPa 0,0 l/m² 3,1 km/h (1 Bft) W 281 ° 0 min 0 W/m² -0,4 °C 3,4 °C 6,4 km/h (2 Bft)
07.04.2026 02:33 23,9 °C 3,3 °C 43 % 76 % 1027,2 hPa 0,0 l/m² 3,1 km/h (1 Bft) W 281 ° 0 min 0 W/m² -0,5 °C 3,3 °C 4,8 km/h (1 Bft)
07.04.2026 02:34 23,9 °C 3,3 °C 43 % 76 % 1027,2 hPa 0,0 l/m² 2,1 km/h (1 Bft) W 281 ° 0 min 0 W/m² -0,5 °C 3,3 °C 3,2 km/h (1 Bft)
07.04.2026 02:36 23,9 °C 3,3 °C 43 % 76 % 1027,2 hPa 0,0 l/m² 0,5 km/h (0 Bft) W 281 ° 0 min 0 W/m² -0,5 °C 3,3 °C 1,6 km/h (1 Bft)
07.04.2026 02:38 23,9 °C 3,2 °C 43 % 76 % 1027,2 hPa 0,0 l/m² 0,3 km/h (0 Bft) W 281 ° 0 min 0 W/m² -0,6 °C 3,2 °C 3,2 km/h (1 Bft)
07.04.2026 02:40 23,9 °C 3,2 °C 43 % 76 % 1027,2 hPa 0,0 l/m² 0,0 km/h (0 Bft) W 281 ° 0 min 0 W/m² -0,6 °C 3,2 °C 1,6 km/h (1 Bft)
07.04.2026 02:42 23,9 °C 3,1 °C 43 % 76 % 1027,1 hPa 0,0 l/m² 0,0 km/h (0 Bft) W 281 ° 0 min 0 W/m² -0,7 °C 3,1 °C 0,0 km/h (0 Bft)
07.04.2026 02:43 23,9 °C 3,1 °C 43 % 76 % 1027,1 hPa 0,0 l/m² 0,0 km/h (0 Bft) W 281 ° 0 min 0 W/m² -0,7 °C 3,1 °C 0,0 km/h (0 Bft)
07.04.2026 02:44 23,9 °C 3,0 °C 43 % 76 % 1027,2 hPa 0,0 l/m² 0,0 km/h (0 Bft) W 281 ° 0 min 0 W/m² -0,8 °C 3,0 °C 0,0 km/h (0 Bft)
07.04.2026 02:46 23,9 °C 3,0 °C 43 % 76 % 1027,2 hPa 0,0 l/m² 0,0 km/h (0 Bft) W 281 ° 0 min 0 W/m² -0,8 °C 3,0 °C 0,0 km/h (0 Bft)
07.04.2026 02:48 23,8 °C 2,9 °C 43 % 76 % 1027,1 hPa 0,0 l/m² 0,0 km/h (0 Bft) W 281 ° 0 min 0 W/m² -0,9 °C 2,9 °C 0,0 km/h (0 Bft)
07.04.2026 02:50 23,9 °C 2,9 °C 43 % 76 % 1027,1 hPa 0,0 l/m² 0,0 km/h (0 Bft) W 281 ° 0 min 0 W/m² -0,9 °C 2,9 °C 0,0 km/h (0 Bft)
07.04.2026 02:52 23,9 °C 2,8 °C 43 % 76 % 1027,0 hPa 0,0 l/m² 0,0 km/h (0 Bft) W 281 ° 0 min 0 W/m² -1,0 °C 2,8 °C 0,0 km/h (0 Bft)
07.04.2026 02:53 23,8 °C 2,8 °C 43 % 76 % 1027,0 hPa 0,0 l/m² 0,0 km/h (0 Bft) W 281 ° 0 min 0 W/m² -1,0 °C 2,8 °C 0,0 km/h (0 Bft)
07.04.2026 02:54 23,8 °C 2,8 °C 43 % 76 % 1027,0 hPa 0,0 l/m² 0,0 km/h (0 Bft) W 281 ° 0 min 0 W/m² -1,0 °C 2,8 °C 0,0 km/h (0 Bft)
07.04.2026 02:56 23,9 °C 2,8 °C 43 % 76 % 1027,0 hPa 0,0 l/m² 0,0 km/h (0 Bft) W 281 ° 0 min 0 W/m² -1,0 °C 2,8 °C 0,0 km/h (0 Bft)
07.04.2026 02:58 23,8 °C 2,7 °C 43 % 76 % 1027,0 hPa 0,0 l/m² 0,0 km/h (0 Bft) W 281 ° 0 min 0 W/m² -1,1 °C 2,7 °C 0,0 km/h (0 Bft)
07.04.2026 03:00 23,8 °C 2,6 °C 43 % 76 % 1027,0 hPa 0,0 l/m² 0,0 km/h (0 Bft) W 281 ° 0 min 0 W/m² -1,2 °C 2,6 °C 0,0 km/h (0 Bft)
07.04.2026 03:02 23,8 °C 2,6 °C 43 % 76 % 1027,0 hPa 0,0 l/m² 0,1 km/h (0 Bft) W 281 ° 0 min 0 W/m² -1,2 °C 2,6 °C 1,6 km/h (1 Bft)
07.04.2026 03:03 23,8 °C 2,6 °C 43 % 77 % 1027,0 hPa 0,0 l/m² 0,0 km/h (0 Bft) W 281 ° 0 min 0 W/m² -1,0 °C 2,6 °C 0,0 km/h (0 Bft)
07.04.2026 03:05 23,8 °C 2,6 °C 43 % 77 % 1027,0 hPa 0,0 l/m² 0,0 km/h (0 Bft) W 281 ° 0 min 0 W/m² -1,0 °C 2,6 °C 0,0 km/h (0 Bft)
07.04.2026 03:07 23,8 °C 2,4 °C 43 % 77 % 1027,0 hPa 0,0 l/m² 1,8 km/h (1 Bft) SW 221 ° 0 min 0 W/m² -1,2 °C 2,4 °C 4,8 km/h (1 Bft)
07.04.2026 03:09 23,8 °C 2,4 °C 43 % 77 % 1027,0 hPa 0,0 l/m² 0,0 km/h (0 Bft) SW 221 ° 0 min 0 W/m² -1,2 °C 2,4 °C 1,6 km/h (1 Bft)
07.04.2026 03:11 23,8 °C 2,3 °C 43 % 77 % 1027,0 hPa 0,0 l/m² 0,0 km/h (0 Bft) SW 221 ° 0 min 0 W/m² -1,3 °C 2,3 °C 0,0 km/h (0 Bft)
07.04.2026 03:12 23,8 °C 2,3 °C 43 % 77 % 1027,0 hPa 0,0 l/m² 0,0 km/h (0 Bft) SW 221 ° 0 min 0 W/m² -1,3 °C 2,3 °C 0,0 km/h (0 Bft)
07.04.2026 03:13 23,8 °C 2,3 °C 43 % 77 % 1027,0 hPa 0,0 l/m² 1,9 km/h (1 Bft) SW 221 ° 0 min 0 W/m² -1,3 °C 2,3 °C 3,2 km/h (1 Bft)
07.04.2026 03:15 23,8 °C 2,3 °C 43 % 78 % 1027,0 hPa 0,0 l/m² 1,7 km/h (1 Bft) SW 221 ° 0 min 0 W/m² -1,1 °C 2,3 °C 3,2 km/h (1 Bft)
07.04.2026 03:17 23,8 °C 2,3 °C 43 % 78 % 1027,0 hPa 0,0 l/m² 0,5 km/h (0 Bft) SW 221 ° 0 min 0 W/m² -1,1 °C 2,3 °C 1,6 km/h (1 Bft)
07.04.2026 03:19 23,8 °C 2,2 °C 43 % 78 % 1027,0 hPa 0,0 l/m² 0,3 km/h (0 Bft) SW 221 ° 0 min 0 W/m² -1,2 °C 2,2 °C 1,6 km/h (1 Bft)
07.04.2026 03:21 23,8 °C 2,2 °C 43 % 78 % 1026,9 hPa 0,0 l/m² 0,0 km/h (0 Bft) SW 221 ° 0 min 0 W/m² -1,2 °C 2,2 °C 0,0 km/h (0 Bft)
07.04.2026 03:22 23,8 °C 2,2 °C 43 % 78 % 1027,0 hPa 0,0 l/m² 0,0 km/h (0 Bft) SW 221 ° 0 min 0 W/m² -1,2 °C 2,2 °C 0,0 km/h (0 Bft)
07.04.2026 03:23 23,8 °C 2,1 °C 43 % 78 % 1026,9 hPa 0,0 l/m² 0,0 km/h (0 Bft) SW 221 ° 0 min 0 W/m² -1,3 °C 2,1 °C 0,0 km/h (0 Bft)
07.04.2026 03:25 23,8 °C 2,1 °C 43 % 78 % 1027,0 hPa 0,0 l/m² 0,0 km/h (0 Bft) SW 221 ° 0 min 0 W/m² -1,3 °C 2,1 °C 0,0 km/h (0 Bft)
07.04.2026 03:27 23,8 °C 2,1 °C 43 % 78 % 1027,1 hPa 0,0 l/m² 0,1 km/h (0 Bft) SW 221 ° 0 min 0 W/m² -1,3 °C 2,1 °C 1,6 km/h (1 Bft)
07.04.2026 03:29 23,8 °C 2,0 °C 43 % 78 % 1027,0 hPa 0,0 l/m² 0,0 km/h (0 Bft) SW 221 ° 0 min 0 W/m² -1,4 °C 2,0 °C 0,0 km/h (0 Bft)
07.04.2026 03:31 23,8 °C 2,0 °C 43 % 79 % 1027,0 hPa 0,0 l/m² 0,0 km/h (0 Bft) SW 221 ° 0 min 0 W/m² -1,2 °C 2,0 °C 0,0 km/h (0 Bft)
07.04.2026 03:32 23,7 °C 2,0 °C 43 % 79 % 1026,9 hPa 0,0 l/m² 0,0 km/h (0 Bft) SW 221 ° 0 min 0 W/m² -1,2 °C 2,0 °C 0,0 km/h (0 Bft)
07.04.2026 03:33 23,7 °C 1,9 °C 43 % 79 % 1026,9 hPa 0,0 l/m² 0,0 km/h (0 Bft) SW 221 ° 0 min 0 W/m² -1,3 °C 1,9 °C 0,0 km/h (0 Bft)
07.04.2026 03:35 23,7 °C 1,9 °C 43 % 79 % 1026,9 hPa 0,0 l/m² 0,0 km/h (0 Bft) SW 221 ° 0 min 0 W/m² -1,3 °C 1,9 °C 0,0 km/h (0 Bft)
07.04.2026 03:37 23,7 °C 1,9 °C 43 % 79 % 1026,9 hPa 0,0 l/m² 0,0 km/h (0 Bft) SW 221 ° 0 min 0 W/m² -1,3 °C 1,9 °C 0,0 km/h (0 Bft)
07.04.2026 03:39 23,7 °C 1,8 °C 43 % 79 % 1026,8 hPa 0,0 l/m² 0,0 km/h (0 Bft) SW 221 ° 0 min 0 W/m² -1,4 °C 1,8 °C 0,0 km/h (0 Bft)
07.04.2026 03:41 23,7 °C 1,8 °C 43 % 79 % 1026,8 hPa 0,0 l/m² 0,0 km/h (0 Bft) SW 221 ° 0 min 0 W/m² -1,4 °C 1,8 °C 0,0 km/h (0 Bft)
07.04.2026 03:42 23,7 °C 1,8 °C 43 % 79 % 1026,8 hPa 0,0 l/m² 0,0 km/h (0 Bft) SW 221 ° 0 min 0 W/m² -1,4 °C 1,8 °C 0,0 km/h (0 Bft)
07.04.2026 03:43 23,7 °C 1,8 °C 43 % 79 % 1026,8 hPa 0,0 l/m² 0,0 km/h (0 Bft) SW 221 ° 0 min 0 W/m² -1,4 °C 1,8 °C 0,0 km/h (0 Bft)
07.04.2026 03:45 23,7 °C 1,7 °C 43 % 79 % 1026,9 hPa 0,0 l/m² 0,3 km/h (0 Bft) SW 221 ° 0 min 0 W/m² -1,5 °C 1,7 °C 1,6 km/h (1 Bft)
07.04.2026 03:48 23,7 °C 1,7 °C 43 % 79 % 1026,9 hPa 0,0 l/m² 0,4 km/h (0 Bft) SW 221 ° 0 min 0 W/m² -1,5 °C 1,7 °C 3,2 km/h (1 Bft)
07.04.2026 03:50 23,7 °C 1,6 °C 43 % 80 % 1026,8 hPa 0,0 l/m² 0,0 km/h (0 Bft) SW 221 ° 0 min 0 W/m² -1,5 °C 1,6 °C 0,0 km/h (0 Bft)
07.04.2026 03:52 23,7 °C 1,6 °C 43 % 80 % 1026,8 hPa 0,0 l/m² 0,0 km/h (0 Bft) SW 221 ° 0 min 0 W/m² -1,5 °C 1,6 °C 0,0 km/h (0 Bft)
07.04.2026 03:53 23,7 °C 1,6 °C 43 % 80 % 1026,8 hPa 0,0 l/m² 0,0 km/h (0 Bft) SW 221 ° 0 min 0 W/m² -1,5 °C 1,6 °C 0,0 km/h (0 Bft)
07.04.2026 03:54 23,7 °C 1,6 °C 43 % 80 % 1026,9 hPa 0,0 l/m² 0,0 km/h (0 Bft) SW 221 ° 0 min 0 W/m² -1,5 °C 1,6 °C 0,0 km/h (0 Bft)
07.04.2026 03:56 23,7 °C 1,5 °C 43 % 80 % 1026,8 hPa 0,0 l/m² 0,0 km/h (0 Bft) SW 221 ° 0 min 0 W/m² -1,6 °C 1,5 °C 0,0 km/h (0 Bft)
07.04.2026 03:58 23,7 °C 1,5 °C 43 % 80 % 1026,8 hPa 0,0 l/m² 0,0 km/h (0 Bft) SW 221 ° 0 min 0 W/m² -1,6 °C 1,5 °C 0,0 km/h (0 Bft)
07.04.2026 04:00 23,7 °C 1,4 °C 43 % 80 % 1026,9 hPa 0,0 l/m² 0,0 km/h (0 Bft) SW 221 ° 0 min 0 W/m² -1,7 °C 1,4 °C 0,0 km/h (0 Bft)
07.04.2026 04:02 23,7 °C 1,4 °C 43 % 80 % 1026,9 hPa 0,0 l/m² 0,0 km/h (0 Bft) SW 221 ° 0 min 0 W/m² -1,7 °C 1,4 °C 0,0 km/h (0 Bft)
07.04.2026 04:03 23,7 °C 1,4 °C 43 % 80 % 1026,8 hPa 0,0 l/m² 0,0 km/h (0 Bft) SW 221 ° 0 min 0 W/m² -1,7 °C 1,4 °C 0,0 km/h (0 Bft)
07.04.2026 04:04 23,7 °C 1,4 °C 43 % 80 % 1026,8 hPa 0,0 l/m² 0,0 km/h (0 Bft) SW 221 ° 0 min 0 W/m² -1,7 °C 1,4 °C 0,0 km/h (0 Bft)
07.04.2026 04:06 23,7 °C 1,4 °C 43 % 80 % 1026,8 hPa 0,0 l/m² 0,0 km/h (0 Bft) SW 221 ° 0 min 0 W/m² -1,7 °C 1,4 °C 0,0 km/h (0 Bft)
07.04.2026 04:08 23,7 °C 1,3 °C 43 % 80 % 1026,8 hPa 0,0 l/m² 0,0 km/h (0 Bft) SW 221 ° 0 min 0 W/m² -1,8 °C 1,3 °C 0,0 km/h (0 Bft)
07.04.2026 04:10 23,7 °C 1,3 °C 43 % 80 % 1026,9 hPa 0,0 l/m² 0,0 km/h (0 Bft) SW 221 ° 0 min 0 W/m² -1,8 °C 1,3 °C 0,0 km/h (0 Bft)
07.04.2026 04:12 23,7 °C 1,3 °C 43 % 80 % 1026,9 hPa 0,0 l/m² 0,0 km/h (0 Bft) SW 221 ° 0 min 0 W/m² -1,8 °C 1,3 °C 0,0 km/h (0 Bft)
07.04.2026 04:13 23,7 °C 1,3 °C 43 % 80 % 1026,9 hPa 0,0 l/m² 0,0 km/h (0 Bft) SW 221 ° 0 min 0 W/m² -1,8 °C 1,3 °C 0,0 km/h (0 Bft)
07.04.2026 04:14 23,7 °C 1,3 °C 43 % 80 % 1026,8 hPa 0,0 l/m² 0,0 km/h (0 Bft) SW 221 ° 0 min 0 W/m² -1,8 °C 1,3 °C 0,0 km/h (0 Bft)
07.04.2026 04:16 23,6 °C 1,2 °C 43 % 80 % 1026,8 hPa 0,0 l/m² 0,0 km/h (0 Bft) SW 221 ° 0 min 0 W/m² -1,9 °C 1,2 °C 0,0 km/h (0 Bft)
07.04.2026 04:18 23,7 °C 1,2 °C 43 % 81 % 1026,8 hPa 0,0 l/m² 0,0 km/h (0 Bft) SW 221 ° 0 min 0 W/m² -1,7 °C 1,2 °C 0,0 km/h (0 Bft)
07.04.2026 04:20 23,6 °C 1,2 °C 43 % 81 % 1026,8 hPa 0,0 l/m² 0,0 km/h (0 Bft) SW 221 ° 0 min 0 W/m² -1,7 °C 1,2 °C 0,0 km/h (0 Bft)
07.04.2026 04:22 23,6 °C 1,2 °C 43 % 81 % 1026,8 hPa 0,0 l/m² 0,0 km/h (0 Bft) SW 221 ° 0 min 0 W/m² -1,7 °C 1,2 °C 0,0 km/h (0 Bft)
07.04.2026 04:23 23,6 °C 1,1 °C 43 % 81 % 1026,8 hPa 0,0 l/m² 0,0 km/h (0 Bft) SW 221 ° 0 min 0 W/m² -1,8 °C 1,1 °C 0,0 km/h (0 Bft)
07.04.2026 04:24 23,6 °C 1,2 °C 43 % 82 % 1026,8 hPa 0,0 l/m² 0,0 km/h (0 Bft) SW 221 ° 0 min 0 W/m² -1,5 °C 1,2 °C 0,0 km/h (0 Bft)
07.04.2026 04:26 23,6 °C 1,1 °C 43 % 82 % 1026,8 hPa 0,0 l/m² 1,1 km/h (1 Bft) SW 220 ° 0 min 0 W/m² -1,6 °C 1,1 °C 3,2 km/h (1 Bft)
07.04.2026 04:28 23,6 °C 1,1 °C 43 % 82 % 1026,7 hPa 0,0 l/m² 0,0 km/h (0 Bft) SW 220 ° 0 min 0 W/m² -1,6 °C 1,1 °C 0,0 km/h (0 Bft)
07.04.2026 04:30 23,6 °C 1,1 °C 43 % 82 % 1026,8 hPa 0,0 l/m² 0,0 km/h (0 Bft) SW 220 ° 0 min 0 W/m² -1,6 °C 1,1 °C 0,0 km/h (0 Bft)
07.04.2026 04:32 23,6 °C 1,1 °C 43 % 82 % 1026,8 hPa 0,0 l/m² 1,3 km/h (1 Bft) SW 220 ° 0 min 0 W/m² -1,6 °C 1,1 °C 3,2 km/h (1 Bft)
07.04.2026 04:33 23,6 °C 1,0 °C 43 % 82 % 1026,7 hPa 0,0 l/m² 1,6 km/h (1 Bft) SW 220 ° 0 min 0 W/m² -1,7 °C 1,0 °C 1,6 km/h (1 Bft)
07.04.2026 04:34 23,6 °C 1,0 °C 43 % 82 % 1026,8 hPa 0,0 l/m² 2,0 km/h (1 Bft) SW 220 ° 0 min 0 W/m² -1,7 °C 1,0 °C 3,2 km/h (1 Bft)
07.04.2026 04:36 23,6 °C 1,0 °C 43 % 82 % 1026,8 hPa 0,0 l/m² 1,0 km/h (0 Bft) SW 220 ° 0 min 0 W/m² -1,7 °C 1,0 °C 3,2 km/h (1 Bft)
07.04.2026 04:38 23,6 °C 0,9 °C 43 % 82 % 1026,8 hPa 0,0 l/m² 0,0 km/h (0 Bft) SW 220 ° 0 min 0 W/m² -1,8 °C 0,9 °C 0,0 km/h (0 Bft)
07.04.2026 04:40 23,6 °C 0,9 °C 43 % 82 % 1026,6 hPa 0,0 l/m² 0,0 km/h (0 Bft) SW 220 ° 0 min 0 W/m² -1,8 °C 0,9 °C 0,0 km/h (0 Bft)
07.04.2026 04:42 23,6 °C 0,8 °C 43 % 82 % 1026,7 hPa 0,0 l/m² 0,0 km/h (0 Bft) SW 220 ° 0 min 0 W/m² -1,9 °C 0,8 °C 0,0 km/h (0 Bft)
07.04.2026 04:43 23,6 °C 0,8 °C 43 % 82 % 1026,7 hPa 0,0 l/m² 0,0 km/h (0 Bft) SW 220 ° 0 min 0 W/m² -1,9 °C 0,8 °C 0,0 km/h (0 Bft)
07.04.2026 04:44 23,6 °C 0,8 °C 43 % 82 % 1026,8 hPa 0,0 l/m² 0,0 km/h (0 Bft) SW 220 ° 0 min 0 W/m² -1,9 °C 0,8 °C 0,0 km/h (0 Bft)
07.04.2026 04:46 23,6 °C 0,8 °C 43 % 82 % 1026,7 hPa 0,0 l/m² 0,0 km/h (0 Bft) SW 220 ° 0 min 0 W/m² -1,9 °C 0,8 °C 0,0 km/h (0 Bft)
07.04.2026 04:48 23,6 °C 0,8 °C 43 % 82 % 1026,9 hPa 0,0 l/m² 0,0 km/h (0 Bft) SW 220 ° 0 min 0 W/m² -1,9 °C 0,8 °C 0,0 km/h (0 Bft)
07.04.2026 04:50 23,6 °C 0,7 °C 43 % 82 % 1026,8 hPa 0,0 l/m² 0,0 km/h (0 Bft) SW 220 ° 0 min 0 W/m² -2,0 °C 0,7 °C 0,0 km/h (0 Bft)
07.04.2026 04:52 23,6 °C 0,7 °C 43 % 82 % 1026,8 hPa 0,0 l/m² 0,0 km/h (0 Bft) SW 220 ° 0 min 0 W/m² -2,0 °C 0,7 °C 0,0 km/h (0 Bft)
07.04.2026 04:53 23,6 °C 0,7 °C 43 % 82 % 1026,8 hPa 0,0 l/m² 0,0 km/h (0 Bft) SW 220 ° 0 min 0 W/m² -2,0 °C 0,7 °C 0,0 km/h (0 Bft)
07.04.2026 04:54 23,6 °C 0,7 °C 43 % 82 % 1026,8 hPa 0,0 l/m² 0,0 km/h (0 Bft) SW 220 ° 0 min 0 W/m² -2,0 °C 0,7 °C 0,0 km/h (0 Bft)
07.04.2026 04:56 23,6 °C 0,6 °C 44 % 82 % 1026,8 hPa 0,0 l/m² 0,0 km/h (0 Bft) SW 220 ° 0 min 0 W/m² -2,1 °C 0,6 °C 0,0 km/h (0 Bft)
07.04.2026 04:58 23,6 °C 0,6 °C 44 % 82 % 1026,9 hPa 0,0 l/m² 0,0 km/h (0 Bft) SW 220 ° 0 min 0 W/m² -2,1 °C 0,6 °C 0,0 km/h (0 Bft)
07.04.2026 05:00 23,6 °C 0,6 °C 44 % 82 % 1026,8 hPa 0,0 l/m² 0,0 km/h (0 Bft) SW 220 ° 0 min 0 W/m² -2,1 °C 0,6 °C 0,0 km/h (0 Bft)
07.04.2026 05:02 23,5 °C 0,5 °C 44 % 82 % 1026,8 hPa 0,0 l/m² 0,0 km/h (0 Bft) SW 220 ° 0 min 0 W/m² -2,2 °C 0,5 °C 0,0 km/h (0 Bft)
07.04.2026 05:03 23,5 °C 0,5 °C 44 % 82 % 1026,8 hPa 0,0 l/m² 0,0 km/h (0 Bft) SW 220 ° 0 min 0 W/m² -2,2 °C 0,5 °C 0,0 km/h (0 Bft)
07.04.2026 05:05 23,6 °C 0,4 °C 44 % 83 % 1026,9 hPa 0,0 l/m² 0,0 km/h (0 Bft) SW 220 ° 0 min 0 W/m² -2,1 °C 0,4 °C 0,0 km/h (0 Bft)
07.04.2026 05:07 23,6 °C 0,4 °C 44 % 82 % 1026,9 hPa 0,0 l/m² 0,0 km/h (0 Bft) SW 220 ° 0 min 0 W/m² -2,3 °C 0,4 °C 0,0 km/h (0 Bft)
07.04.2026 05:09 23,6 °C 0,4 °C 43 % 82 % 1026,9 hPa 0,0 l/m² 0,0 km/h (0 Bft) SW 220 ° 0 min 0 W/m² -2,3 °C 0,4 °C 0,0 km/h (0 Bft)
07.04.2026 05:11 23,6 °C 0,4 °C 43 % 82 % 1027,0 hPa 0,0 l/m² 0,0 km/h (0 Bft) SW 220 ° 0 min 0 W/m² -2,3 °C 0,4 °C 0,0 km/h (0 Bft)
07.04.2026 05:12 23,5 °C 0,4 °C 43 % 82 % 1026,9 hPa 0,0 l/m² 0,0 km/h (0 Bft) SW 220 ° 0 min 0 W/m² -2,3 °C 0,4 °C 0,0 km/h (0 Bft)
07.04.2026 05:13 23,5 °C 0,3 °C 43 % 83 % 1026,9 hPa 0,0 l/m² 0,0 km/h (0 Bft) SW 220 ° 0 min 0 W/m² -2,2 °C 0,3 °C 0,0 km/h (0 Bft)
07.04.2026 05:15 23,5 °C 0,3 °C 43 % 83 % 1026,8 hPa 0,0 l/m² 0,0 km/h (0 Bft) SW 220 ° 0 min 0 W/m² -2,2 °C 0,3 °C 0,0 km/h (0 Bft)
07.04.2026 05:16 23,5 °C 0,3 °C 43 % 83 % 1026,9 hPa 0,0 l/m² 0,0 km/h (0 Bft) SW 220 ° 0 min 0 W/m² -2,2 °C 0,3 °C 0,0 km/h (0 Bft)
07.04.2026 05:17 23,5 °C 0,3 °C 43 % 83 % 1026,8 hPa 0,0 l/m² 0,0 km/h (0 Bft) SW 220 ° 0 min 0 W/m² -2,2 °C 0,3 °C 0,0 km/h (0 Bft)
07.04.2026 05:18 23,5 °C 0,3 °C 43 % 83 % 1026,8 hPa 0,0 l/m² 0,0 km/h (0 Bft) SW 220 ° 0 min 0 W/m² -2,2 °C 0,3 °C 0,0 km/h (0 Bft)
07.04.2026 05:20 23,5 °C 0,3 °C 43 % 83 % 1026,9 hPa 0,0 l/m² 0,0 km/h (0 Bft) SW 220 ° 0 min 0 W/m² -2,2 °C 0,3 °C 0,0 km/h (0 Bft)
07.04.2026 05:23 23,5 °C 0,3 °C 43 % 83 % 1026,8 hPa 0,0 l/m² 0,0 km/h (0 Bft) SW 220 ° 0 min 0 W/m² -2,2 °C 0,3 °C 0,0 km/h (0 Bft)
07.04.2026 05:25 23,4 °C 0,3 °C 43 % 83 % 1026,8 hPa 0,0 l/m² 0,0 km/h (0 Bft) SW 220 ° 0 min 0 W/m² -2,2 °C 0,3 °C 0,0 km/h (0 Bft)
07.04.2026 05:27 23,4 °C 0,2 °C 43 % 84 % 1026,8 hPa 0,0 l/m² 0,0 km/h (0 Bft) SW 220 ° 0 min 0 W/m² -2,2 °C 0,2 °C 0,0 km/h (0 Bft)
07.04.2026 05:29 23,4 °C 0,2 °C 43 % 84 % 1026,8 hPa 0,0 l/m² 0,0 km/h (0 Bft) SW 220 ° 0 min 0 W/m² -2,2 °C 0,2 °C 0,0 km/h (0 Bft)
07.04.2026 05:31 23,4 °C 0,2 °C 43 % 84 % 1027,0 hPa 0,0 l/m² 0,0 km/h (0 Bft) SW 220 ° 0 min 0 W/m² -2,2 °C 0,2 °C 0,0 km/h (0 Bft)
07.04.2026 05:32 23,4 °C 0,2 °C 43 % 84 % 1026,9 hPa 0,0 l/m² 0,0 km/h (0 Bft) SW 220 ° 0 min 0 W/m² -2,2 °C 0,2 °C 0,0 km/h (0 Bft)
07.04.2026 05:33 23,4 °C 0,2 °C 43 % 84 % 1026,9 hPa 0,0 l/m² 0,0 km/h (0 Bft) SW 220 ° 0 min 0 W/m² -2,2 °C 0,2 °C 0,0 km/h (0 Bft)
07.04.2026 05:34 23,4 °C 0,2 °C 43 % 84 % 1026,8 hPa 0,0 l/m² 0,0 km/h (0 Bft) SW 220 ° 0 min 0 W/m² -2,2 °C 0,2 °C 0,0 km/h (0 Bft)
07.04.2026 05:36 23,4 °C 0,1 °C 44 % 84 % 1026,9 hPa 0,0 l/m² 0,0 km/h (0 Bft) SW 220 ° 0 min 0 W/m² -2,3 °C 0,1 °C 0,0 km/h (0 Bft)
07.04.2026 05:38 23,4 °C 0,1 °C 44 % 84 % 1026,8 hPa 0,0 l/m² 0,0 km/h (0 Bft) SW 220 ° 0 min 0 W/m² -2,3 °C 0,1 °C 0,0 km/h (0 Bft)
07.04.2026 05:40 23,4 °C 0,1 °C 44 % 84 % 1026,8 hPa 0,0 l/m² 0,0 km/h (0 Bft) SW 220 ° 0 min 0 W/m² -2,3 °C 0,1 °C 0,0 km/h (0 Bft)
07.04.2026 05:43 23,4 °C 0,1 °C 44 % 84 % 1027,0 hPa 0,0 l/m² 0,0 km/h (0 Bft) SW 220 ° 0 min 0 W/m² -2,3 °C 0,1 °C 0,0 km/h (0 Bft)
07.04.2026 05:46 23,4 °C 0,0 °C 44 % 84 % 1026,9 hPa 0,0 l/m² 0,0 km/h (0 Bft) SW 220 ° 0 min 0 W/m² -2,4 °C 0,0 °C 0,0 km/h (0 Bft)
07.04.2026 05:48 23,4 °C 0,0 °C 44 % 84 % 1027,0 hPa 0,0 l/m² 0,0 km/h (0 Bft) SW 220 ° 0 min 0 W/m² -2,4 °C 0,0 °C 0,0 km/h (0 Bft)
07.04.2026 05:50 23,4 °C 0,0 °C 44 % 84 % 1027,0 hPa 0,0 l/m² 0,0 km/h (0 Bft) SW 220 ° 0 min 0 W/m² -2,4 °C 0,0 °C 0,0 km/h (0 Bft)
07.04.2026 05:53 23,4 °C -0,1 °C 44 % 84 % 1026,9 hPa 0,0 l/m² 0,0 km/h (0 Bft) SW 220 ° 0 min 0 W/m² -2,5 °C -0,1 °C 0,0 km/h (0 Bft)
07.04.2026 05:55 23,4 °C -0,1 °C 44 % 84 % 1026,9 hPa 0,0 l/m² 0,0 km/h (0 Bft) SW 220 ° 0 min 0 W/m² -2,5 °C -0,1 °C 0,0 km/h (0 Bft)
07.04.2026 05:57 23,4 °C -0,2 °C 44 % 84 % 1026,9 hPa 0,0 l/m² 0,0 km/h (0 Bft) SW 220 ° 0 min 0 W/m² -2,6 °C -0,2 °C 0,0 km/h (0 Bft)
07.04.2026 05:59 23,4 °C -0,2 °C 44 % 84 % 1027,0 hPa 0,0 l/m² 0,0 km/h (0 Bft) SW 220 ° 0 min 0 W/m² -2,6 °C -0,2 °C 0,0 km/h (0 Bft)
07.04.2026 06:01 23,4 °C -0,2 °C 44 % 84 % 1026,9 hPa 0,0 l/m² 0,0 km/h (0 Bft) SW 220 ° 0 min 0 W/m² -2,6 °C -0,2 °C 0,0 km/h (0 Bft)
07.04.2026 06:02 23,3 °C -0,2 °C 44 % 84 % 1027,0 hPa 0,0 l/m² 0,0 km/h (0 Bft) SW 220 ° 0 min 0 W/m² -2,6 °C -0,2 °C 0,0 km/h (0 Bft)
07.04.2026 06:03 23,4 °C -0,2 °C 44 % 84 % 1027,0 hPa 0,0 l/m² 0,0 km/h (0 Bft) SW 220 ° 0 min 0 W/m² -2,6 °C -0,2 °C 0,0 km/h (0 Bft)
07.04.2026 06:04 23,4 °C -0,2 °C 44 % 84 % 1027,0 hPa 0,0 l/m² 0,0 km/h (0 Bft) SW 220 ° 0 min 0 W/m² -2,6 °C -0,2 °C 0,0 km/h (0 Bft)
07.04.2026 06:06 23,4 °C -0,3 °C 44 % 85 % 1027,0 hPa 0,0 l/m² 0,0 km/h (0 Bft) SW 220 ° 0 min 0 W/m² -2,5 °C -0,3 °C 0,0 km/h (0 Bft)
07.04.2026 06:08 23,3 °C -0,3 °C 44 % 85 % 1027,0 hPa 0,0 l/m² 0,0 km/h (0 Bft) SW 220 ° 0 min 0 W/m² -2,5 °C -0,3 °C 0,0 km/h (0 Bft)
07.04.2026 06:10 23,4 °C -0,3 °C 44 % 85 % 1027,0 hPa 0,0 l/m² 0,0 km/h (0 Bft) SW 220 ° 0 min 0 W/m² -2,5 °C -0,3 °C 0,0 km/h (0 Bft)
07.04.2026 06:13 23,3 °C -0,3 °C 44 % 85 % 1027,0 hPa 0,0 l/m² 0,0 km/h (0 Bft) SW 220 ° 0 min 0 W/m² -2,5 °C -0,3 °C 0,0 km/h (0 Bft)
07.04.2026 06:15 23,3 °C -0,3 °C 44 % 85 % 1027,0 hPa 0,0 l/m² 0,0 km/h (0 Bft) SW 220 ° 0 min 0 W/m² -2,5 °C -0,3 °C 0,0 km/h (0 Bft)
07.04.2026 06:17 23,3 °C -0,3 °C 43 % 85 % 1027,0 hPa 0,0 l/m² 0,0 km/h (0 Bft) SW 220 ° 0 min 0 W/m² -2,5 °C -0,3 °C 0,0 km/h (0 Bft)
07.04.2026 06:19 23,4 °C -0,3 °C 44 % 85 % 1027,0 hPa 0,0 l/m² 0,0 km/h (0 Bft) SW 220 ° 0 min 0 W/m² -2,5 °C -0,3 °C 0,0 km/h (0 Bft)
07.04.2026 06:21 23,4 °C -0,3 °C 43 % 85 % 1027,0 hPa 0,0 l/m² 0,0 km/h (0 Bft) SW 220 ° 0 min 0 W/m² -2,5 °C -0,3 °C 0,0 km/h (0 Bft)
07.04.2026 06:22 23,4 °C -0,4 °C 43 % 85 % 1027,1 hPa 0,0 l/m² 0,0 km/h (0 Bft) SW 220 ° 0 min 0 W/m² -2,6 °C -0,4 °C 0,0 km/h (0 Bft)
07.04.2026 06:23 23,4 °C -0,4 °C 43 % 85 % 1027,1 hPa 0,0 l/m² 0,0 km/h (0 Bft) SW 220 ° 0 min 0 W/m² -2,6 °C -0,4 °C 0,0 km/h (0 Bft)
07.04.2026 06:25 23,4 °C -0,4 °C 43 % 85 % 1027,1 hPa 0,0 l/m² 0,0 km/h (0 Bft) SW 220 ° 0 min 0 W/m² -2,6 °C -0,4 °C 0,0 km/h (0 Bft)
07.04.2026 06:26 23,4 °C -0,4 °C 43 % 85 % 1027,1 hPa 0,0 l/m² 0,0 km/h (0 Bft) SW 220 ° 0 min 0 W/m² -2,6 °C -0,4 °C 0,0 km/h (0 Bft)
07.04.2026 06:27 23,4 °C -0,4 °C 43 % 85 % 1027,0 hPa 0,0 l/m² 0,0 km/h (0 Bft) SW 220 ° 0 min 0 W/m² -2,6 °C -0,4 °C 0,0 km/h (0 Bft)
07.04.2026 06:28 23,3 °C -0,4 °C 43 % 85 % 1027,0 hPa 0,0 l/m² 0,0 km/h (0 Bft) SW 220 ° 0 min 0 W/m² -2,6 °C -0,4 °C 0,0 km/h (0 Bft)
07.04.2026 06:30 23,4 °C -0,4 °C 43 % 85 % 1027,1 hPa 0,0 l/m² 0,0 km/h (0 Bft) SW 220 ° 0 min 0 W/m² -2,6 °C -0,4 °C 0,0 km/h (0 Bft)
07.04.2026 06:33 23,4 °C -0,4 °C 43 % 85 % 1027,1 hPa 0,0 l/m² 0,0 km/h (0 Bft) SW 220 ° 0 min 0 W/m² -2,6 °C -0,4 °C 0,0 km/h (0 Bft)
07.04.2026 06:35 23,4 °C -0,5 °C 43 % 85 % 1027,1 hPa 0,0 l/m² 0,0 km/h (0 Bft) SW 220 ° 0 min 5 W/m² -2,7 °C -0,5 °C 0,0 km/h (0 Bft)
07.04.2026 06:37 23,4 °C -0,6 °C 43 % 85 % 1027,2 hPa 0,0 l/m² 0,0 km/h (0 Bft) SW 220 ° 0 min 5 W/m² -2,8 °C -0,6 °C 0,0 km/h (0 Bft)
07.04.2026 06:39 23,4 °C -0,6 °C 43 % 85 % 1027,2 hPa 0,0 l/m² 0,0 km/h (0 Bft) SW 220 ° 0 min 5 W/m² -2,8 °C -0,6 °C 0,0 km/h (0 Bft)
07.04.2026 06:41 23,4 °C -0,6 °C 43 % 85 % 1027,2 hPa 0,0 l/m² 0,0 km/h (0 Bft) SW 220 ° 0 min 7 W/m² -2,8 °C -0,6 °C 0,0 km/h (0 Bft)
07.04.2026 06:42 23,4 °C -0,6 °C 43 % 85 % 1027,1 hPa 0,0 l/m² 0,0 km/h (0 Bft) SW 220 ° 0 min 7 W/m² -2,8 °C -0,6 °C 0,0 km/h (0 Bft)
07.04.2026 06:43 23,4 °C -0,7 °C 43 % 85 % 1027,1 hPa 0,0 l/m² 0,0 km/h (0 Bft) SW 220 ° 0 min 7 W/m² -2,9 °C -0,7 °C 0,0 km/h (0 Bft)
07.04.2026 06:44 23,4 °C -0,7 °C 43 % 85 % 1027,1 hPa 0,0 l/m² 0,0 km/h (0 Bft) SW 220 ° 0 min 9 W/m² -2,9 °C -0,7 °C 0,0 km/h (0 Bft)
07.04.2026 06:47 23,3 °C -0,7 °C 40 % 85 % 1027,2 hPa 0,0 l/m² 0,0 km/h (0 Bft) SW 220 ° 0 min 9 W/m² -2,9 °C -0,7 °C 0,0 km/h (0 Bft)
07.04.2026 06:49 23,3 °C -0,7 °C 41 % 85 % 1027,1 hPa 0,0 l/m² 0,0 km/h (0 Bft) SW 220 ° 0 min 11 W/m² -2,9 °C -0,7 °C 0,0 km/h (0 Bft)
07.04.2026 06:51 23,3 °C -0,7 °C 41 % 85 % 1027,1 hPa 0,0 l/m² 0,0 km/h (0 Bft) SW 220 ° 0 min 11 W/m² -2,9 °C -0,7 °C 0,0 km/h (0 Bft)
07.04.2026 06:54 23,3 °C -0,7 °C 41 % 85 % 1027,2 hPa 0,0 l/m² 0,0 km/h (0 Bft) SW 220 ° 0 min 12 W/m² -2,9 °C -0,7 °C 0,0 km/h (0 Bft)
07.04.2026 06:56 23,3 °C -0,8 °C 41 % 85 % 1027,2 hPa 0,0 l/m² 0,0 km/h (0 Bft) SW 220 ° 0 min 12 W/m² -3,0 °C -0,8 °C 0,0 km/h (0 Bft)
07.04.2026 06:58 23,3 °C -0,8 °C 41 % 85 % 1027,2 hPa 0,0 l/m² 0,0 km/h (0 Bft) SW 220 ° 0 min 14 W/m² -3,0 °C -0,8 °C 0,0 km/h (0 Bft)
07.04.2026 07:00 23,3 °C -0,8 °C 42 % 85 % 1027,2 hPa 0,0 l/m² 0,0 km/h (0 Bft) SW 220 ° 0 min 14 W/m² -3,0 °C -0,8 °C 0,0 km/h (0 Bft)
07.04.2026 07:02 23,3 °C -0,8 °C 41 % 85 % 1027,2 hPa 0,0 l/m² 0,0 km/h (0 Bft) SW 220 ° 0 min 16 W/m² -3,0 °C -0,8 °C 0,0 km/h (0 Bft)
07.04.2026 07:03 23,3 °C -0,8 °C 41 % 85 % 1027,2 hPa 0,0 l/m² 0,0 km/h (0 Bft) SW 220 ° 0 min 16 W/m² -3,0 °C -0,8 °C 0,0 km/h (0 Bft)
07.04.2026 07:04 23,3 °C -0,8 °C 40 % 85 % 1027,1 hPa 0,0 l/m² 0,0 km/h (0 Bft) SW 220 ° 0 min 16 W/m² -3,0 °C -0,8 °C 0,0 km/h (0 Bft)
07.04.2026 07:05 23,3 °C -0,8 °C 40 % 85 % 1027,1 hPa 0,0 l/m² 0,0 km/h (0 Bft) SW 220 ° 0 min 16 W/m² -3,0 °C -0,8 °C 0,0 km/h (0 Bft)
07.04.2026 07:06 23,3 °C -0,8 °C 40 % 85 % 1027,1 hPa 0,0 l/m² 0,0 km/h (0 Bft) SW 220 ° 0 min 18 W/m² -3,0 °C -0,8 °C 0,0 km/h (0 Bft)
07.04.2026 07:08 23,3 °C -0,8 °C 40 % 85 % 1027,2 hPa 0,0 l/m² 0,0 km/h (0 Bft) SW 220 ° 0 min 18 W/m² -3,0 °C -0,8 °C 0,0 km/h (0 Bft)
07.04.2026 07:09 23,3 °C -0,8 °C 40 % 85 % 1027,2 hPa 0,0 l/m² 0,0 km/h (0 Bft) SW 220 ° 0 min 19 W/m² -3,0 °C -0,8 °C 0,0 km/h (0 Bft)
07.04.2026 07:11 23,3 °C -0,8 °C 40 % 85 % 1027,2 hPa 0,0 l/m² 0,0 km/h (0 Bft) SW 220 ° 0 min 19 W/m² -3,0 °C -0,8 °C 0,0 km/h (0 Bft)
07.04.2026 07:13 23,3 °C -0,8 °C 41 % 85 % 1027,3 hPa 0,0 l/m² 0,0 km/h (0 Bft) SW 220 ° 0 min 21 W/m² -3,0 °C -0,8 °C 0,0 km/h (0 Bft)
07.04.2026 07:14 23,3 °C -0,8 °C 41 % 86 % 1027,2 hPa 0,0 l/m² 0,0 km/h (0 Bft) SW 220 ° 0 min 21 W/m² -2,8 °C -0,8 °C 0,0 km/h (0 Bft)
07.04.2026 07:15 23,3 °C -0,8 °C 41 % 86 % 1027,2 hPa 0,0 l/m² 0,0 km/h (0 Bft) SW 220 ° 0 min 25 W/m² -2,8 °C -0,8 °C 0,0 km/h (0 Bft)
07.04.2026 07:16 23,3 °C -0,8 °C 41 % 86 % 1027,3 hPa 0,0 l/m² 0,0 km/h (0 Bft) SW 220 ° 0 min 25 W/m² -2,8 °C -0,8 °C 0,0 km/h (0 Bft)
07.04.2026 07:17 23,3 °C -0,8 °C 41 % 86 % 1027,3 hPa 0,0 l/m² 0,0 km/h (0 Bft) SW 220 ° 0 min 25 W/m² -2,8 °C -0,8 °C 0,0 km/h (0 Bft)
07.04.2026 07:18 23,3 °C -0,8 °C 41 % 86 % 1027,3 hPa 0,0 l/m² 0,0 km/h (0 Bft) SW 220 ° 0 min 28 W/m² -2,8 °C -0,8 °C 0,0 km/h (0 Bft)
07.04.2026 07:19 23,3 °C -0,8 °C 41 % 86 % 1027,3 hPa 0,0 l/m² 0,0 km/h (0 Bft) SW 220 ° 0 min 30 W/m² -2,8 °C -0,8 °C 0,0 km/h (0 Bft)
07.04.2026 07:20 23,3 °C -0,8 °C 41 % 86 % 1027,3 hPa 0,0 l/m² 0,0 km/h (0 Bft) SW 220 ° 0 min 32 W/m² -2,8 °C -0,8 °C 0,0 km/h (0 Bft)
07.04.2026 07:22 23,3 °C -0,8 °C 41 % 86 % 1027,3 hPa 0,0 l/m² 0,0 km/h (0 Bft) SW 220 ° 0 min 37 W/m² -2,8 °C -0,8 °C 0,0 km/h (0 Bft)
07.04.2026 07:23 23,3 °C -0,7 °C 41 % 86 % 1027,2 hPa 0,0 l/m² 0,0 km/h (0 Bft) SW 220 ° 0 min 39 W/m² -2,7 °C -0,7 °C 0,0 km/h (0 Bft)
07.04.2026 07:24 23,3 °C -0,7 °C 41 % 86 % 1027,3 hPa 0,0 l/m² 0,0 km/h (0 Bft) SW 220 ° 0 min 40 W/m² -2,7 °C -0,7 °C 0,0 km/h (0 Bft)
07.04.2026 07:25 23,3 °C -0,7 °C 41 % 86 % 1027,3 hPa 0,0 l/m² 0,0 km/h (0 Bft) SW 220 ° 0 min 44 W/m² -2,7 °C -0,7 °C 0,0 km/h (0 Bft)
07.04.2026 07:26 23,3 °C -0,7 °C 41 % 86 % 1027,3 hPa 0,0 l/m² 0,0 km/h (0 Bft) SW 220 ° 0 min 46 W/m² -2,7 °C -0,7 °C 0,0 km/h (0 Bft)
07.04.2026 07:27 23,3 °C -0,7 °C 41 % 86 % 1027,3 hPa 0,0 l/m² 0,0 km/h (0 Bft) SW 220 ° 0 min 47 W/m² -2,7 °C -0,7 °C 0,0 km/h (0 Bft)
07.04.2026 07:28 23,3 °C -0,6 °C 41 % 86 % 1027,3 hPa 0,0 l/m² 0,0 km/h (0 Bft) SW 220 ° 0 min 51 W/m² -2,6 °C -0,6 °C 0,0 km/h (0 Bft)
07.04.2026 07:29 23,3 °C -0,6 °C 41 % 86 % 1027,2 hPa 0,0 l/m² 0,0 km/h (0 Bft) SW 220 ° 1 min 53 W/m² -2,6 °C -0,6 °C 0,0 km/h (0 Bft)
07.04.2026 07:31 23,3 °C -0,5 °C 41 % 87 % 1027,3 hPa 0,0 l/m² 0,0 km/h (0 Bft) SW 220 ° 2 min 58 W/m² -2,4 °C -0,5 °C 0,0 km/h (0 Bft)
07.04.2026 07:33 23,3 °C -0,4 °C 41 % 87 % 1027,3 hPa 0,0 l/m² 0,0 km/h (0 Bft) SW 220 ° 2 min 63 W/m² -2,3 °C -0,4 °C 0,0 km/h (0 Bft)
07.04.2026 07:34 23,3 °C -0,4 °C 41 % 87 % 1027,3 hPa 0,0 l/m² 0,0 km/h (0 Bft) SW 220 ° 1 min 69 W/m² -2,3 °C -0,4 °C 0,0 km/h (0 Bft)
07.04.2026 07:35 23,3 °C -0,3 °C 41 % 87 % 1027,3 hPa 0,0 l/m² 0,0 km/h (0 Bft) SW 220 ° 1 min 72 W/m² -2,2 °C -0,3 °C 0,0 km/h (0 Bft)
07.04.2026 07:36 23,3 °C -0,3 °C 41 % 87 % 1027,3 hPa 0,0 l/m² 0,0 km/h (0 Bft) SW 220 ° 1 min 76 W/m² -2,2 °C -0,3 °C 0,0 km/h (0 Bft)
07.04.2026 07:37 23,3 °C -0,2 °C 41 % 87 % 1027,3 hPa 0,0 l/m² 0,0 km/h (0 Bft) SW 220 ° 1 min 77 W/m² -2,1 °C -0,2 °C 0,0 km/h (0 Bft)
07.04.2026 07:38 23,3 °C -0,2 °C 41 % 87 % 1027,3 hPa 0,0 l/m² 0,0 km/h (0 Bft) SW 220 ° 1 min 77 W/m² -2,1 °C -0,2 °C 0,0 km/h (0 Bft)
07.04.2026 07:39 23,3 °C -0,2 °C 41 % 87 % 1027,3 hPa 0,0 l/m² 0,0 km/h (0 Bft) SW 220 ° 1 min 81 W/m² -2,1 °C -0,2 °C 0,0 km/h (0 Bft)
07.04.2026 07:41 23,3 °C -0,1 °C 41 % 87 % 1027,4 hPa 0,0 l/m² 0,0 km/h (0 Bft) SW 220 ° 2 min 84 W/m² -2,0 °C -0,1 °C 0,0 km/h (0 Bft)
07.04.2026 07:43 23,3 °C 0,1 °C 41 % 88 % 1027,3 hPa 0,0 l/m² 0,0 km/h (0 Bft) SW 220 ° 2 min 90 W/m² -1,6 °C 0,1 °C 0,0 km/h (0 Bft)
07.04.2026 07:44 23,3 °C 0,2 °C 41 % 87 % 1027,3 hPa 0,0 l/m² 0,0 km/h (0 Bft) SW 220 ° 1 min 91 W/m² -1,7 °C 0,2 °C 0,0 km/h (0 Bft)
07.04.2026 07:45 23,3 °C 0,2 °C 41 % 87 % 1027,3 hPa 0,0 l/m² 0,0 km/h (0 Bft) SW 220 ° 1 min 90 W/m² -1,7 °C 0,2 °C 0,0 km/h (0 Bft)
07.04.2026 07:46 23,3 °C 0,2 °C 41 % 87 % 1027,3 hPa 0,0 l/m² 0,0 km/h (0 Bft) SW 220 ° 1 min 93 W/m² -1,7 °C 0,2 °C 0,0 km/h (0 Bft)
07.04.2026 07:47 23,3 °C 0,3 °C 41 % 87 % 1027,3 hPa 0,0 l/m² 0,2 km/h (0 Bft) SW 220 ° 1 min 91 W/m² -1,6 °C 0,3 °C 1,6 km/h (1 Bft)
07.04.2026 07:48 23,3 °C 0,3 °C 41 % 87 % 1027,3 hPa 0,0 l/m² 1,1 km/h (1 Bft) SW 220 ° 1 min 95 W/m² -1,6 °C 0,3 °C 3,2 km/h (1 Bft)
07.04.2026 07:49 23,3 °C 0,4 °C 41 % 88 % 1027,4 hPa 0,0 l/m² 0,0 km/h (0 Bft) SW 220 ° 1 min 98 W/m² -1,3 °C 0,4 °C 0,0 km/h (0 Bft)
07.04.2026 07:51 23,3 °C 0,4 °C 41 % 88 % 1027,4 hPa 0,0 l/m² 0,0 km/h (0 Bft) SW 220 ° 2 min 105 W/m² -1,3 °C 0,4 °C 0,0 km/h (0 Bft)
07.04.2026 07:53 23,3 °C 0,6 °C 41 % 88 % 1027,4 hPa 0,0 l/m² 0,0 km/h (0 Bft) SW 220 ° 2 min 111 W/m² -1,2 °C 0,6 °C 0,0 km/h (0 Bft)
07.04.2026 07:54 23,3 °C 0,7 °C 41 % 88 % 1027,4 hPa 0,0 l/m² 0,0 km/h (0 Bft) SW 220 ° 1 min 113 W/m² -1,1 °C 0,7 °C 0,0 km/h (0 Bft)
07.04.2026 07:55 23,3 °C 0,7 °C 41 % 88 % 1027,4 hPa 0,0 l/m² 0,0 km/h (0 Bft) SW 220 ° 1 min 107 W/m² -1,1 °C 0,7 °C 0,0 km/h (0 Bft)
07.04.2026 07:56 23,3 °C 0,8 °C 41 % 88 % 1027,6 hPa 0,0 l/m² 0,0 km/h (0 Bft) SW 220 ° 1 min 107 W/m² -1,0 °C 0,8 °C 0,0 km/h (0 Bft)
07.04.2026 07:57 23,3 °C 0,8 °C 41 % 88 % 1027,5 hPa 0,0 l/m² 0,0 km/h (0 Bft) SW 220 ° 1 min 125 W/m² -1,0 °C 0,8 °C 0,0 km/h (0 Bft)
07.04.2026 07:58 23,3 °C 0,9 °C 41 % 88 % 1027,5 hPa 0,0 l/m² 0,0 km/h (0 Bft) SW 220 ° 1 min 128 W/m² -0,9 °C 0,9 °C 0,0 km/h (0 Bft)
07.04.2026 07:59 23,3 °C 1,0 °C 41 % 88 % 1027,6 hPa 0,0 l/m² 0,0 km/h (0 Bft) SW 220 ° 1 min 132 W/m² -0,8 °C 1,0 °C 0,0 km/h (0 Bft)
07.04.2026 08:01 23,3 °C 1,1 °C 41 % 88 % 1027,7 hPa 0,0 l/m² 0,0 km/h (0 Bft) SW 220 ° 2 min 137 W/m² -0,7 °C 1,1 °C 0,0 km/h (0 Bft)
07.04.2026 08:03 23,3 °C 1,3 °C 41 % 88 % 1027,6 hPa 0,0 l/m² 0,0 km/h (0 Bft) SW 220 ° 2 min 148 W/m² -0,5 °C 1,3 °C 0,0 km/h (0 Bft)
07.04.2026 08:04 23,3 °C 1,3 °C 41 % 88 % 1027,7 hPa 0,0 l/m² 0,0 km/h (0 Bft) SW 220 ° 1 min 151 W/m² -0,5 °C 1,3 °C 0,0 km/h (0 Bft)
07.04.2026 08:05 23,3 °C 1,4 °C 41 % 88 % 1027,7 hPa 0,0 l/m² 0,0 km/h (0 Bft) SW 220 ° 1 min 155 W/m² -0,4 °C 1,4 °C 0,0 km/h (0 Bft)
07.04.2026 08:06 23,3 °C 1,4 °C 41 % 88 % 1027,7 hPa 0,0 l/m² 0,0 km/h (0 Bft) SW 220 ° 1 min 160 W/m² -0,4 °C 1,4 °C 0,0 km/h (0 Bft)
07.04.2026 08:07 23,3 °C 1,6 °C 41 % 88 % 1027,6 hPa 0,0 l/m² 0,0 km/h (0 Bft) SW 220 ° 1 min 163 W/m² -0,2 °C 1,6 °C 0,0 km/h (0 Bft)
07.04.2026 08:08 23,3 °C 1,6 °C 41 % 88 % 1027,7 hPa 0,0 l/m² 0,0 km/h (0 Bft) SW 220 ° 1 min 169 W/m² -0,2 °C 1,6 °C 0,0 km/h (0 Bft)
07.04.2026 08:09 23,3 °C 1,6 °C 41 % 88 % 1027,7 hPa 0,0 l/m² 0,0 km/h (0 Bft) SW 220 ° 1 min 178 W/m² -0,2 °C 1,6 °C 0,0 km/h (0 Bft)
07.04.2026 08:11 23,3 °C 1,8 °C 41 % 88 % 1027,7 hPa 0,0 l/m² 0,0 km/h (0 Bft) SW 221 ° 2 min 186 W/m² 0,0 °C 1,8 °C 0,0 km/h (0 Bft)
07.04.2026 08:13 23,3 °C 1,9 °C 41 % 88 % 1027,6 hPa 0,0 l/m² 0,1 km/h (0 Bft) SW 229 ° 2 min 195 W/m² 0,1 °C 1,9 °C 1,6 km/h (1 Bft)
07.04.2026 08:14 23,3 °C 2,0 °C 41 % 88 % 1027,6 hPa 0,0 l/m² 2,8 km/h (1 Bft) W 280 ° 1 min 200 W/m² 0,2 °C 2,0 °C 6,4 km/h (2 Bft)
07.04.2026 08:15 23,3 °C 2,1 °C 41 % 88 % 1027,6 hPa 0,0 l/m² 2,0 km/h (1 Bft) W 280 ° 1 min 209 W/m² 0,3 °C 2,1 °C 3,2 km/h (1 Bft)
07.04.2026 08:16 23,3 °C 2,2 °C 41 % 88 % 1027,7 hPa 0,0 l/m² 2,1 km/h (1 Bft) W 280 ° 1 min 214 W/m² 0,4 °C 2,2 °C 3,2 km/h (1 Bft)
07.04.2026 08:17 23,3 °C 2,3 °C 41 % 88 % 1027,7 hPa 0,0 l/m² 1,9 km/h (1 Bft) W 280 ° 1 min 218 W/m² 0,5 °C 2,3 °C 6,4 km/h (2 Bft)
07.04.2026 08:18 23,3 °C 2,3 °C 41 % 88 % 1027,7 hPa 0,0 l/m² 1,9 km/h (1 Bft) W 280 ° 1 min 221 W/m² 0,5 °C 2,3 °C 3,2 km/h (1 Bft)
07.04.2026 08:19 23,3 °C 2,4 °C 41 % 88 % 1027,8 hPa 0,0 l/m² 0,3 km/h (0 Bft) W 281 ° 1 min 225 W/m² 0,6 °C 2,4 °C 1,6 km/h (1 Bft)
07.04.2026 08:21 23,3 °C 2,6 °C 41 % 87 % 1027,8 hPa 0,0 l/m² 1,5 km/h (1 Bft) W-NW 298 ° 2 min 234 W/m² 0,7 °C 2,6 °C 6,4 km/h (2 Bft)
07.04.2026 08:23 23,3 °C 2,8 °C 41 % 87 % 1027,8 hPa 0,0 l/m² 2,1 km/h (1 Bft) W 279 ° 2 min 241 W/m² 0,9 °C 2,8 °C 9,7 km/h (2 Bft)
07.04.2026 08:24 23,3 °C 2,8 °C 41 % 87 % 1027,8 hPa 0,0 l/m² 4,1 km/h (1 Bft) W-NW 291 ° 1 min 243 W/m² 0,9 °C 2,8 °C 9,7 km/h (2 Bft)
07.04.2026 08:25 23,3 °C 2,9 °C 41 % 86 % 1027,7 hPa 0,0 l/m² 3,4 km/h (1 Bft) W 278 ° 1 min 246 W/m² 0,8 °C 2,9 °C 8,0 km/h (2 Bft)
07.04.2026 08:26 23,3 °C 3,1 °C 41 % 86 % 1027,8 hPa 0,0 l/m² 3,1 km/h (1 Bft) W-NW 283 ° 1 min 251 W/m² 1,0 °C 3,1 °C 4,8 km/h (1 Bft)
07.04.2026 08:27 23,3 °C 3,1 °C 41 % 86 % 1027,8 hPa 0,0 l/m² 3,3 km/h (1 Bft) NW 309 ° 1 min 255 W/m² 1,0 °C 3,1 °C 6,4 km/h (2 Bft)
07.04.2026 08:28 23,3 °C 3,2 °C 41 % 86 % 1027,7 hPa 0,0 l/m² 4,5 km/h (1 Bft) W 279 ° 1 min 257 W/m² 1,1 °C 3,2 °C 6,4 km/h (2 Bft)
07.04.2026 08:29 23,3 °C 3,3 °C 41 % 85 % 1027,7 hPa 0,0 l/m² 4,6 km/h (1 Bft) W-NW 283 ° 1 min 257 W/m² 1,0 °C 3,3 °C 11,3 km/h (2 Bft)
07.04.2026 08:30 23,3 °C 3,3 °C 41 % 85 % 1027,7 hPa 0,0 l/m² 4,2 km/h (1 Bft) W-NW 294 ° 1 min 264 W/m² 1,0 °C 3,3 °C 6,4 km/h (2 Bft)
07.04.2026 08:32 23,3 °C 3,6 °C 41 % 84 % 1027,7 hPa 0,0 l/m² 3,4 km/h (1 Bft) W-NW 284 ° 2 min 271 W/m² 1,2 °C 3,6 °C 9,7 km/h (2 Bft)
07.04.2026 08:33 23,3 °C 3,6 °C 41 % 84 % 1027,8 hPa 0,0 l/m² 1,1 km/h (1 Bft) W-NW 290 ° 1 min 274 W/m² 1,2 °C 3,6 °C 3,2 km/h (1 Bft)
07.04.2026 08:34 23,3 °C 3,7 °C 41 % 83 % 1027,8 hPa 0,0 l/m² 0,4 km/h (0 Bft) W-NW 290 ° 1 min 276 W/m² 1,1 °C 3,7 °C 1,6 km/h (1 Bft)
07.04.2026 08:35 23,3 °C 3,8 °C 41 % 83 % 1027,8 hPa 0,0 l/m² 2,7 km/h (1 Bft) W 275 ° 1 min 278 W/m² 1,2 °C 3,8 °C 4,8 km/h (1 Bft)
07.04.2026 08:36 23,3 °C 3,8 °C 41 % 82 % 1027,8 hPa 0,0 l/m² 7,4 km/h (2 Bft) W-NW 283 ° 1 min 281 W/m² 1,0 °C 2,9 °C 11,3 km/h (2 Bft)
07.04.2026 08:37 23,3 °C 3,9 °C 41 % 82 % 1027,7 hPa 0,0 l/m² 4,3 km/h (1 Bft) W-NW 286 ° 1 min 285 W/m² 1,1 °C 3,9 °C 6,4 km/h (2 Bft)
07.04.2026 08:38 23,3 °C 4,1 °C 41 % 81 % 1027,8 hPa 0,0 l/m² 6,7 km/h (2 Bft) W 279 ° 1 min 288 W/m² 1,1 °C 3,8 °C 12,9 km/h (3 Bft)
07.04.2026 08:39 23,3 °C 4,1 °C 41 % 81 % 1027,8 hPa 0,0 l/m² 8,2 km/h (2 Bft) W 277 ° 1 min 292 W/m² 1,1 °C 2,5 °C 11,3 km/h (2 Bft)
07.04.2026 08:41 23,3 °C 4,3 °C 41 % 80 % 1027,7 hPa 0,0 l/m² 5,8 km/h (2 Bft) W-NW 284 ° 2 min 295 W/m² 1,2 °C 4,3 °C 9,7 km/h (2 Bft)
07.04.2026 08:43 23,3 °C 4,4 °C 41 % 79 % 1027,8 hPa 0,0 l/m² 4,6 km/h (1 Bft) W-NW 295 ° 2 min 302 W/m² 1,1 °C 4,4 °C 11,3 km/h (2 Bft)
07.04.2026 08:44 23,3 °C 4,6 °C 42 % 78 % 1027,8 hPa 0,0 l/m² 5,1 km/h (1 Bft) W-NW 283 ° 1 min 308 W/m² 1,1 °C 4,6 °C 6,4 km/h (2 Bft)
07.04.2026 08:45 23,3 °C 4,6 °C 42 % 78 % 1027,8 hPa 0,0 l/m² 4,4 km/h (1 Bft) W 263 ° 1 min 309 W/m² 1,1 °C 4,6 °C 9,7 km/h (2 Bft)
07.04.2026 08:46 23,3 °C 4,7 °C 42 % 78 % 1027,8 hPa 0,0 l/m² 4,3 km/h (1 Bft) W 277 ° 1 min 313 W/m² 1,2 °C 4,7 °C 11,3 km/h (2 Bft)
07.04.2026 08:47 23,3 °C 4,8 °C 42 % 77 % 1027,8 hPa 0,0 l/m² 7,1 km/h (2 Bft) W-NW 283 ° 1 min 315 W/m² 1,1 °C 4,2 °C 12,9 km/h (3 Bft)
07.04.2026 08:48 23,3 °C 4,8 °C 41 % 77 % 1027,8 hPa 0,0 l/m² 6,4 km/h (2 Bft) W-NW 290 ° 1 min 318 W/m² 1,1 °C 4,8 °C 11,3 km/h (2 Bft)
07.04.2026 08:49 23,3 °C 4,9 °C 42 % 77 % 1027,8 hPa 0,0 l/m² 10,8 km/h (2 Bft) W-NW 286 ° 1 min 322 W/m² 1,2 °C 1,4 °C 16,1 km/h (3 Bft)
07.04.2026 08:51 23,3 °C 5,1 °C 42 % 76 % 1027,8 hPa 0,0 l/m² 7,4 km/h (2 Bft) W 276 ° 2 min 329 W/m² 1,2 °C 4,2 °C 14,5 km/h (3 Bft)
07.04.2026 08:53 23,3 °C 5,3 °C 42 % 75 % 1027,8 hPa 0,0 l/m² 4,7 km/h (1 Bft) W-NW 290 ° 2 min 334 W/m² 1,2 °C 5,3 °C 9,7 km/h (2 Bft)
07.04.2026 08:54 23,3 °C 5,3 °C 42 % 75 % 1027,8 hPa 0,0 l/m² 6,9 km/h (2 Bft) W 278 ° 1 min 336 W/m² 1,2 °C 4,9 °C 11,3 km/h (2 Bft)
07.04.2026 08:55 23,3 °C 5,3 °C 42 % 75 % 1027,7 hPa 0,0 l/m² 8,5 km/h (2 Bft) W-NW 286 ° 1 min 339 W/m² 1,2 °C 3,5 °C 14,5 km/h (3 Bft)
07.04.2026 08:56 23,3 °C 5,4 °C 42 % 74 % 1027,8 hPa 0,0 l/m² 7,5 km/h (2 Bft) W-NW 284 ° 1 min 345 W/m² 1,1 °C 4,4 °C 14,5 km/h (3 Bft)
07.04.2026 08:57 23,3 °C 5,6 °C 42 % 74 % 1027,8 hPa 0,0 l/m² 13,4 km/h (3 Bft) W-NW 289 ° 1 min 346 W/m² 1,3 °C 0,6 °C 16,1 km/h (3 Bft)
07.04.2026 08:58 23,3 °C 5,6 °C 42 % 74 % 1027,8 hPa 0,0 l/m² 10,8 km/h (2 Bft) W 259 ° 1 min 350 W/m² 1,3 °C 2,2 °C 16,1 km/h (3 Bft)
07.04.2026 08:59 23,3 °C 5,7 °C 42 % 73 % 1027,7 hPa 0,0 l/m² 11,3 km/h (2 Bft) W 281 ° 1 min 352 W/m² 1,2 °C 2,0 °C 17,7 km/h (3 Bft)
07.04.2026 09:00 23,3 °C 5,8 °C 42 % 73 % 1027,8 hPa 0,0 l/m² 13,1 km/h (3 Bft) W 276 ° 1 min 355 W/m² 1,3 °C 1,0 °C 16,1 km/h (3 Bft)
07.04.2026 09:02 23,3 °C 5,9 °C 42 % 73 % 1027,8 hPa 0,0 l/m² 10,0 km/h (2 Bft) W 275 ° 2 min 362 W/m² 1,4 °C 3,1 °C 14,5 km/h (3 Bft)
07.04.2026 09:03 23,3 °C 6,0 °C 42 % 73 % 1027,8 hPa 0,0 l/m² 7,8 km/h (2 Bft) NW 310 ° 1 min 364 W/m² 1,5 °C 4,8 °C 12,9 km/h (3 Bft)
07.04.2026 09:04 23,3 °C 6,0 °C 42 % 72 % 1027,8 hPa 0,0 l/m² 13,8 km/h (3 Bft) W 275 ° 1 min 367 W/m² 1,3 °C 0,9 °C 19,3 km/h (3 Bft)
07.04.2026 09:05 23,3 °C 6,1 °C 42 % 72 % 1027,8 hPa 0,0 l/m² 14,1 km/h (3 Bft) W-NW 287 ° 1 min 369 W/m² 1,4 °C 0,9 °C 16,1 km/h (3 Bft)
07.04.2026 09:06 23,3 °C 6,2 °C 42 % 71 % 1027,7 hPa 0,0 l/m² 12,5 km/h (2 Bft) W-SW 250 ° 1 min 371 W/m² 1,3 °C 1,8 °C 17,7 km/h (3 Bft)
07.04.2026 09:08 23,3 °C 6,3 °C 42 % 71 % 1027,7 hPa 0,0 l/m² 13,4 km/h (3 Bft) W 260 ° 2 min 378 W/m² 1,4 °C 1,5 °C 16,1 km/h (3 Bft)
07.04.2026 09:09 23,3 °C 6,3 °C 42 % 71 % 1027,7 hPa 0,0 l/m² 13,1 km/h (3 Bft) W 269 ° 1 min 381 W/m² 1,4 °C 1,6 °C 16,1 km/h (3 Bft)
07.04.2026 09:11 23,3 °C 6,4 °C 42 % 71 % 1027,7 hPa 0,0 l/m² 10,0 km/h (2 Bft) W 261 ° 2 min 387 W/m² 1,5 °C 3,6 °C 16,1 km/h (3 Bft)
07.04.2026 09:13 23,4 °C 6,6 °C 42 % 71 % 1027,8 hPa 0,0 l/m² 6,2 km/h (2 Bft) W-SW 254 ° 2 min 394 W/m² 1,7 °C 6,6 °C 14,5 km/h (3 Bft)
07.04.2026 09:14 23,4 °C 6,7 °C 42 % 70 % 1027,8 hPa 0,0 l/m² 9,7 km/h (2 Bft) W 277 ° 1 min 396 W/m² 1,6 °C 4,2 °C 14,5 km/h (3 Bft)
07.04.2026 09:15 23,4 °C 6,7 °C 42 % 70 % 1027,7 hPa 0,0 l/m² 10,5 km/h (2 Bft) W-NW 289 ° 1 min 399 W/m² 1,6 °C 3,6 °C 12,9 km/h (3 Bft)
07.04.2026 09:16 23,4 °C 6,8 °C 42 % 70 % 1027,7 hPa 0,0 l/m² 9,7 km/h (2 Bft) NW 322 ° 1 min 401 W/m² 1,7 °C 4,3 °C 12,9 km/h (3 Bft)
07.04.2026 09:17 23,4 °C 6,8 °C 42 % 69 % 1027,6 hPa 0,0 l/m² 9,0 km/h (2 Bft) N-NW 330 ° 1 min 404 W/m² 1,5 °C 4,7 °C 14,5 km/h (3 Bft)
07.04.2026 09:18 23,4 °C 6,9 °C 42 % 69 % 1027,7 hPa 0,0 l/m² 9,1 km/h (2 Bft) W 269 ° 1 min 406 W/m² 1,6 °C 4,8 °C 16,1 km/h (3 Bft)
07.04.2026 09:19 23,4 °C 6,9 °C 42 % 69 % 1027,6 hPa 0,0 l/m² 15,2 km/h (3 Bft) W 273 ° 1 min 411 W/m² 1,6 °C 1,3 °C 20,9 km/h (4 Bft)
07.04.2026 09:21 23,4 °C 7,1 °C 42 % 68 % 1027,6 hPa 0,0 l/m² 10,6 km/h (2 Bft) NW 308 ° 2 min 417 W/m² 1,6 °C 4,0 °C 16,1 km/h (3 Bft)
07.04.2026 09:23 23,4 °C 7,2 °C 42 % 68 % 1027,6 hPa 0,0 l/m² 7,7 km/h (2 Bft) W-NW 297 ° 2 min 422 W/m² 1,7 °C 6,1 °C 14,5 km/h (3 Bft)
07.04.2026 09:24 23,4 °C 7,2 °C 42 % 68 % 1027,6 hPa 0,0 l/m² 9,9 km/h (2 Bft) NW 322 ° 1 min 424 W/m² 1,7 °C 4,6 °C 16,1 km/h (3 Bft)
07.04.2026 09:25 23,4 °C 7,2 °C 42 % 68 % 1027,7 hPa 0,0 l/m² 11,9 km/h (2 Bft) W 275 ° 1 min 427 W/m² 1,7 °C 3,3 °C 19,3 km/h (3 Bft)
07.04.2026 09:26 23,4 °C 7,3 °C 42 % 67 % 1027,6 hPa 0,0 l/m² 11,6 km/h (2 Bft) W-NW 287 ° 1 min 429 W/m² 1,6 °C 3,6 °C 17,7 km/h (3 Bft)
07.04.2026 09:27 23,4 °C 7,4 °C 42 % 67 % 1027,7 hPa 0,0 l/m² 7,2 km/h (2 Bft) W-NW 302 ° 1 min 432 W/m² 1,7 °C 6,8 °C 17,7 km/h (3 Bft)
07.04.2026 09:28 23,4 °C 7,4 °C 42 % 67 % 1027,7 hPa 0,0 l/m² 8,1 km/h (2 Bft) NW 313 ° 1 min 436 W/m² 1,7 °C 6,0 °C 12,9 km/h (3 Bft)
07.04.2026 09:29 23,4 °C 7,5 °C 42 % 67 % 1027,7 hPa 0,0 l/m² 6,1 km/h (2 Bft) W 267 ° 1 min 438 W/m² 1,8 °C 7,5 °C 11,3 km/h (2 Bft)
07.04.2026 09:31 23,4 °C 7,6 °C 42 % 67 % 1027,7 hPa 0,0 l/m² 9,3 km/h (2 Bft) NW 316 ° 2 min 446 W/m² 1,9 °C 5,4 °C 14,5 km/h (3 Bft)
07.04.2026 09:33 23,4 °C 7,7 °C 42 % 67 % 1027,7 hPa 0,0 l/m² 8,1 km/h (2 Bft) W-NW 292 ° 2 min 450 W/m² 2,0 °C 6,4 °C 17,7 km/h (3 Bft)
07.04.2026 09:34 23,4 °C 7,8 °C 42 % 67 % 1027,6 hPa 0,0 l/m² 5,4 km/h (2 Bft) W-NW 286 ° 1 min 452 W/m² 2,1 °C 7,8 °C 11,3 km/h (2 Bft)
07.04.2026 09:35 23,4 °C 7,8 °C 42 % 67 % 1027,6 hPa 0,0 l/m² 7,7 km/h (2 Bft) W 277 ° 1 min 455 W/m² 2,1 °C 6,8 °C 14,5 km/h (3 Bft)
07.04.2026 09:36 23,4 °C 7,9 °C 42 % 66 % 1027,7 hPa 0,0 l/m² 6,9 km/h (2 Bft) W 271 ° 1 min 457 W/m² 1,9 °C 7,5 °C 12,9 km/h (3 Bft)
07.04.2026 09:37 23,4 °C 7,9 °C 42 % 66 % 1027,6 hPa 0,0 l/m² 8,6 km/h (2 Bft) W 267 ° 1 min 462 W/m² 1,9 °C 6,2 °C 16,1 km/h (3 Bft)
07.04.2026 09:38 23,4 °C 8,0 °C 42 % 66 % 1027,6 hPa 0,0 l/m² 15,1 km/h (3 Bft) W 267 ° 1 min 464 W/m² 2,0 °C 2,7 °C 19,3 km/h (3 Bft)
07.04.2026 09:39 23,4 °C 8,1 °C 42 % 65 % 1027,6 hPa 0,0 l/m² 12,7 km/h (3 Bft) W 271 ° 1 min 468 W/m² 1,9 °C 4,0 °C 19,3 km/h (3 Bft)
07.04.2026 09:41 23,4 °C 8,1 °C 42 % 64 % 1027,6 hPa 0,0 l/m² 13,4 km/h (3 Bft) W-NW 290 ° 2 min 471 W/m² 1,7 °C 3,6 °C 17,7 km/h (3 Bft)
07.04.2026 09:43 23,4 °C 8,2 °C 42 % 65 % 1027,6 hPa 0,0 l/m² 8,5 km/h (2 Bft) W 265 ° 2 min 476 W/m² 2,0 °C 6,6 °C 16,1 km/h (3 Bft)
07.04.2026 09:44 23,4 °C 8,3 °C 42 % 65 % 1027,5 hPa 0,0 l/m² 10,2 km/h (2 Bft) W-NW 294 ° 1 min 478 W/m² 2,1 °C 5,6 °C 16,1 km/h (3 Bft)
07.04.2026 09:46 23,4 °C 8,4 °C 42 % 64 % 1027,6 hPa 0,0 l/m² 11,3 km/h (2 Bft) W 269 ° 2 min 483 W/m² 2,0 °C 5,1 °C 16,1 km/h (3 Bft)
07.04.2026 09:47 23,4 °C 8,4 °C 42 % 64 % 1027,5 hPa 0,0 l/m² 12,9 km/h (3 Bft) W-NW 294 ° 1 min 485 W/m² 2,0 °C 4,2 °C 19,3 km/h (3 Bft)
07.04.2026 09:48 23,5 °C 8,4 °C 42 % 63 % 1027,6 hPa 0,0 l/m² 11,9 km/h (2 Bft) W 266 ° 1 min 492 W/m² 1,8 °C 4,7 °C 20,9 km/h (4 Bft)
07.04.2026 09:49 23,5 °C 8,4 °C 42 % 63 % 1027,6 hPa 0,0 l/m² 12,3 km/h (2 Bft) W-NW 285 ° 1 min 490 W/m² 1,8 °C 4,5 °C 19,3 km/h (3 Bft)
07.04.2026 09:50 23,5 °C 8,5 °C 42 % 63 % 1027,5 hPa 0,0 l/m² 8,9 km/h (2 Bft) W-NW 293 ° 1 min 496 W/m² 1,9 °C 6,6 °C 14,5 km/h (3 Bft)
07.04.2026 09:52 23,5 °C 8,6 °C 42 % 63 % 1027,6 hPa 0,0 l/m² 10,0 km/h (2 Bft) NW 311 ° 2 min 501 W/m² 2,0 °C 6,0 °C 20,9 km/h (4 Bft)
07.04.2026 09:53 23,5 °C 8,6 °C 42 % 63 % 1027,6 hPa 0,0 l/m² 11,2 km/h (2 Bft) NW 317 ° 1 min 504 W/m² 2,0 °C 5,3 °C 17,7 km/h (3 Bft)
07.04.2026 09:54 23,5 °C 8,7 °C 42 % 63 % 1027,6 hPa 0,0 l/m² 12,9 km/h (3 Bft) W-NW 298 ° 1 min 508 W/m² 2,1 °C 4,6 °C 22,5 km/h (4 Bft)
07.04.2026 09:55 23,5 °C 8,7 °C 42 % 63 % 1027,7 hPa 0,0 l/m² 8,7 km/h (2 Bft) W 274 ° 1 min 508 W/m² 2,1 °C 7,0 °C 14,5 km/h (3 Bft)
07.04.2026 09:56 23,5 °C 8,7 °C 42 % 63 % 1027,6 hPa 0,0 l/m² 5,5 km/h (2 Bft) NW 307 ° 1 min 512 W/m² 2,1 °C 8,7 °C 11,3 km/h (2 Bft)
07.04.2026 09:57 23,5 °C 8,8 °C 42 % 63 % 1027,6 hPa 0,0 l/m² 6,2 km/h (2 Bft) W-NW 286 ° 1 min 515 W/m² 2,2 °C 8,8 °C 11,3 km/h (2 Bft)
07.04.2026 09:58 23,5 °C 8,8 °C 42 % 63 % 1027,6 hPa 0,0 l/m² 10,5 km/h (2 Bft) W-NW 296 ° 1 min 515 W/m² 2,2 °C 6,0 °C 16,1 km/h (3 Bft)
07.04.2026 09:59 23,5 °C 8,9 °C 42 % 63 % 1027,6 hPa 0,0 l/m² 10,8 km/h (2 Bft) W-NW 294 ° 1 min 519 W/m² 2,2 °C 5,9 °C 16,1 km/h (3 Bft)
07.04.2026 10:01 23,5 °C 9,0 °C 42 % 63 % 1027,6 hPa 0,0 l/m² 10,0 km/h (2 Bft) W-NW 286 ° 2 min 527 W/m² 2,3 °C 6,5 °C 17,7 km/h (3 Bft)
07.04.2026 10:03 23,5 °C 9,2 °C 42 % 62 % 1027,6 hPa 0,0 l/m² 9,2 km/h (2 Bft) W 265 ° 2 min 529 W/m² 2,3 °C 7,2 °C 17,7 km/h (3 Bft)
07.04.2026 10:04 23,5 °C 9,2 °C 42 % 62 % 1027,7 hPa 0,0 l/m² 13,5 km/h (3 Bft) W-NW 292 ° 1 min 533 W/m² 2,3 °C 4,8 °C 17,7 km/h (3 Bft)
07.04.2026 10:05 23,5 °C 9,2 °C 42 % 62 % 1027,7 hPa 0,0 l/m² 10,6 km/h (2 Bft) W-NW 282 ° 1 min 533 W/m² 2,3 °C 6,4 °C 19,3 km/h (3 Bft)
07.04.2026 10:06 23,5 °C 9,2 °C 42 % 61 % 1027,7 hPa 0,0 l/m² 15,8 km/h (3 Bft) W 276 ° 1 min 540 W/m² 2,1 °C 3,8 °C 20,9 km/h (4 Bft)
07.04.2026 10:07 23,5 °C 9,3 °C 42 % 61 % 1027,7 hPa 0,0 l/m² 11,9 km/h (2 Bft) W 263 ° 1 min 540 W/m² 2,2 °C 5,8 °C 20,9 km/h (4 Bft)
07.04.2026 10:08 23,5 °C 9,3 °C 42 % 61 % 1027,8 hPa 0,0 l/m² 9,0 km/h (2 Bft) W-NW 286 ° 1 min 543 W/m² 2,2 °C 7,4 °C 12,9 km/h (3 Bft)
07.04.2026 10:09 23,5 °C 9,3 °C 42 % 60 % 1027,7 hPa 0,0 l/m² 12,2 km/h (2 Bft) W-NW 284 ° 1 min 545 W/m² 1,9 °C 5,6 °C 17,7 km/h (3 Bft)
07.04.2026 10:11 23,5 °C 9,4 °C 42 % 59 % 1027,7 hPa 0,0 l/m² 15,1 km/h (3 Bft) W-NW 284 ° 2 min 547 W/m² 1,8 °C 4,4 °C 22,5 km/h (4 Bft)
07.04.2026 10:13 23,5 °C 9,4 °C 42 % 59 % 1027,7 hPa 0,0 l/m² 14,1 km/h (3 Bft) W-NW 292 ° 2 min 554 W/m² 1,8 °C 4,8 °C 24,1 km/h (4 Bft)
07.04.2026 10:14 23,6 °C 9,5 °C 42 % 59 % 1027,7 hPa 0,0 l/m² 15,0 km/h (3 Bft) W-NW 302 ° 1 min 552 W/m² 1,9 °C 4,5 °C 20,9 km/h (4 Bft)
07.04.2026 10:15 23,5 °C 9,5 °C 42 % 58 % 1027,7 hPa 0,0 l/m² 8,8 km/h (2 Bft) W 279 ° 1 min 559 W/m² 1,7 °C 7,8 °C 17,7 km/h (3 Bft)
07.04.2026 10:16 23,5 °C 9,6 °C 42 % 59 % 1027,7 hPa 0,0 l/m² 10,7 km/h (2 Bft) NW 313 ° 1 min 561 W/m² 2,0 °C 6,8 °C 16,1 km/h (3 Bft)
07.04.2026 10:17 23,5 °C 9,6 °C 42 % 59 % 1027,7 hPa 0,0 l/m² 9,9 km/h (2 Bft) W-NW 298 ° 1 min 564 W/m² 2,0 °C 7,2 °C 16,1 km/h (3 Bft)
07.04.2026 10:18 23,5 °C 9,6 °C 42 % 59 % 1027,7 hPa 0,0 l/m² 11,6 km/h (2 Bft) NW 323 ° 1 min 568 W/m² 2,0 °C 6,3 °C 14,5 km/h (3 Bft)
07.04.2026 10:19 23,6 °C 9,6 °C 42 % 58 % 1027,8 hPa 0,0 l/m² 11,9 km/h (2 Bft) N-NW 335 ° 1 min 571 W/m² 1,8 °C 6,1 °C 16,1 km/h (3 Bft)
07.04.2026 10:20 23,6 °C 9,7 °C 42 % 58 % 1027,8 hPa 0,0 l/m² 11,8 km/h (2 Bft) NW 309 ° 1 min 573 W/m² 1,8 °C 6,3 °C 17,7 km/h (3 Bft)
07.04.2026 10:22 23,6 °C 9,8 °C 42 % 59 % 1027,8 hPa 0,0 l/m² 9,0 km/h (2 Bft) NW 323 ° 2 min 575 W/m² 2,2 °C 8,0 °C 14,5 km/h (3 Bft)
07.04.2026 10:23 23,6 °C 9,8 °C 42 % 59 % 1027,8 hPa 0,0 l/m² 12,5 km/h (2 Bft) W 273 ° 1 min 578 W/m² 2,2 °C 6,0 °C 17,7 km/h (3 Bft)
07.04.2026 10:24 23,5 °C 9,8 °C 42 % 57 % 1027,8 hPa 0,0 l/m² 15,8 km/h (3 Bft) W 275 ° 1 min 582 W/m² 1,7 °C 4,6 °C 22,5 km/h (4 Bft)
07.04.2026 10:25 23,6 °C 9,8 °C 42 % 56 % 1027,8 hPa 0,0 l/m² 7,3 km/h (2 Bft) W 281 ° 1 min 582 W/m² 1,4 °C 9,1 °C 11,3 km/h (2 Bft)
07.04.2026 10:26 23,5 °C 9,9 °C 42 % 56 % 1027,8 hPa 0,0 l/m² 13,7 km/h (3 Bft) W 271 ° 1 min 589 W/m² 1,5 °C 5,6 °C 20,9 km/h (4 Bft)
07.04.2026 10:27 23,5 °C 9,9 °C 42 % 56 % 1027,8 hPa 0,0 l/m² 12,6 km/h (3 Bft) W 265 ° 1 min 589 W/m² 1,5 °C 6,1 °C 19,3 km/h (3 Bft)
07.04.2026 10:28 23,5 °C 9,9 °C 42 % 55 % 1027,8 hPa 0,0 l/m² 11,7 km/h (2 Bft) W 275 ° 1 min 591 W/m² 1,3 °C 6,6 °C 17,7 km/h (3 Bft)
07.04.2026 10:29 23,6 °C 10,0 °C 42 % 55 % 1027,7 hPa 0,0 l/m² 8,2 km/h (2 Bft) W-NW 290 ° 1 min 594 W/m² 1,4 °C 8,7 °C 14,5 km/h (3 Bft)
07.04.2026 10:31 23,6 °C 10,1 °C 42 % 55 % 1027,7 hPa 0,0 l/m² 10,5 km/h (2 Bft) W-NW 284 ° 2 min 596 W/m² 1,5 °C 7,4 °C 16,1 km/h (3 Bft)
07.04.2026 10:33 23,6 °C 10,2 °C 42 % 56 % 1027,8 hPa 0,0 l/m² 8,2 km/h (2 Bft) W-NW 285 ° 2 min 598 W/m² 1,8 °C 8,9 °C 17,7 km/h (3 Bft)
07.04.2026 10:34 23,6 °C 10,2 °C 42 % 55 % 1027,8 hPa 0,0 l/m² 9,8 km/h (2 Bft) W 269 ° 1 min 601 W/m² 1,6 °C 7,9 °C 16,1 km/h (3 Bft)
07.04.2026 10:35 23,6 °C 10,2 °C 42 % 55 % 1027,7 hPa 0,0 l/m² 15,1 km/h (3 Bft) W-NW 292 ° 1 min 603 W/m² 1,6 °C 5,3 °C 17,7 km/h (3 Bft)
07.04.2026 10:36 23,6 °C 10,2 °C 42 % 55 % 1027,8 hPa 0,0 l/m² 14,3 km/h (3 Bft) W 277 ° 1 min 605 W/m² 1,6 °C 5,7 °C 19,3 km/h (3 Bft)
07.04.2026 10:37 23,6 °C 10,3 °C 42 % 54 % 1027,8 hPa 0,0 l/m² 15,0 km/h (3 Bft) W-SW 257 ° 1 min 606 W/m² 1,4 °C 5,5 °C 20,9 km/h (4 Bft)
07.04.2026 10:38 23,6 °C 10,3 °C 42 % 55 % 1027,8 hPa 0,0 l/m² 20,6 km/h (4 Bft) W 264 ° 1 min 608 W/m² 1,7 °C 3,5 °C 24,1 km/h (4 Bft)
07.04.2026 10:39 23,6 °C 10,3 °C 42 % 54 % 1027,6 hPa 0,0 l/m² 14,8 km/h (3 Bft) NW 309 ° 1 min 612 W/m² 1,4 °C 5,6 °C 22,5 km/h (4 Bft)
07.04.2026 10:40 23,6 °C 10,3 °C 42 % 53 % 1027,8 hPa 0,0 l/m² 15,8 km/h (3 Bft) W 268 ° 1 min 613 W/m² 1,1 °C 5,2 °C 20,9 km/h (4 Bft)
07.04.2026 10:42 23,6 °C 10,3 °C 42 % 53 % 1027,8 hPa 0,0 l/m² 12,3 km/h (2 Bft) W 279 ° 2 min 619 W/m² 1,1 °C 6,7 °C 20,9 km/h (4 Bft)
07.04.2026 10:44 23,6 °C 10,3 °C 42 % 53 % 1027,7 hPa 0,0 l/m² 16,2 km/h (3 Bft) W 263 ° 2 min 624 W/m² 1,1 °C 5,0 °C 22,5 km/h (4 Bft)
07.04.2026 10:45 23,6 °C 10,4 °C 42 % 53 % 1027,7 hPa 0,0 l/m² 19,0 km/h (3 Bft) W-NW 284 ° 1 min 624 W/m² 1,2 °C 4,1 °C 25,7 km/h (4 Bft)
07.04.2026 10:46 23,6 °C 10,4 °C 42 % 52 % 1027,6 hPa 0,0 l/m² 18,6 km/h (3 Bft) W 265 ° 1 min 628 W/m² 1,0 °C 4,3 °C 22,5 km/h (4 Bft)
07.04.2026 10:47 23,5 °C 10,4 °C 42 % 52 % 1027,7 hPa 0,0 l/m² 13,8 km/h (3 Bft) W 264 ° 1 min 631 W/m² 1,0 °C 6,1 °C 19,3 km/h (3 Bft)
07.04.2026 10:48 23,6 °C 10,4 °C 42 % 52 % 1027,7 hPa 0,0 l/m² 20,6 km/h (4 Bft) W 274 ° 1 min 631 W/m² 1,0 °C 3,6 °C 24,1 km/h (4 Bft)
07.04.2026 10:49 23,6 °C 10,4 °C 42 % 52 % 1027,6 hPa 0,0 l/m² 19,1 km/h (3 Bft) NW 305 ° 1 min 635 W/m² 1,0 °C 4,1 °C 24,1 km/h (4 Bft)
07.04.2026 10:50 23,6 °C 10,4 °C 42 % 52 % 1027,7 hPa 0,0 l/m² 10,1 km/h (2 Bft) W-SW 254 ° 1 min 638 W/m² 1,0 °C 8,0 °C 17,7 km/h (3 Bft)
07.04.2026 10:52 23,6 °C 10,4 °C 42 % 52 % 1027,6 hPa 0,0 l/m² 12,4 km/h (2 Bft) NW 306 ° 2 min 640 W/m² 1,0 °C 6,8 °C 22,5 km/h (4 Bft)
07.04.2026 10:53 23,6 °C 10,5 °C 42 % 52 % 1027,6 hPa 0,0 l/m² 16,4 km/h (3 Bft) W 277 ° 1 min 647 W/m² 1,1 °C 5,2 °C 25,7 km/h (4 Bft)
07.04.2026 10:54 23,6 °C 10,6 °C 42 % 52 % 1027,6 hPa 0,0 l/m² 8,8 km/h (2 Bft) W-NW 293 ° 1 min 645 W/m² 1,2 °C 9,0 °C 16,1 km/h (3 Bft)
07.04.2026 10:55 23,6 °C 10,6 °C 42 % 52 % 1027,7 hPa 0,0 l/m² 7,3 km/h (2 Bft) W 269 ° 1 min 649 W/m² 1,2 °C 10,0 °C 16,1 km/h (3 Bft)
07.04.2026 10:56 23,6 °C 10,6 °C 42 % 52 % 1027,8 hPa 0,0 l/m² 11,9 km/h (2 Bft) W-NW 294 ° 1 min 649 W/m² 1,2 °C 7,3 °C 16,1 km/h (3 Bft)
07.04.2026 10:57 23,6 °C 10,7 °C 42 % 52 % 1027,8 hPa 0,0 l/m² 12,2 km/h (2 Bft) W-NW 303 ° 1 min 650 W/m² 1,3 °C 7,2 °C 17,7 km/h (3 Bft)
07.04.2026 10:58 23,5 °C 10,7 °C 42 % 52 % 1027,7 hPa 0,0 l/m² 12,4 km/h (2 Bft) N-NW 340 ° 1 min 652 W/m² 1,3 °C 7,1 °C 17,7 km/h (3 Bft)
07.04.2026 10:59 23,5 °C 10,8 °C 42 % 53 % 1027,7 hPa 0,0 l/m² 16,0 km/h (3 Bft) NW 312 ° 1 min 656 W/m² 1,6 °C 5,7 °C 19,3 km/h (3 Bft)
07.04.2026 11:00 23,6 °C 10,8 °C 42 % 53 % 1027,8 hPa 0,0 l/m² 13,0 km/h (3 Bft) W-NW 299 ° 1 min 659 W/m² 1,6 °C 7,0 °C 14,5 km/h (3 Bft)
07.04.2026 11:02 23,6 °C 10,9 °C 42 % 50 % 1027,7 hPa 0,0 l/m² 9,6 km/h (2 Bft) W-NW 291 ° 2 min 661 W/m² 0,9 °C 8,8 °C 16,1 km/h (3 Bft)
07.04.2026 11:03 23,6 °C 10,9 °C 42 % 51 % 1027,7 hPa 0,0 l/m² 12,0 km/h (2 Bft) W 262 ° 1 min 661 W/m² 1,2 °C 7,6 °C 19,3 km/h (3 Bft)
07.04.2026 11:04 23,6 °C 11,0 °C 42 % 51 % 1027,7 hPa 0,0 l/m² 10,1 km/h (2 Bft) NW 310 ° 1 min 666 W/m² 1,3 °C 8,6 °C 19,3 km/h (3 Bft)
07.04.2026 11:05 23,6 °C 11,1 °C 42 % 51 % 1027,8 hPa 0,0 l/m² 12,5 km/h (2 Bft) W 281 ° 1 min 668 W/m² 1,4 °C 7,5 °C 20,9 km/h (4 Bft)
07.04.2026 11:06 23,6 °C 11,1 °C 42 % 51 % 1027,9 hPa 0,0 l/m² 14,6 km/h (3 Bft) W-NW 285 ° 1 min 671 W/m² 1,4 °C 6,6 °C 20,9 km/h (4 Bft)
07.04.2026 11:08 23,6 °C 11,2 °C 42 % 49 % 1027,8 hPa 0,0 l/m² 12,9 km/h (3 Bft) W 271 ° 2 min 673 W/m² 0,9 °C 7,5 °C 17,7 km/h (3 Bft)
07.04.2026 11:09 23,6 °C 11,2 °C 42 % 49 % 1027,8 hPa 0,0 l/m² 8,1 km/h (2 Bft) W-NW 298 ° 1 min 671 W/m² 0,9 °C 10,0 °C 12,9 km/h (3 Bft)
07.04.2026 11:11 23,6 °C 11,3 °C 42 % 51 % 1027,7 hPa 0,0 l/m² 6,7 km/h (2 Bft) N 355 ° 2 min 679 W/m² 1,5 °C 11,1 °C 16,1 km/h (3 Bft)
07.04.2026 11:13 23,6 °C 11,3 °C 42 % 49 % 1027,7 hPa 0,0 l/m² 12,6 km/h (3 Bft) NW 324 ° 2 min 682 W/m² 1,0 °C 7,7 °C 20,9 km/h (4 Bft)
07.04.2026 11:14 23,6 °C 11,4 °C 42 % 50 % 1027,8 hPa 0,0 l/m² 15,3 km/h (3 Bft) W 277 ° 1 min 682 W/m² 1,4 °C 6,7 °C 19,3 km/h (3 Bft)
07.04.2026 11:15 23,6 °C 11,5 °C 42 % 49 % 1027,8 hPa 0,0 l/m² 11,0 km/h (2 Bft) W 267 ° 1 min 684 W/m² 1,2 °C 8,7 °C 16,1 km/h (3 Bft)
07.04.2026 11:16 23,5 °C 11,5 °C 42 % 50 % 1027,8 hPa 0,0 l/m² 13,8 km/h (3 Bft) W-NW 285 ° 1 min 686 W/m² 1,4 °C 7,4 °C 19,3 km/h (3 Bft)
07.04.2026 11:17 23,6 °C 11,6 °C 42 % 50 % 1027,8 hPa 0,0 l/m² 7,6 km/h (2 Bft) NW 314 ° 1 min 691 W/m² 1,5 °C 10,8 °C 12,9 km/h (3 Bft)
07.04.2026 11:18 23,5 °C 11,6 °C 42 % 51 % 1027,8 hPa 0,0 l/m² 11,9 km/h (2 Bft) NW 307 ° 1 min 689 W/m² 1,8 °C 8,4 °C 16,1 km/h (3 Bft)
07.04.2026 11:19 23,6 °C 11,6 °C 42 % 51 % 1027,8 hPa 0,0 l/m² 14,5 km/h (3 Bft) NW 318 ° 1 min 691 W/m² 1,8 °C 7,3 °C 17,7 km/h (3 Bft)
07.04.2026 11:21 23,6 °C 11,7 °C 42 % 49 % 1027,7 hPa 0,0 l/m² 10,7 km/h (2 Bft) W-NW 302 ° 2 min 696 W/m² 1,3 °C 9,1 °C 16,1 km/h (3 Bft)
07.04.2026 11:23 23,5 °C 11,7 °C 42 % 49 % 1027,8 hPa 0,0 l/m² 13,6 km/h (3 Bft) NW 321 ° 2 min 700 W/m² 1,3 °C 7,8 °C 20,9 km/h (4 Bft)
07.04.2026 11:24 23,6 °C 11,8 °C 42 % 49 % 1027,8 hPa 0,0 l/m² 5,5 km/h (2 Bft) W 278 ° 1 min 700 W/m² 1,4 °C 11,8 °C 12,9 km/h (3 Bft)
07.04.2026 11:25 23,5 °C 11,8 °C 42 % 50 % 1027,7 hPa 0,0 l/m² 5,8 km/h (2 Bft) W 274 ° 1 min 701 W/m² 1,7 °C 11,8 °C 9,7 km/h (2 Bft)
07.04.2026 11:26 23,5 °C 11,8 °C 42 % 50 % 1027,7 hPa 0,0 l/m² 14,8 km/h (3 Bft) W-NW 284 ° 1 min 701 W/m² 1,7 °C 7,4 °C 24,1 km/h (4 Bft)
07.04.2026 11:27 23,5 °C 11,9 °C 42 % 49 % 1027,7 hPa 0,0 l/m² 15,0 km/h (3 Bft) W 275 ° 1 min 705 W/m² 1,5 °C 7,4 °C 19,3 km/h (3 Bft)
07.04.2026 11:28 23,5 °C 11,9 °C 42 % 48 % 1027,7 hPa 0,0 l/m² 13,2 km/h (3 Bft) W-NW 302 ° 1 min 705 W/m² 1,2 °C 8,2 °C 17,7 km/h (3 Bft)
07.04.2026 11:29 23,5 °C 11,9 °C 42 % 48 % 1027,7 hPa 0,0 l/m² 7,7 km/h (2 Bft) NW 325 ° 1 min 707 W/m² 1,2 °C 11,0 °C 17,7 km/h (3 Bft)
07.04.2026 11:30 23,5 °C 11,9 °C 42 % 49 % 1027,8 hPa 0,0 l/m² 11,1 km/h (2 Bft) W-NW 288 ° 1 min 708 W/m² 1,5 °C 9,1 °C 17,7 km/h (3 Bft)
07.04.2026 11:32 23,5 °C 12,0 °C 42 % 50 % 1027,8 hPa 0,0 l/m² 7,1 km/h (2 Bft) W-SW 242 ° 2 min 712 W/m² 1,9 °C 11,5 °C 12,9 km/h (3 Bft)
07.04.2026 11:33 23,5 °C 12,1 °C 42 % 50 % 1027,8 hPa 0,0 l/m² 8,3 km/h (2 Bft) W-SW 254 ° 1 min 710 W/m² 2,0 °C 10,9 °C 14,5 km/h (3 Bft)
07.04.2026 11:34 23,5 °C 12,1 °C 42 % 50 % 1027,7 hPa 0,0 l/m² 14,4 km/h (3 Bft) W-NW 300 ° 1 min 714 W/m² 2,0 °C 7,9 °C 20,9 km/h (4 Bft)
07.04.2026 11:35 23,5 °C 12,2 °C 42 % 49 % 1027,7 hPa 0,0 l/m² 8,0 km/h (2 Bft) N-NW 332 ° 1 min 717 W/m² 1,8 °C 11,2 °C 12,9 km/h (3 Bft)
07.04.2026 11:36 23,5 °C 12,2 °C 42 % 49 % 1027,6 hPa 0,0 l/m² 8,5 km/h (2 Bft) W 269 ° 1 min 719 W/m² 1,8 °C 10,9 °C 14,5 km/h (3 Bft)
07.04.2026 11:37 23,5 °C 12,2 °C 42 % 49 % 1027,7 hPa 0,0 l/m² 12,2 km/h (2 Bft) NW 325 ° 1 min 719 W/m² 1,8 °C 9,0 °C 22,5 km/h (4 Bft)
07.04.2026 11:38 23,5 °C 12,2 °C 42 % 48 % 1027,8 hPa 0,0 l/m² 11,1 km/h (2 Bft) N-NW 346 ° 1 min 721 W/m² 1,5 °C 9,5 °C 14,5 km/h (3 Bft)
07.04.2026 11:39 23,5 °C 12,3 °C 42 % 48 % 1027,8 hPa 0,0 l/m² 11,1 km/h (2 Bft) W-SW 258 ° 1 min 721 W/m² 1,6 °C 9,6 °C 22,5 km/h (4 Bft)
07.04.2026 11:40 23,5 °C 12,3 °C 42 % 47 % 1027,7 hPa 0,0 l/m² 22,4 km/h (4 Bft) W-NW 302 ° 1 min 724 W/m² 1,3 °C 5,6 °C 27,4 km/h (5 Bft)
07.04.2026 11:41 23,5 °C 12,3 °C 42 % 47 % 1027,8 hPa 0,0 l/m² 15,0 km/h (3 Bft) W 280 ° 1 min 726 W/m² 1,3 °C 7,9 °C 20,9 km/h (4 Bft)
07.04.2026 11:42 23,5 °C 12,3 °C 42 % 47 % 1027,8 hPa 0,0 l/m² 17,0 km/h (3 Bft) W 281 ° 1 min 728 W/m² 1,3 °C 7,2 °C 20,9 km/h (4 Bft)
07.04.2026 11:43 23,5 °C 12,2 °C 42 % 47 % 1027,8 hPa 0,0 l/m² 17,6 km/h (3 Bft) W-NW 284 ° 1 min 726 W/m² 1,2 °C 6,9 °C 25,7 km/h (4 Bft)
07.04.2026 11:44 23,5 °C 12,2 °C 42 % 46 % 1027,7 hPa 0,0 l/m² 16,7 km/h (3 Bft) W-NW 293 ° 1 min 729 W/m² 0,9 °C 7,2 °C 19,3 km/h (3 Bft)
07.04.2026 11:45 23,5 °C 12,2 °C 42 % 46 % 1027,6 hPa 0,0 l/m² 11,5 km/h (2 Bft) NW 309 ° 1 min 729 W/m² 0,9 °C 9,3 °C 14,5 km/h (3 Bft)
07.04.2026 11:46 23,5 °C 12,2 °C 42 % 47 % 1027,6 hPa 0,0 l/m² 11,6 km/h (2 Bft) W 275 ° 1 min 731 W/m² 1,2 °C 9,2 °C 17,7 km/h (3 Bft)
07.04.2026 11:47 23,5 °C 12,2 °C 42 % 48 % 1027,7 hPa 0,0 l/m² 6,8 km/h (2 Bft) N-NW 338 ° 1 min 731 W/m² 1,5 °C 11,9 °C 11,3 km/h (2 Bft)
07.04.2026 11:48 23,4 °C 12,2 °C 42 % 49 % 1027,6 hPa 0,0 l/m² 18,7 km/h (3 Bft) NW 311 ° 1 min 735 W/m² 1,8 °C 6,5 °C 24,1 km/h (4 Bft)
07.04.2026 11:49 23,4 °C 12,2 °C 42 % 46 % 1027,7 hPa 0,0 l/m² 15,6 km/h (3 Bft) NW 306 ° 1 min 737 W/m² 0,9 °C 7,6 °C 24,1 km/h (4 Bft)
07.04.2026 11:51 23,5 °C 12,2 °C 42 % 46 % 1027,7 hPa 0,0 l/m² 12,7 km/h (3 Bft) W-NW 285 ° 2 min 742 W/m² 0,9 °C 8,7 °C 22,5 km/h (4 Bft)
07.04.2026 11:53 23,5 °C 12,3 °C 42 % 46 % 1027,7 hPa 0,0 l/m² 12,4 km/h (2 Bft) W-SW 252 ° 2 min 740 W/m² 1,0 °C 9,0 °C 16,1 km/h (3 Bft)
07.04.2026 11:54 23,4 °C 12,3 °C 42 % 46 % 1027,6 hPa 0,0 l/m² 14,0 km/h (3 Bft) W 279 ° 1 min 742 W/m² 1,0 °C 8,3 °C 17,7 km/h (3 Bft)
07.04.2026 11:55 23,4 °C 12,3 °C 42 % 44 % 1027,6 hPa 0,0 l/m² 19,1 km/h (3 Bft) W-NW 282 ° 1 min 747 W/m² 0,4 °C 6,5 °C 25,7 km/h (4 Bft)
07.04.2026 11:56 23,5 °C 12,3 °C 42 % 43 % 1027,6 hPa 0,0 l/m² 15,3 km/h (3 Bft) N 351 ° 1 min 745 W/m² 0,1 °C 7,8 °C 22,5 km/h (4 Bft)
07.04.2026 11:57 23,4 °C 12,3 °C 42 % 44 % 1027,7 hPa 0,0 l/m² 12,3 km/h (2 Bft) N-NW 345 ° 1 min 747 W/m² 0,4 °C 9,0 °C 19,3 km/h (3 Bft)
07.04.2026 11:58 23,4 °C 12,4 °C 42 % 45 % 1027,7 hPa 0,0 l/m² 10,4 km/h (2 Bft) N-NW 329 ° 1 min 744 W/m² 0,8 °C 10,0 °C 17,7 km/h (3 Bft)
07.04.2026 11:59 23,4 °C 12,4 °C 42 % 45 % 1027,6 hPa 0,0 l/m² 8,0 km/h (2 Bft) NW 325 ° 1 min 751 W/m² 0,8 °C 11,4 °C 12,9 km/h (3 Bft)
07.04.2026 12:00 23,4 °C 12,4 °C 42 % 46 % 1027,7 hPa 0,0 l/m² 6,4 km/h (2 Bft) W-NW 292 ° 1 min 749 W/m² 1,1 °C 12,4 °C 12,9 km/h (3 Bft)
07.04.2026 12:06 23,4 °C 12,8 °C 43 % 47 % 1027,6 hPa 0,0 l/m² 11,5 km/h (2 Bft) W 261 ° 6 min 758 W/m² 1,8 °C 10,0 °C 19,3 km/h (3 Bft)
07.04.2026 12:08 23,4 °C 12,9 °C 43 % 47 % 1027,6 hPa 0,0 l/m² 8,5 km/h (2 Bft) W-NW 301 ° 2 min 759 W/m² 1,9 °C 11,6 °C 19,3 km/h (3 Bft)
07.04.2026 12:09 23,4 °C 13,0 °C 43 % 48 % 1027,6 hPa 0,0 l/m² 10,5 km/h (2 Bft) NW 317 ° 1 min 765 W/m² 2,3 °C 10,7 °C 17,7 km/h (3 Bft)
07.04.2026 12:11 23,4 °C 13,1 °C 43 % 46 % 1027,5 hPa 0,0 l/m² 11,5 km/h (2 Bft) W 275 ° 2 min 763 W/m² 1,7 °C 10,3 °C 19,3 km/h (3 Bft)
07.04.2026 12:12 23,4 °C 13,2 °C 43 % 46 % 1027,5 hPa 0,0 l/m² 14,5 km/h (3 Bft) W 263 ° 1 min 765 W/m² 1,8 °C 9,2 °C 20,9 km/h (4 Bft)
07.04.2026 12:14 23,4 °C 13,2 °C 43 % 43 % 1027,4 hPa 0,0 l/m² 17,0 km/h (3 Bft) W 271 ° 2 min 766 W/m² 0,9 °C 8,3 °C 24,1 km/h (4 Bft)
07.04.2026 12:15 23,4 °C 13,2 °C 43 % 44 % 1027,5 hPa 0,0 l/m² 18,8 km/h (3 Bft) W-NW 303 ° 1 min 768 W/m² 1,2 °C 7,8 °C 25,7 km/h (4 Bft)
07.04.2026 12:16 23,4 °C 13,2 °C 43 % 43 % 1027,5 hPa 0,0 l/m² 12,7 km/h (3 Bft) N-NW 340 ° 1 min 768 W/m² 0,9 °C 9,9 °C 20,9 km/h (4 Bft)
07.04.2026 12:18 23,4 °C 13,2 °C 43 % 44 % 1027,5 hPa 0,0 l/m² 11,0 km/h (2 Bft) W 260 ° 2 min 770 W/m² 1,2 °C 10,6 °C 19,3 km/h (3 Bft)
07.04.2026 12:20 23,4 °C 13,2 °C 43 % 45 % 1027,5 hPa 0,0 l/m² 9,4 km/h (2 Bft) N-NW 339 ° 2 min 772 W/m² 1,5 °C 11,4 °C 19,3 km/h (3 Bft)
07.04.2026 12:22 23,4 °C 13,2 °C 43 % 44 % 1027,4 hPa 0,0 l/m² 14,0 km/h (3 Bft) W-NW 300 ° 2 min 772 W/m² 1,2 °C 9,4 °C 19,3 km/h (3 Bft)
07.04.2026 12:23 23,4 °C 13,2 °C 43 % 45 % 1027,4 hPa 0,0 l/m² 17,3 km/h (3 Bft) W-NW 290 ° 1 min 772 W/m² 1,5 °C 8,2 °C 22,5 km/h (4 Bft)
07.04.2026 12:24 23,4 °C 13,2 °C 43 % 45 % 1027,5 hPa 0,0 l/m² 13,0 km/h (3 Bft) W-NW 282 ° 1 min 773 W/m² 1,5 °C 9,8 °C 17,7 km/h (3 Bft)
07.04.2026 12:26 23,4 °C 13,2 °C 43 % 44 % 1027,5 hPa 0,0 l/m² 13,5 km/h (3 Bft) NW 306 ° 2 min 780 W/m² 1,2 °C 9,6 °C 19,3 km/h (3 Bft)
07.04.2026 12:28 23,4 °C 13,3 °C 43 % 45 % 1027,5 hPa 0,0 l/m² 12,4 km/h (2 Bft) W 274 ° 2 min 780 W/m² 1,6 °C 10,1 °C 22,5 km/h (4 Bft)
07.04.2026 12:30 23,4 °C 13,3 °C 43 % 45 % 1027,4 hPa 0,0 l/m² 11,8 km/h (2 Bft) W-NW 284 ° 2 min 782 W/m² 1,6 °C 10,4 °C 25,7 km/h (4 Bft)
07.04.2026 12:32 23,4 °C 13,3 °C 43 % 43 % 1027,4 hPa 0,0 l/m² 18,3 km/h (3 Bft) N-NW 330 ° 2 min 784 W/m² 1,0 °C 8,0 °C 27,4 km/h (5 Bft)
07.04.2026 12:33 23,4 °C 13,3 °C 43 % 44 % 1027,4 hPa 0,0 l/m² 10,2 km/h (2 Bft) W 271 ° 1 min 786 W/m² 1,3 °C 11,1 °C 14,5 km/h (3 Bft)
07.04.2026 12:34 23,4 °C 13,3 °C 43 % 43 % 1027,4 hPa 0,0 l/m² 11,4 km/h (2 Bft) NW 316 ° 1 min 784 W/m² 1,0 °C 10,6 °C 17,7 km/h (3 Bft)
07.04.2026 12:36 23,4 °C 13,3 °C 43 % 44 % 1027,3 hPa 0,0 l/m² 8,0 km/h (2 Bft) W 280 ° 2 min 784 W/m² 1,3 °C 12,3 °C 17,7 km/h (3 Bft)
07.04.2026 12:38 23,4 °C 13,3 °C 43 % 42 % 1027,3 hPa 0,0 l/m² 15,2 km/h (3 Bft) N 355 ° 2 min 788 W/m² 0,7 °C 9,1 °C 22,5 km/h (4 Bft)
07.04.2026 12:40 23,4 °C 13,4 °C 43 % 43 % 1027,3 hPa 0,0 l/m² 14,3 km/h (3 Bft) NW 309 ° 2 min 788 W/m² 1,1 °C 9,5 °C 22,5 km/h (4 Bft)
07.04.2026 12:42 23,4 °C 13,4 °C 43 % 44 % 1027,2 hPa 0,0 l/m² 11,5 km/h (2 Bft) N-NO 17 ° 2 min 788 W/m² 1,4 °C 10,6 °C 17,7 km/h (3 Bft)
07.04.2026 12:43 23,4 °C 13,4 °C 43 % 43 % 1027,2 hPa 0,0 l/m² 8,6 km/h (2 Bft) N 355 ° 1 min 791 W/m² 1,1 °C 12,1 °C 12,9 km/h (3 Bft)
07.04.2026 12:44 23,4 °C 13,4 °C 43 % 44 % 1027,3 hPa 0,0 l/m² 4,6 km/h (1 Bft) NW 325 ° 1 min 788 W/m² 1,4 °C 13,4 °C 6,4 km/h (2 Bft)
07.04.2026 12:46 23,4 °C 13,4 °C 43 % 46 % 1027,3 hPa 0,0 l/m² 8,2 km/h (2 Bft) NW 314 ° 2 min 788 W/m² 2,0 °C 12,3 °C 14,5 km/h (3 Bft)
07.04.2026 12:47 23,4 °C 13,6 °C 43 % 42 % 1027,2 hPa 0,0 l/m² 18,3 km/h (3 Bft) W 265 ° 1 min 791 W/m² 0,9 °C 8,4 °C 25,7 km/h (4 Bft)
07.04.2026 12:48 23,4 °C 13,6 °C 43 % 41 % 1027,2 hPa 0,0 l/m² 23,6 km/h (4 Bft) W 267 ° 1 min 791 W/m² 0,6 °C 7,0 °C 27,4 km/h (5 Bft)
07.04.2026 12:50 23,4 °C 13,6 °C 43 % 42 % 1027,2 hPa 0,0 l/m² 14,1 km/h (3 Bft) W 281 ° 2 min 791 W/m² 0,9 °C 9,8 °C 24,1 km/h (4 Bft)
07.04.2026 12:52 23,4 °C 13,6 °C 43 % 41 % 1027,3 hPa 0,0 l/m² 16,0 km/h (3 Bft) W 270 ° 2 min 795 W/m² 0,6 °C 9,2 °C 25,7 km/h (4 Bft)
07.04.2026 12:53 23,4 °C 13,6 °C 43 % 42 % 1027,3 hPa 0,0 l/m² 16,8 km/h (3 Bft) W-NW 292 ° 1 min 793 W/m² 0,9 °C 8,9 °C 22,5 km/h (4 Bft)
07.04.2026 12:54 23,4 °C 13,6 °C 43 % 42 % 1027,3 hPa 0,0 l/m² 16,8 km/h (3 Bft) W-NW 286 ° 1 min 795 W/m² 0,9 °C 8,9 °C 22,5 km/h (4 Bft)
07.04.2026 12:56 23,3 °C 13,6 °C 43 % 42 % 1027,2 hPa 0,0 l/m² 12,3 km/h (2 Bft) W-NW 298 ° 2 min 793 W/m² 0,9 °C 10,5 °C 19,3 km/h (3 Bft)
07.04.2026 12:58 23,4 °C 13,6 °C 43 % 44 % 1027,1 hPa 0,0 l/m² 12,0 km/h (2 Bft) NW 314 ° 2 min 796 W/m² 1,6 °C 10,7 °C 19,3 km/h (3 Bft)
07.04.2026 13:00 23,4 °C 13,7 °C 43 % 44 % 1027,2 hPa 0,0 l/m² 10,7 km/h (2 Bft) N-NW 337 ° 2 min 795 W/m² 1,7 °C 11,3 °C 17,7 km/h (3 Bft)
07.04.2026 13:02 23,3 °C 13,8 °C 43 % 44 % 1027,2 hPa 0,0 l/m² 9,1 km/h (2 Bft) W-NW 296 ° 2 min 795 W/m² 1,8 °C 12,2 °C 16,1 km/h (3 Bft)
07.04.2026 13:03 23,3 °C 13,8 °C 43 % 41 % 1027,2 hPa 0,0 l/m² 8,4 km/h (2 Bft) W 269 ° 1 min 795 W/m² 0,8 °C 12,6 °C 11,3 km/h (2 Bft)
07.04.2026 13:05 23,3 °C 13,9 °C 43 % 42 % 1027,1 hPa 0,0 l/m² 12,3 km/h (2 Bft) W-NW 286 ° 2 min 796 W/m² 1,2 °C 10,9 °C 22,5 km/h (4 Bft)
07.04.2026 13:07 23,3 °C 14,0 °C 43 % 42 % 1027,1 hPa 0,0 l/m² 11,0 km/h (2 Bft) W 264 ° 2 min 795 W/m² 1,3 °C 11,6 °C 16,1 km/h (3 Bft)
07.04.2026 13:09 23,3 °C 14,1 °C 43 % 41 % 1027,2 hPa 0,0 l/m² 13,8 km/h (3 Bft) NW 315 ° 2 min 795 W/m² 1,1 °C 10,5 °C 20,9 km/h (4 Bft)
07.04.2026 13:11 23,3 °C 14,1 °C 43 % 41 % 1027,1 hPa 0,0 l/m² 11,4 km/h (2 Bft) N-NW 334 ° 2 min 795 W/m² 1,1 °C 11,5 °C 20,9 km/h (4 Bft)
07.04.2026 13:12 23,3 °C 14,2 °C 43 % 41 % 1027,1 hPa 0,0 l/m² 9,7 km/h (2 Bft) NW 318 ° 1 min 795 W/m² 1,1 °C 12,4 °C 14,5 km/h (3 Bft)
07.04.2026 13:13 23,3 °C 14,2 °C 43 % 41 % 1027,1 hPa 0,0 l/m² 5,9 km/h (2 Bft) W-NW 298 ° 1 min 795 W/m² 1,1 °C 14,2 °C 12,9 km/h (3 Bft)
07.04.2026 13:15 23,3 °C 14,3 °C 43 % 42 % 1027,1 hPa 0,0 l/m² 10,2 km/h (2 Bft) NW 306 ° 2 min 795 W/m² 1,6 °C 12,3 °C 20,9 km/h (4 Bft)
07.04.2026 13:17 23,3 °C 14,3 °C 43 % 41 % 1027,1 hPa 0,0 l/m² 11,8 km/h (2 Bft) N-NW 334 ° 2 min 796 W/m² 1,2 °C 11,5 °C 20,9 km/h (4 Bft)
07.04.2026 13:19 23,3 °C 14,4 °C 43 % 42 % 1027,1 hPa 0,0 l/m² 15,5 km/h (3 Bft) NW 309 ° 2 min 796 W/m² 1,7 °C 10,3 °C 24,1 km/h (4 Bft)
07.04.2026 13:21 23,3 °C 14,4 °C 43 % 43 % 1027,0 hPa 0,0 l/m² 8,3 km/h (2 Bft) N-NO 16 ° 2 min 796 W/m² 2,0 °C 13,3 °C 14,5 km/h (3 Bft)
07.04.2026 13:22 23,3 °C 14,5 °C 43 % 42 % 1027,1 hPa 0,0 l/m² 16,0 km/h (3 Bft) NW 318 ° 1 min 795 W/m² 1,7 °C 10,3 °C 22,5 km/h (4 Bft)
07.04.2026 13:23 23,3 °C 14,5 °C 43 % 42 % 1027,1 hPa 0,0 l/m² 14,1 km/h (3 Bft) W 275 ° 1 min 795 W/m² 1,7 °C 10,9 °C 22,5 km/h (4 Bft)
07.04.2026 13:25 23,3 °C 14,5 °C 43 % 41 % 1027,0 hPa 0,0 l/m² 14,4 km/h (3 Bft) W-SW 246 ° 2 min 796 W/m² 1,4 °C 10,8 °C 25,7 km/h (4 Bft)
07.04.2026 13:27 23,3 °C 14,5 °C 43 % 40 % 1027,0 hPa 0,0 l/m² 13,9 km/h (3 Bft) NW 316 ° 2 min 795 W/m² 1,1 °C 11,0 °C 25,7 km/h (4 Bft)
07.04.2026 13:29 23,3 °C 14,6 °C 43 % 42 % 1027,0 hPa 0,0 l/m² 11,3 km/h (2 Bft) NW 325 ° 2 min 796 W/m² 1,8 °C 12,1 °C 20,9 km/h (4 Bft)
07.04.2026 13:31 23,3 °C 14,6 °C 43 % 42 % 1027,0 hPa 0,0 l/m² 8,4 km/h (2 Bft) W-NW 292 ° 2 min 795 W/m² 1,8 °C 13,5 °C 17,7 km/h (3 Bft)
07.04.2026 13:32 23,3 °C 14,6 °C 43 % 43 % 1027,0 hPa 0,0 l/m² 8,1 km/h (2 Bft) NW 326 ° 1 min 795 W/m² 2,2 °C 13,6 °C 14,5 km/h (3 Bft)
07.04.2026 13:33 23,3 °C 14,6 °C 43 % 43 % 1027,0 hPa 0,0 l/m² 6,5 km/h (2 Bft) W-NW 292 ° 1 min 793 W/m² 2,2 °C 14,6 °C 12,9 km/h (3 Bft)
07.04.2026 13:35 23,3 °C 14,8 °C 43 % 43 % 1027,0 hPa 0,0 l/m² 7,9 km/h (2 Bft) NW 308 ° 2 min 795 W/m² 2,3 °C 13,9 °C 14,5 km/h (3 Bft)
07.04.2026 13:36 23,3 °C 14,8 °C 43 % 43 % 1027,0 hPa 0,0 l/m² 7,6 km/h (2 Bft) NW 326 ° 1 min 791 W/m² 2,3 °C 14,1 °C 14,5 km/h (3 Bft)
07.04.2026 13:37 23,3 °C 14,8 °C 43 % 43 % 1027,0 hPa 0,0 l/m² 12,3 km/h (2 Bft) NW 307 ° 1 min 795 W/m² 2,3 °C 11,9 °C 17,7 km/h (3 Bft)
07.04.2026 13:38 23,3 °C 14,9 °C 43 % 42 % 1027,0 hPa 0,0 l/m² 11,0 km/h (2 Bft) NW 313 ° 1 min 795 W/m² 2,1 °C 12,6 °C 14,5 km/h (3 Bft)
07.04.2026 13:40 23,3 °C 15,0 °C 43 % 44 % 1027,1 hPa 0,0 l/m² 13,7 km/h (3 Bft) W 277 ° 2 min 795 W/m² 2,9 °C 11,6 °C 20,9 km/h (4 Bft)
07.04.2026 13:43 23,3 °C 15,1 °C 43 % 42 % 1027,0 hPa 0,0 l/m² 11,8 km/h (2 Bft) W-NW 294 ° 3 min 793 W/m² 2,3 °C 12,5 °C 17,7 km/h (3 Bft)
07.04.2026 13:45 23,3 °C 15,1 °C 43 % 40 % 1026,9 hPa 0,0 l/m² 8,5 km/h (2 Bft) W-NW 293 ° 2 min 793 W/m² 1,6 °C 13,9 °C 16,1 km/h (3 Bft)
07.04.2026 13:47 23,3 °C 15,2 °C 43 % 41 % 1027,0 hPa 0,0 l/m² 14,0 km/h (3 Bft) W-NW 300 ° 2 min 788 W/m² 2,0 °C 11,8 °C 19,3 km/h (3 Bft)
07.04.2026 13:49 23,3 °C 15,2 °C 43 % 41 % 1026,9 hPa 0,0 l/m² 8,9 km/h (2 Bft) W-NW 297 ° 2 min 789 W/m² 2,0 °C 13,9 °C 16,1 km/h (3 Bft)
07.04.2026 13:51 23,3 °C 15,2 °C 43 % 42 % 1026,9 hPa 0,0 l/m² 6,6 km/h (2 Bft) W-NW 288 ° 2 min 788 W/m² 2,4 °C 15,1 °C 12,9 km/h (3 Bft)
07.04.2026 13:52 23,3 °C 15,2 °C 43 % 42 % 1027,0 hPa 0,0 l/m² 10,9 km/h (2 Bft) W 267 ° 1 min 786 W/m² 2,4 °C 12,9 °C 17,7 km/h (3 Bft)
07.04.2026 13:53 23,3 °C 15,2 °C 43 % 42 % 1027,0 hPa 0,0 l/m² 12,2 km/h (2 Bft) N-NW 329 ° 1 min 786 W/m² 2,4 °C 12,4 °C 19,3 km/h (3 Bft)
07.04.2026 13:55 23,3 °C 15,2 °C 43 % 41 % 1026,9 hPa 0,0 l/m² 13,2 km/h (3 Bft) W-NW 302 ° 2 min 788 W/m² 2,0 °C 12,1 °C 20,9 km/h (4 Bft)
07.04.2026 13:57 23,3 °C 15,3 °C 43 % 41 % 1026,9 hPa 0,0 l/m² 12,5 km/h (2 Bft) W-NW 282 ° 2 min 782 W/m² 2,1 °C 12,4 °C 22,5 km/h (4 Bft)
07.04.2026 13:59 23,3 °C 15,3 °C 43 % 43 % 1027,0 hPa 0,0 l/m² 9,5 km/h (2 Bft) NW 322 ° 2 min 784 W/m² 2,8 °C 13,7 °C 17,7 km/h (3 Bft)
07.04.2026 14:01 23,3 °C 15,4 °C 43 % 43 % 1026,8 hPa 0,0 l/m² 10,5 km/h (2 Bft) W-NW 288 ° 2 min 782 W/m² 2,9 °C 13,3 °C 17,7 km/h (3 Bft)
07.04.2026 14:02 23,3 °C 15,4 °C 43 % 43 % 1026,9 hPa 0,0 l/m² 8,4 km/h (2 Bft) W 275 ° 1 min 780 W/m² 2,9 °C 14,3 °C 12,9 km/h (3 Bft)
07.04.2026 14:03 23,3 °C 15,4 °C 43 % 42 % 1026,9 hPa 0,0 l/m² 5,5 km/h (2 Bft) W 276 ° 1 min 780 W/m² 2,6 °C 15,4 °C 11,3 km/h (2 Bft)
07.04.2026 14:05 23,3 °C 15,6 °C 43 % 42 % 1026,9 hPa 0,0 l/m² 13,3 km/h (3 Bft) W-NW 286 ° 2 min 777 W/m² 2,7 °C 12,5 °C 19,3 km/h (3 Bft)
07.04.2026 14:06 23,3 °C 15,6 °C 43 % 40 % 1026,8 hPa 0,0 l/m² 9,6 km/h (2 Bft) N-NW 331 ° 1 min 779 W/m² 2,1 °C 14,0 °C 16,1 km/h (3 Bft)
07.04.2026 14:07 23,3 °C 15,6 °C 43 % 41 % 1026,8 hPa 0,0 l/m² 8,7 km/h (2 Bft) W 262 ° 1 min 777 W/m² 2,4 °C 14,4 °C 14,5 km/h (3 Bft)
07.04.2026 14:08 23,3 °C 15,6 °C 43 % 41 % 1026,8 hPa 0,0 l/m² 9,9 km/h (2 Bft) W-NW 303 ° 1 min 780 W/m² 2,4 °C 13,8 °C 14,5 km/h (3 Bft)
07.04.2026 14:10 23,3 °C 15,7 °C 43 % 41 % 1026,9 hPa 0,0 l/m² 6,9 km/h (2 Bft) NW 321 ° 2 min 775 W/m² 2,5 °C 15,4 °C 14,5 km/h (3 Bft)
07.04.2026 14:13 23,3 °C 15,7 °C 43 % 42 % 1026,7 hPa 0,0 l/m² 12,2 km/h (2 Bft) N-NW 346 ° 3 min 772 W/m² 2,8 °C 13,0 °C 24,1 km/h (4 Bft)
07.04.2026 14:15 23,3 °C 15,8 °C 43 % 42 % 1026,7 hPa 0,0 l/m² 10,4 km/h (2 Bft) NW 308 ° 2 min 770 W/m² 2,9 °C 13,8 °C 20,9 km/h (4 Bft)
07.04.2026 14:17 23,2 °C 15,8 °C 43 % 41 % 1026,7 hPa 0,0 l/m² 7,9 km/h (2 Bft) NW 318 ° 2 min 772 W/m² 2,6 °C 15,0 °C 14,5 km/h (3 Bft)
07.04.2026 14:19 23,3 °C 15,8 °C 43 % 43 % 1026,6 hPa 0,0 l/m² 10,9 km/h (2 Bft) W 273 ° 2 min 766 W/m² 3,3 °C 13,6 °C 17,7 km/h (3 Bft)
07.04.2026 14:21 23,3 °C 15,8 °C 43 % 41 % 1026,7 hPa 0,0 l/m² 13,8 km/h (3 Bft) W 276 ° 2 min 765 W/m² 2,6 °C 12,6 °C 20,9 km/h (4 Bft)
07.04.2026 14:22 23,3 °C 15,8 °C 43 % 41 % 1026,7 hPa 0,0 l/m² 15,5 km/h (3 Bft) W 265 ° 1 min 765 W/m² 2,6 °C 12,0 °C 19,3 km/h (3 Bft)
07.04.2026 14:23 23,3 °C 15,8 °C 43 % 40 % 1026,7 hPa 0,0 l/m² 11,9 km/h (2 Bft) W 269 ° 1 min 763 W/m² 2,2 °C 13,2 °C 17,7 km/h (3 Bft)
07.04.2026 14:25 23,3 °C 15,8 °C 43 % 41 % 1026,5 hPa 0,0 l/m² 15,6 km/h (3 Bft) W-NW 282 ° 2 min 761 W/m² 2,6 °C 12,0 °C 24,1 km/h (4 Bft)
07.04.2026 14:27 23,3 °C 15,7 °C 43 % 41 % 1026,6 hPa 0,0 l/m² 9,2 km/h (2 Bft) N-NW 343 ° 2 min 758 W/m² 2,5 °C 14,3 °C 14,5 km/h (3 Bft)
07.04.2026 14:29 23,3 °C 15,8 °C 43 % 42 % 1026,5 hPa 0,0 l/m² 8,8 km/h (2 Bft) NW 314 ° 2 min 758 W/m² 2,9 °C 14,5 °C 19,3 km/h (3 Bft)
07.04.2026 14:31 23,2 °C 15,8 °C 43 % 40 % 1026,4 hPa 0,0 l/m² 12,3 km/h (2 Bft) NW 315 ° 2 min 754 W/m² 2,2 °C 13,1 °C 24,1 km/h (4 Bft)
07.04.2026 14:32 23,2 °C 15,8 °C 43 % 40 % 1026,5 hPa 0,0 l/m² 17,4 km/h (3 Bft) W-NW 289 ° 1 min 756 W/m² 2,2 °C 11,5 °C 24,1 km/h (4 Bft)
07.04.2026 14:33 23,2 °C 15,8 °C 43 % 39 % 1026,5 hPa 0,0 l/m² 17,1 km/h (3 Bft) N-NW 344 ° 1 min 752 W/m² 1,9 °C 11,5 °C 20,9 km/h (4 Bft)
07.04.2026 14:35 23,2 °C 15,7 °C 43 % 39 % 1026,6 hPa 0,0 l/m² 15,7 km/h (3 Bft) NW 325 ° 2 min 747 W/m² 1,8 °C 11,8 °C 22,5 km/h (4 Bft)
07.04.2026 14:37 23,2 °C 15,7 °C 43 % 40 % 1026,6 hPa 0,0 l/m² 17,3 km/h (3 Bft) W-NW 298 ° 2 min 745 W/m² 2,1 °C 11,4 °C 27,4 km/h (5 Bft)
07.04.2026 14:39 23,2 °C 15,7 °C 43 % 41 % 1026,6 hPa 0,0 l/m² 8,5 km/h (2 Bft) NW 323 ° 2 min 745 W/m² 2,5 °C 14,6 °C 17,7 km/h (3 Bft)
07.04.2026 14:41 23,2 °C 15,7 °C 43 % 39 % 1026,5 hPa 0,0 l/m² 14,7 km/h (3 Bft) N 355 ° 2 min 744 W/m² 1,8 °C 12,1 °C 22,5 km/h (4 Bft)
07.04.2026 14:42 23,3 °C 15,8 °C 43 % 39 % 1026,5 hPa 0,0 l/m² 16,5 km/h (3 Bft) N-NW 334 ° 1 min 745 W/m² 1,9 °C 11,7 °C 22,5 km/h (4 Bft)
07.04.2026 14:43 23,3 °C 15,7 °C 43 % 40 % 1026,5 hPa 0,0 l/m² 17,7 km/h (3 Bft) N-NO 12 ° 1 min 740 W/m² 2,1 °C 11,2 °C 25,7 km/h (4 Bft)
07.04.2026 14:45 23,3 °C 15,8 °C 43 % 39 % 1026,6 hPa 0,0 l/m² 17,1 km/h (3 Bft) N-NW 341 ° 2 min 738 W/m² 1,9 °C 11,5 °C 22,5 km/h (4 Bft)
07.04.2026 14:46 23,2 °C 15,8 °C 43 % 40 % 1026,6 hPa 0,0 l/m² 17,1 km/h (3 Bft) N-NW 348 ° 1 min 738 W/m² 2,2 °C 11,5 °C 22,5 km/h (4 Bft)
07.04.2026 14:47 23,2 °C 15,8 °C 43 % 39 % 1026,5 hPa 0,0 l/m² 15,4 km/h (3 Bft) NW 320 ° 1 min 737 W/m² 1,9 °C 12,0 °C 19,3 km/h (3 Bft)
07.04.2026 14:48 23,2 °C 15,7 °C 43 % 40 % 1026,5 hPa 0,0 l/m² 6,0 km/h (2 Bft) W 263 ° 1 min 737 W/m² 2,1 °C 15,7 °C 9,7 km/h (2 Bft)
07.04.2026 14:50 23,2 °C 15,8 °C 43 % 37 % 1026,5 hPa 0,0 l/m² 13,9 km/h (3 Bft) N-NW 330 ° 2 min 735 W/m² 1,1 °C 12,5 °C 25,7 km/h (4 Bft)
07.04.2026 14:53 23,2 °C 15,8 °C 43 % 39 % 1026,5 hPa 0,0 l/m² 14,7 km/h (3 Bft) NW 320 ° 3 min 729 W/m² 1,9 °C 12,3 °C 22,5 km/h (4 Bft)
07.04.2026 14:55 23,3 °C 15,8 °C 43 % 38 % 1026,5 hPa 0,0 l/m² 14,1 km/h (3 Bft) N-NW 331 ° 2 min 728 W/m² 1,5 °C 12,5 °C 22,5 km/h (4 Bft)
07.04.2026 14:57 23,2 °C 15,8 °C 43 % 38 % 1026,5 hPa 0,0 l/m² 13,1 km/h (3 Bft) N-NW 345 ° 2 min 721 W/m² 1,5 °C 12,8 °C 22,5 km/h (4 Bft)
07.04.2026 14:59 23,2 °C 15,9 °C 43 % 40 % 1026,5 hPa 0,0 l/m² 13,3 km/h (3 Bft) N-NW 336 ° 2 min 719 W/m² 2,3 °C 12,8 °C 19,3 km/h (3 Bft)
07.04.2026 15:01 23,2 °C 15,9 °C 43 % 40 % 1026,5 hPa 0,0 l/m² 13,5 km/h (3 Bft) NW 321 ° 2 min 719 W/m² 2,3 °C 12,8 °C 20,9 km/h (4 Bft)
07.04.2026 15:02 23,2 °C 15,9 °C 43 % 41 % 1026,4 hPa 0,0 l/m² 15,2 km/h (3 Bft) NW 319 ° 1 min 717 W/m² 2,7 °C 12,2 °C 22,5 km/h (4 Bft)
07.04.2026 15:03 23,2 °C 15,9 °C 43 % 41 % 1026,4 hPa 0,0 l/m² 11,8 km/h (2 Bft) N-NW 336 ° 1 min 714 W/m² 2,7 °C 13,4 °C 22,5 km/h (4 Bft)
07.04.2026 15:05 23,2 °C 16,0 °C 43 % 39 % 1026,5 hPa 0,0 l/m² 11,9 km/h (2 Bft) NW 320 ° 2 min 710 W/m² 2,1 °C 13,5 °C 20,9 km/h (4 Bft)
07.04.2026 15:06 23,2 °C 16,0 °C 43 % 38 % 1026,4 hPa 0,0 l/m² 8,9 km/h (2 Bft) N 360 ° 1 min 708 W/m² 1,7 °C 14,7 °C 16,1 km/h (3 Bft)
07.04.2026 15:07 23,2 °C 16,1 °C 43 % 38 % 1026,4 hPa 0,0 l/m² 13,5 km/h (3 Bft) NW 308 ° 1 min 707 W/m² 1,8 °C 13,0 °C 20,9 km/h (4 Bft)
07.04.2026 15:09 23,2 °C 16,1 °C 44 % 38 % 1026,4 hPa 0,0 l/m² 15,1 km/h (3 Bft) NW 321 ° 2 min 707 W/m² 1,8 °C 12,5 °C 24,1 km/h (4 Bft)
07.04.2026 15:11 23,2 °C 16,1 °C 44 % 39 % 1026,3 hPa 0,0 l/m² 11,0 km/h (2 Bft) W 275 ° 2 min 701 W/m² 2,1 °C 13,9 °C 22,5 km/h (4 Bft)
07.04.2026 15:12 23,2 °C 16,1 °C 44 % 39 % 1026,3 hPa 0,0 l/m² 14,3 km/h (3 Bft) W-NW 300 ° 1 min 703 W/m² 2,1 °C 12,7 °C 17,7 km/h (3 Bft)
07.04.2026 15:13 23,2 °C 16,1 °C 44 % 39 % 1026,3 hPa 0,0 l/m² 13,3 km/h (3 Bft) N 5 ° 1 min 700 W/m² 2,1 °C 13,1 °C 17,7 km/h (3 Bft)
07.04.2026 15:15 23,2 °C 16,2 °C 44 % 40 % 1026,3 hPa 0,0 l/m² 12,4 km/h (2 Bft) N 360 ° 2 min 693 W/m² 2,6 °C 13,5 °C 22,5 km/h (4 Bft)
07.04.2026 15:16 23,2 °C 16,1 °C 44 % 40 % 1026,3 hPa 0,0 l/m² 19,4 km/h (3 Bft) N 11 ° 1 min 693 W/m² 2,5 °C 11,3 °C 24,1 km/h (4 Bft)
07.04.2026 15:17 23,2 °C 16,2 °C 44 % 39 % 1026,2 hPa 0,0 l/m² 15,8 km/h (3 Bft) N-NW 343 ° 1 min 691 W/m² 2,2 °C 12,4 °C 19,3 km/h (3 Bft)
07.04.2026 15:18 23,2 °C 16,1 °C 44 % 39 % 1026,2 hPa 0,0 l/m² 12,9 km/h (3 Bft) N 355 ° 1 min 689 W/m² 2,1 °C 13,2 °C 17,7 km/h (3 Bft)
07.04.2026 15:20 23,2 °C 16,1 °C 44 % 41 % 1026,2 hPa 0,0 l/m² 12,2 km/h (2 Bft) NW 310 ° 2 min 689 W/m² 2,8 °C 13,5 °C 20,9 km/h (4 Bft)
07.04.2026 15:23 23,2 °C 16,2 °C 44 % 40 % 1026,2 hPa 0,0 l/m² 11,2 km/h (2 Bft) NW 313 ° 3 min 680 W/m² 2,6 °C 14,0 °C 24,1 km/h (4 Bft)
07.04.2026 15:25 23,2 °C 16,2 °C 44 % 39 % 1026,3 hPa 0,0 l/m² 14,4 km/h (3 Bft) N-NW 342 ° 2 min 677 W/m² 2,2 °C 12,8 °C 22,5 km/h (4 Bft)
07.04.2026 15:27 23,2 °C 16,3 °C 44 % 38 % 1026,3 hPa 0,0 l/m² 13,9 km/h (3 Bft) N 351 ° 2 min 673 W/m² 2,0 °C 13,1 °C 20,9 km/h (4 Bft)
07.04.2026 15:29 23,2 °C 16,3 °C 44 % 39 % 1026,1 hPa 0,0 l/m² 11,1 km/h (2 Bft) W-NW 287 ° 2 min 668 W/m² 2,3 °C 14,1 °C 17,7 km/h (3 Bft)
07.04.2026 15:31 23,2 °C 16,3 °C 44 % 38 % 1026,2 hPa 0,0 l/m² 12,7 km/h (3 Bft) W-NW 295 ° 2 min 666 W/m² 2,0 °C 13,5 °C 24,1 km/h (4 Bft)
07.04.2026 15:32 23,2 °C 16,3 °C 44 % 38 % 1026,2 hPa 0,0 l/m² 12,8 km/h (3 Bft) W 275 ° 1 min 663 W/m² 2,0 °C 13,5 °C 25,7 km/h (4 Bft)
07.04.2026 15:33 23,2 °C 16,3 °C 44 % 37 % 1026,2 hPa 0,0 l/m² 12,8 km/h (3 Bft) NW 306 ° 1 min 663 W/m² 1,6 °C 13,5 °C 22,5 km/h (4 Bft)
07.04.2026 15:35 23,2 °C 16,3 °C 44 % 38 % 1026,1 hPa 0,0 l/m² 14,7 km/h (3 Bft) N-NW 333 ° 2 min 657 W/m² 2,0 °C 12,9 °C 24,1 km/h (4 Bft)
07.04.2026 15:36 23,2 °C 16,3 °C 44 % 38 % 1026,1 hPa 0,0 l/m² 17,7 km/h (3 Bft) N-NW 332 ° 1 min 657 W/m² 2,0 °C 12,0 °C 25,7 km/h (4 Bft)
07.04.2026 15:37 23,2 °C 16,3 °C 44 % 38 % 1026,2 hPa 0,0 l/m² 8,4 km/h (2 Bft) N-NW 336 ° 1 min 656 W/m² 2,0 °C 15,3 °C 14,5 km/h (3 Bft)
07.04.2026 15:38 23,2 °C 16,3 °C 44 % 39 % 1026,2 hPa 0,0 l/m² 8,2 km/h (2 Bft) N-NW 331 ° 1 min 652 W/m² 2,3 °C 15,4 °C 14,5 km/h (3 Bft)
07.04.2026 15:40 23,2 °C 16,3 °C 44 % 38 % 1026,2 hPa 0,0 l/m² 9,4 km/h (2 Bft) W-NW 298 ° 2 min 647 W/m² 2,0 °C 14,8 °C 14,5 km/h (3 Bft)
07.04.2026 15:43 23,2 °C 16,4 °C 44 % 39 % 1026,2 hPa 0,0 l/m² 11,7 km/h (2 Bft) NW 304 ° 3 min 640 W/m² 2,4 °C 14,0 °C 22,5 km/h (4 Bft)
07.04.2026 15:45 23,2 °C 16,4 °C 44 % 38 % 1026,1 hPa 0,0 l/m² 13,3 km/h (3 Bft) NW 306 ° 2 min 636 W/m² 2,1 °C 13,4 °C 25,7 km/h (4 Bft)
07.04.2026 15:48 23,2 °C 16,4 °C 44 % 38 % 1026,1 hPa 0,0 l/m² 9,2 km/h (2 Bft) NW 314 ° 3 min 631 W/m² 2,1 °C 15,0 °C 16,1 km/h (3 Bft)
07.04.2026 15:50 23,2 °C 16,4 °C 44 % 39 % 1026,1 hPa 0,0 l/m² 11,9 km/h (2 Bft) W-NW 303 ° 2 min 624 W/m² 2,4 °C 13,9 °C 16,1 km/h (3 Bft)
07.04.2026 15:53 23,2 °C 16,6 °C 44 % 36 % 1026,1 hPa 0,0 l/m² 10,9 km/h (2 Bft) N 360 ° 3 min 615 W/m² 1,5 °C 14,5 °C 19,3 km/h (3 Bft)
07.04.2026 15:55 23,3 °C 16,6 °C 44 % 36 % 1026,1 hPa 0,0 l/m² 12,4 km/h (2 Bft) N-NW 327 ° 2 min 610 W/m² 1,5 °C 14,0 °C 19,3 km/h (3 Bft)
07.04.2026 15:57 23,3 °C 16,7 °C 44 % 37 % 1026,1 hPa 0,0 l/m² 10,0 km/h (2 Bft) NW 317 ° 2 min 606 W/m² 1,9 °C 15,0 °C 17,7 km/h (3 Bft)
07.04.2026 15:59 23,3 °C 16,7 °C 44 % 36 % 1026,1 hPa 0,0 l/m² 14,3 km/h (3 Bft) NW 307 ° 2 min 603 W/m² 1,6 °C 13,5 °C 20,9 km/h (4 Bft)
07.04.2026 16:01 23,2 °C 16,7 °C 44 % 35 % 1026,0 hPa 0,0 l/m² 12,4 km/h (2 Bft) N-NW 344 ° 2 min 599 W/m² 1,2 °C 14,1 °C 25,7 km/h (4 Bft)
07.04.2026 16:02 23,2 °C 16,7 °C 44 % 35 % 1026,1 hPa 0,0 l/m² 15,3 km/h (3 Bft) N-NW 344 ° 1 min 599 W/m² 1,2 °C 13,2 °C 20,9 km/h (4 Bft)
07.04.2026 16:03 23,2 °C 16,7 °C 44 % 35 % 1026,1 hPa 0,0 l/m² 12,5 km/h (2 Bft) N 9 ° 1 min 594 W/m² 1,2 °C 14,1 °C 20,9 km/h (4 Bft)
07.04.2026 16:05 23,2 °C 16,7 °C 44 % 35 % 1026,1 hPa 0,0 l/m² 14,3 km/h (3 Bft) N-NW 341 ° 2 min 587 W/m² 1,2 °C 13,5 °C 24,1 km/h (4 Bft)
07.04.2026 16:06 23,2 °C 16,6 °C 44 % 35 % 1026,1 hPa 0,0 l/m² 18,2 km/h (3 Bft) N-NW 340 ° 1 min 585 W/m² 1,1 °C 12,2 °C 22,5 km/h (4 Bft)
07.04.2026 16:07 23,3 °C 16,6 °C 44 % 36 % 1026,1 hPa 0,0 l/m² 13,3 km/h (3 Bft) N 5 ° 1 min 585 W/m² 1,5 °C 13,7 °C 19,3 km/h (3 Bft)
07.04.2026 16:08 23,3 °C 16,6 °C 44 % 36 % 1026,1 hPa 0,0 l/m² 10,2 km/h (2 Bft) NW 315 ° 1 min 582 W/m² 1,5 °C 14,8 °C 19,3 km/h (3 Bft)
07.04.2026 16:10 23,3 °C 16,5 °C 44 % 35 % 1026,1 hPa 0,0 l/m² 9,4 km/h (2 Bft) NW 324 ° 2 min 577 W/m² 1,0 °C 15,0 °C 14,5 km/h (3 Bft)
07.04.2026 16:13 23,3 °C 16,6 °C 44 % 37 % 1026,0 hPa 0,0 l/m² 10,1 km/h (2 Bft) W-NW 286 ° 3 min 571 W/m² 1,9 °C 14,8 °C 17,7 km/h (3 Bft)
07.04.2026 16:15 23,2 °C 16,6 °C 44 % 37 % 1026,1 hPa 0,0 l/m² 9,5 km/h (2 Bft) NW 318 ° 2 min 564 W/m² 1,9 °C 15,1 °C 17,7 km/h (3 Bft)
07.04.2026 16:17 23,2 °C 16,6 °C 44 % 36 % 1026,2 hPa 0,0 l/m² 17,1 km/h (3 Bft) N-NW 328 ° 2 min 563 W/m² 1,5 °C 12,5 °C 25,7 km/h (4 Bft)
07.04.2026 16:19 23,2 °C 16,6 °C 44 % 35 % 1026,1 hPa 0,0 l/m² 14,7 km/h (3 Bft) N 355 ° 2 min 557 W/m² 1,1 °C 13,2 °C 20,9 km/h (4 Bft)
07.04.2026 16:21 23,2 °C 16,6 °C 44 % 35 % 1026,0 hPa 0,0 l/m² 16,5 km/h (3 Bft) N-NO 14 ° 2 min 552 W/m² 1,1 °C 12,7 °C 24,1 km/h (4 Bft)
07.04.2026 16:22 23,2 °C 16,6 °C 43 % 35 % 1026,1 hPa 0,0 l/m² 15,5 km/h (3 Bft) NW 304 ° 1 min 547 W/m² 1,1 °C 13,0 °C 20,9 km/h (4 Bft)
07.04.2026 16:23 23,2 °C 16,5 °C 43 % 35 % 1026,1 hPa 0,0 l/m² 13,4 km/h (3 Bft) N-NW 335 ° 1 min 547 W/m² 1,0 °C 13,5 °C 19,3 km/h (3 Bft)
07.04.2026 16:25 23,2 °C 16,6 °C 43 % 36 % 1026,0 hPa 0,0 l/m² 13,1 km/h (3 Bft) N-NW 338 ° 2 min 543 W/m² 1,5 °C 13,7 °C 19,3 km/h (3 Bft)
07.04.2026 16:26 23,2 °C 16,6 °C 43 % 35 % 1026,1 hPa 0,0 l/m² 17,8 km/h (3 Bft) N-NW 346 ° 1 min 538 W/m² 1,1 °C 12,4 °C 24,1 km/h (4 Bft)
07.04.2026 16:27 23,2 °C 16,6 °C 43 % 35 % 1026,0 hPa 0,0 l/m² 15,2 km/h (3 Bft) NW 319 ° 1 min 536 W/m² 1,1 °C 13,1 °C 20,9 km/h (4 Bft)
07.04.2026 16:28 23,2 °C 16,6 °C 43 % 35 % 1026,0 hPa 0,0 l/m² 11,0 km/h (2 Bft) W 277 ° 1 min 534 W/m² 1,1 °C 14,5 °C 17,7 km/h (3 Bft)
07.04.2026 16:30 23,2 °C 16,6 °C 43 % 35 % 1026,1 hPa 0,0 l/m² 17,1 km/h (3 Bft) N-NW 335 ° 2 min 531 W/m² 1,1 °C 12,5 °C 25,7 km/h (4 Bft)
07.04.2026 16:33 23,2 °C 16,4 °C 43 % 34 % 1026,1 hPa 0,0 l/m² 14,8 km/h (3 Bft) NW 315 ° 3 min 522 W/m² 0,5 °C 12,9 °C 24,1 km/h (4 Bft)
07.04.2026 16:35 23,2 °C 16,4 °C 43 % 34 % 1026,0 hPa 0,0 l/m² 13,3 km/h (3 Bft) W 281 ° 2 min 517 W/m² 0,5 °C 13,4 °C 20,9 km/h (4 Bft)
07.04.2026 16:37 23,2 °C 16,4 °C 43 % 35 % 1026,0 hPa 0,0 l/m² 9,8 km/h (2 Bft) NW 311 ° 2 min 510 W/m² 0,9 °C 14,7 °C 19,3 km/h (3 Bft)
07.04.2026 16:39 23,2 °C 16,4 °C 43 % 36 % 1026,0 hPa 0,0 l/m² 9,2 km/h (2 Bft) W-SW 258 ° 2 min 504 W/m² 1,3 °C 15,0 °C 16,1 km/h (3 Bft)
07.04.2026 16:41 23,2 °C 16,4 °C 43 % 38 % 1026,1 hPa 0,0 l/m² 9,4 km/h (2 Bft) NW 324 ° 2 min 499 W/m² 2,1 °C 14,9 °C 20,9 km/h (4 Bft)
07.04.2026 16:42 23,2 °C 16,4 °C 43 % 37 % 1026,1 hPa 0,0 l/m² 17,6 km/h (3 Bft) NW 323 ° 1 min 497 W/m² 1,7 °C 12,2 °C 24,1 km/h (4 Bft)
07.04.2026 16:43 23,2 °C 16,4 °C 43 % 36 % 1026,1 hPa 0,0 l/m² 15,5 km/h (3 Bft) N-NW 327 ° 1 min 494 W/m² 1,3 °C 12,7 °C 20,9 km/h (4 Bft)
07.04.2026 16:45 23,2 °C 16,4 °C 43 % 36 % 1026,1 hPa 0,0 l/m² 12,7 km/h (3 Bft) N 355 ° 2 min 489 W/m² 1,3 °C 13,6 °C 22,5 km/h (4 Bft)
07.04.2026 16:46 23,2 °C 16,4 °C 43 % 36 % 1026,1 hPa 0,0 l/m² 10,0 km/h (2 Bft) N 350 ° 1 min 487 W/m² 1,3 °C 14,7 °C 17,7 km/h (3 Bft)
07.04.2026 16:47 23,2 °C 16,4 °C 43 % 36 % 1026,1 hPa 0,0 l/m² 10,8 km/h (2 Bft) N-NW 342 ° 1 min 485 W/m² 1,3 °C 14,3 °C 17,7 km/h (3 Bft)
07.04.2026 16:48 23,2 °C 16,4 °C 43 % 35 % 1026,1 hPa 0,0 l/m² 10,9 km/h (2 Bft) N 360 ° 1 min 482 W/m² 0,9 °C 14,3 °C 16,1 km/h (3 Bft)
07.04.2026 16:50 23,2 °C 16,4 °C 43 % 35 % 1026,0 hPa 0,0 l/m² 16,6 km/h (3 Bft) N-NW 348 ° 2 min 476 W/m² 0,9 °C 12,4 °C 22,5 km/h (4 Bft)
07.04.2026 16:53 23,2 °C 16,3 °C 43 % 36 % 1026,1 hPa 0,0 l/m² 14,2 km/h (3 Bft) N 355 ° 3 min 466 W/m² 1,2 °C 13,0 °C 22,5 km/h (4 Bft)
07.04.2026 16:55 23,2 °C 16,3 °C 43 % 36 % 1026,0 hPa 0,0 l/m² 10,9 km/h (2 Bft) N-NW 342 ° 2 min 462 W/m² 1,2 °C 14,2 °C 16,1 km/h (3 Bft)
07.04.2026 16:57 23,2 °C 16,4 °C 43 % 35 % 1026,1 hPa 0,0 l/m² 16,4 km/h (3 Bft) N 355 ° 2 min 455 W/m² 0,9 °C 12,5 °C 22,5 km/h (4 Bft)
07.04.2026 16:59 23,2 °C 16,3 °C 43 % 36 % 1026,1 hPa 0,0 l/m² 15,3 km/h (3 Bft) N 350 ° 2 min 452 W/m² 1,2 °C 12,7 °C 24,1 km/h (4 Bft)
07.04.2026 17:01 23,2 °C 16,3 °C 43 % 36 % 1026,1 hPa 0,0 l/m² 11,0 km/h (2 Bft) N-NO 32 ° 2 min 446 W/m² 1,2 °C 14,1 °C 17,7 km/h (3 Bft)
07.04.2026 17:02 23,2 °C 16,3 °C 43 % 37 % 1026,2 hPa 0,0 l/m² 13,3 km/h (3 Bft) N-NW 329 ° 1 min 439 W/m² 1,6 °C 13,3 °C 22,5 km/h (4 Bft)
07.04.2026 17:03 23,2 °C 16,3 °C 43 % 37 % 1026,2 hPa 0,0 l/m² 15,1 km/h (3 Bft) N-NW 340 ° 1 min 439 W/m² 1,6 °C 12,7 °C 20,9 km/h (4 Bft)
07.04.2026 17:05 23,2 °C 16,3 °C 43 % 36 % 1026,1 hPa 0,0 l/m² 14,1 km/h (3 Bft) W-NW 302 ° 2 min 436 W/m² 1,2 °C 13,0 °C 20,9 km/h (4 Bft)
07.04.2026 17:06 23,2 °C 16,3 °C 43 % 36 % 1026,1 hPa 0,0 l/m² 16,8 km/h (3 Bft) NW 309 ° 1 min 432 W/m² 1,2 °C 12,2 °C 27,4 km/h (5 Bft)
07.04.2026 17:07 23,2 °C 16,3 °C 43 % 36 % 1026,2 hPa 0,0 l/m² 11,9 km/h (2 Bft) NW 305 ° 1 min 427 W/m² 1,2 °C 13,8 °C 17,7 km/h (3 Bft)
07.04.2026 17:08 23,2 °C 16,2 °C 43 % 36 % 1026,2 hPa 0,0 l/m² 9,9 km/h (2 Bft) W-NW 300 ° 1 min 422 W/m² 1,1 °C 14,5 °C 16,1 km/h (3 Bft)
07.04.2026 17:10 23,2 °C 16,3 °C 43 % 38 % 1026,1 hPa 0,0 l/m² 12,2 km/h (2 Bft) NW 325 ° 2 min 417 W/m² 2,0 °C 13,7 °C 20,9 km/h (4 Bft)
07.04.2026 17:13 23,2 °C 16,2 °C 43 % 37 % 1026,1 hPa 0,0 l/m² 16,4 km/h (3 Bft) N-NW 336 ° 3 min 410 W/m² 1,5 °C 12,2 °C 27,4 km/h (5 Bft)
07.04.2026 17:15 23,1 °C 16,1 °C 43 % 37 % 1026,1 hPa 0,0 l/m² 13,6 km/h (3 Bft) N-NW 348 ° 2 min 403 W/m² 1,4 °C 13,0 °C 19,3 km/h (3 Bft)
07.04.2026 17:17 23,2 °C 16,1 °C 43 % 38 % 1026,1 hPa 0,0 l/m² 8,0 km/h (2 Bft) NW 325 ° 2 min 397 W/m² 1,8 °C 15,3 °C 16,1 km/h (3 Bft)
07.04.2026 17:19 23,2 °C 16,1 °C 43 % 39 % 1026,1 hPa 0,0 l/m² 12,1 km/h (2 Bft) NW 315 ° 2 min 388 W/m² 2,1 °C 13,5 °C 19,3 km/h (3 Bft)
07.04.2026 17:21 23,2 °C 16,0 °C 43 % 38 % 1026,0 hPa 0,0 l/m² 14,8 km/h (3 Bft) N 10 ° 2 min 383 W/m² 1,7 °C 12,5 °C 22,5 km/h (4 Bft)
07.04.2026 17:22 23,2 °C 16,0 °C 43 % 39 % 1026,1 hPa 0,0 l/m² 14,8 km/h (3 Bft) N-NW 344 ° 1 min 380 W/m² 2,1 °C 12,5 °C 24,1 km/h (4 Bft)
07.04.2026 17:23 23,2 °C 16,0 °C 43 % 39 % 1026,1 hPa 0,0 l/m² 11,1 km/h (2 Bft) N 360 ° 1 min 376 W/m² 2,1 °C 13,8 °C 17,7 km/h (3 Bft)
07.04.2026 17:25 23,1 °C 16,0 °C 43 % 40 % 1026,1 hPa 0,0 l/m² 8,3 km/h (2 Bft) N 349 ° 2 min 369 W/m² 2,4 °C 15,0 °C 16,1 km/h (3 Bft)
07.04.2026 17:26 23,1 °C 15,9 °C 43 % 40 % 1026,0 hPa 0,0 l/m² 13,7 km/h (3 Bft) N-NW 339 ° 1 min 367 W/m² 2,3 °C 12,7 °C 16,1 km/h (3 Bft)
07.04.2026 17:27 23,2 °C 15,9 °C 43 % 40 % 1026,1 hPa 0,0 l/m² 12,4 km/h (2 Bft) N-NW 343 ° 1 min 364 W/m² 2,3 °C 13,2 °C 19,3 km/h (3 Bft)
07.04.2026 17:28 23,2 °C 15,9 °C 43 % 40 % 1026,1 hPa 0,0 l/m² 14,2 km/h (3 Bft) N-NW 346 ° 1 min 364 W/m² 2,3 °C 12,5 °C 17,7 km/h (3 Bft)
07.04.2026 17:30 23,1 °C 15,9 °C 43 % 40 % 1026,1 hPa 0,0 l/m² 11,4 km/h (2 Bft) N-NW 331 ° 2 min 359 W/m² 2,3 °C 13,5 °C 17,7 km/h (3 Bft)
07.04.2026 17:33 23,1 °C 15,8 °C 43 % 40 % 1026,1 hPa 0,0 l/m² 12,4 km/h (2 Bft) N-NW 347 ° 3 min 346 W/m² 2,2 °C 13,0 °C 22,5 km/h (4 Bft)
07.04.2026 17:35 23,1 °C 15,8 °C 43 % 40 % 1026,1 hPa 0,0 l/m² 11,8 km/h (2 Bft) N 355 ° 2 min 341 W/m² 2,2 °C 13,3 °C 20,9 km/h (4 Bft)
07.04.2026 17:37 23,1 °C 15,8 °C 43 % 40 % 1026,1 hPa 0,0 l/m² 12,6 km/h (3 Bft) N 350 ° 2 min 336 W/m² 2,2 °C 13,0 °C 20,9 km/h (4 Bft)
07.04.2026 17:39 23,1 °C 15,7 °C 43 % 40 % 1026,1 hPa 0,0 l/m² 9,5 km/h (2 Bft) N 11 ° 2 min 329 W/m² 2,1 °C 14,1 °C 16,1 km/h (3 Bft)
07.04.2026 17:41 23,1 °C 15,7 °C 43 % 40 % 1026,1 hPa 0,0 l/m² 13,5 km/h (3 Bft) N-NW 346 ° 2 min 258 W/m² 2,1 °C 12,5 °C 19,3 km/h (3 Bft)
07.04.2026 17:42 23,1 °C 15,7 °C 43 % 40 % 1026,1 hPa 0,0 l/m² 12,2 km/h (2 Bft) N 355 ° 1 min 264 W/m² 2,1 °C 13,0 °C 16,1 km/h (3 Bft)
07.04.2026 17:43 23,1 °C 15,6 °C 43 % 40 % 1026,1 hPa 0,0 l/m² 12,6 km/h (3 Bft) NW 309 ° 1 min 290 W/m² 2,1 °C 12,7 °C 17,7 km/h (3 Bft)
07.04.2026 17:45 23,1 °C 15,6 °C 43 % 40 % 1026,1 hPa 0,0 l/m² 12,9 km/h (3 Bft) NW 320 ° 2 min 248 W/m² 2,1 °C 12,6 °C 20,9 km/h (4 Bft)
07.04.2026 17:46 23,1 °C 15,6 °C 43 % 40 % 1026,1 hPa 0,0 l/m² 9,9 km/h (2 Bft) NW 323 ° 1 min 253 W/m² 2,1 °C 13,8 °C 16,1 km/h (3 Bft)
07.04.2026 17:47 23,1 °C 15,5 °C 43 % 40 % 1026,0 hPa 0,0 l/m² 11,9 km/h (2 Bft) N-NW 339 ° 1 min 264 W/m² 2,0 °C 12,9 °C 14,5 km/h (3 Bft)
07.04.2026 17:48 23,1 °C 15,5 °C 43 % 40 % 1026,0 hPa 0,0 l/m² 14,9 km/h (3 Bft) N-NW 331 ° 1 min 246 W/m² 2,0 °C 11,8 °C 17,7 km/h (3 Bft)
07.04.2026 17:50 23,1 °C 15,4 °C 43 % 39 % 1026,0 hPa 0,0 l/m² 12,6 km/h (3 Bft) N 5 ° 2 min 151 W/m² 1,5 °C 12,5 °C 20,9 km/h (4 Bft)
07.04.2026 17:53 23,1 °C 15,4 °C 43 % 40 % 1026,1 hPa 0,0 l/m² 9,9 km/h (2 Bft) NW 315 ° 3 min 251 W/m² 1,9 °C 13,6 °C 17,7 km/h (3 Bft)
07.04.2026 17:55 23,1 °C 15,3 °C 44 % 40 % 1026,1 hPa 0,0 l/m² 13,7 km/h (3 Bft) NW 306 ° 2 min 153 W/m² 1,8 °C 12,0 °C 22,5 km/h (4 Bft)
07.04.2026 17:57 23,1 °C 15,3 °C 44 % 40 % 1026,1 hPa 0,0 l/m² 12,5 km/h (2 Bft) N-NW 346 ° 2 min 160 W/m² 1,8 °C 12,4 °C 20,9 km/h (4 Bft)
07.04.2026 17:59 23,2 °C 15,3 °C 44 % 41 % 1026,1 hPa 0,0 l/m² 11,6 km/h (2 Bft) N-NO 12 ° 2 min 251 W/m² 2,1 °C 12,8 °C 17,7 km/h (3 Bft)
07.04.2026 18:01 23,1 °C 15,2 °C 44 % 41 % 1026,2 hPa 0,0 l/m² 12,5 km/h (2 Bft) N 360 ° 2 min 257 W/m² 2,0 °C 12,3 °C 19,3 km/h (3 Bft)
07.04.2026 18:02 23,1 °C 15,2 °C 44 % 41 % 1026,2 hPa 0,0 l/m² 12,8 km/h (3 Bft) NW 323 ° 1 min 163 W/m² 2,0 °C 12,2 °C 19,3 km/h (3 Bft)
07.04.2026 18:03 23,1 °C 15,2 °C 44 % 41 % 1026,2 hPa 0,0 l/m² 10,4 km/h (2 Bft) N 350 ° 1 min 223 W/m² 2,0 °C 13,2 °C 16,1 km/h (3 Bft)
07.04.2026 18:05 23,1 °C 15,1 °C 44 % 42 % 1026,2 hPa 0,0 l/m² 7,3 km/h (2 Bft) N-NW 344 ° 2 min 244 W/m² 2,3 °C 14,6 °C 14,5 km/h (3 Bft)
07.04.2026 18:06 23,1 °C 15,1 °C 44 % 43 % 1026,2 hPa 0,0 l/m² 10,3 km/h (2 Bft) N 355 ° 1 min 141 W/m² 2,6 °C 13,1 °C 17,7 km/h (3 Bft)
07.04.2026 18:07 23,1 °C 15,1 °C 44 % 43 % 1026,2 hPa 0,0 l/m² 12,3 km/h (2 Bft) N-NW 347 ° 1 min 158 W/m² 2,6 °C 12,3 °C 16,1 km/h (3 Bft)
07.04.2026 18:08 23,1 °C 15,1 °C 44 % 42 % 1026,2 hPa 0,0 l/m² 11,0 km/h (2 Bft) N 351 ° 1 min 83 W/m² 2,3 °C 12,8 °C 14,5 km/h (3 Bft)
07.04.2026 18:10 23,1 °C 15,1 °C 44 % 43 % 1026,2 hPa 0,0 l/m² 11,7 km/h (2 Bft) N-NW 336 ° 2 min 163 W/m² 2,6 °C 12,5 °C 20,9 km/h (4 Bft)
07.04.2026 18:13 23,1 °C 14,9 °C 43 % 43 % 1026,3 hPa 0,0 l/m² 15,2 km/h (3 Bft) N-NW 346 ° 3 min 178 W/m² 2,4 °C 11,0 °C 20,9 km/h (4 Bft)
07.04.2026 18:15 23,1 °C 14,8 °C 43 % 43 % 1026,2 hPa 0,0 l/m² 13,2 km/h (3 Bft) W-NW 288 ° 2 min 162 W/m² 2,3 °C 11,6 °C 19,3 km/h (3 Bft)
07.04.2026 18:17 23,1 °C 14,8 °C 43 % 44 % 1026,2 hPa 0,0 l/m² 15,6 km/h (3 Bft) N-NW 340 ° 2 min 70 W/m² 2,7 °C 10,8 °C 25,7 km/h (4 Bft)
07.04.2026 18:19 23,1 °C 14,7 °C 42 % 44 % 1026,2 hPa 0,0 l/m² 16,9 km/h (3 Bft) N-NW 336 ° 2 min 91 W/m² 2,6 °C 10,2 °C 25,7 km/h (4 Bft)
07.04.2026 18:21 23,1 °C 14,7 °C 42 % 44 % 1026,1 hPa 0,0 l/m² 11,0 km/h (2 Bft) N-NW 346 ° 2 min 128 W/m² 2,6 °C 12,3 °C 17,7 km/h (3 Bft)
07.04.2026 18:24 23,1 °C 14,6 °C 42 % 45 % 1026,2 hPa 0,0 l/m² 13,9 km/h (3 Bft) N 360 ° 3 min 70 W/m² 2,8 °C 11,1 °C 20,9 km/h (4 Bft)
07.04.2026 18:26 23,0 °C 14,5 °C 42 % 45 % 1026,2 hPa 0,0 l/m² 12,5 km/h (2 Bft) N 351 ° 2 min 79 W/m² 2,7 °C 11,5 °C 20,9 km/h (4 Bft)
07.04.2026 18:28 23,0 °C 14,4 °C 42 % 45 % 1026,2 hPa 0,0 l/m² 8,9 km/h (2 Bft) N-NO 14 ° 0 min 51 W/m² 2,6 °C 13,0 °C 17,7 km/h (3 Bft)
07.04.2026 18:30 23,0 °C 14,4 °C 42 % 45 % 1026,2 hPa 0,0 l/m² 8,2 km/h (2 Bft) NO 40 ° 2 min 54 W/m² 2,6 °C 13,4 °C 14,5 km/h (3 Bft)
07.04.2026 18:33 23,0 °C 14,3 °C 42 % 46 % 1026,2 hPa 0,0 l/m² 9,7 km/h (2 Bft) N-NW 348 ° 3 min 97 W/m² 2,8 °C 12,5 °C 17,7 km/h (3 Bft)
07.04.2026 18:35 22,9 °C 14,3 °C 43 % 46 % 1026,3 hPa 0,0 l/m² 10,2 km/h (2 Bft) N 355 ° 2 min 90 W/m² 2,8 °C 12,3 °C 19,3 km/h (3 Bft)
07.04.2026 18:37 22,9 °C 14,3 °C 43 % 46 % 1026,2 hPa 0,0 l/m² 10,1 km/h (2 Bft) N 355 ° 2 min 54 W/m² 2,8 °C 12,3 °C 17,7 km/h (3 Bft)
07.04.2026 18:39 22,9 °C 14,3 °C 43 % 46 % 1026,2 hPa 0,0 l/m² 7,1 km/h (2 Bft) N-NW 335 ° 2 min 86 W/m² 2,8 °C 13,9 °C 12,9 km/h (3 Bft)
07.04.2026 18:41 22,9 °C 14,2 °C 43 % 46 % 1026,3 hPa 0,0 l/m² 9,1 km/h (2 Bft) N 360 ° 2 min 88 W/m² 2,8 °C 12,7 °C 16,1 km/h (3 Bft)
07.04.2026 18:42 22,9 °C 14,2 °C 43 % 46 % 1026,4 hPa 0,0 l/m² 13,6 km/h (3 Bft) N 11 ° 1 min 77 W/m² 2,8 °C 10,7 °C 19,3 km/h (3 Bft)
07.04.2026 18:43 22,9 °C 14,2 °C 43 % 46 % 1026,4 hPa 0,0 l/m² 8,0 km/h (2 Bft) N 360 ° 1 min 77 W/m² 2,8 °C 13,3 °C 12,9 km/h (3 Bft)
07.04.2026 18:45 22,9 °C 14,2 °C 43 % 46 % 1026,4 hPa 0,0 l/m² 9,7 km/h (2 Bft) N 355 ° 2 min 83 W/m² 2,8 °C 12,4 °C 14,5 km/h (3 Bft)
07.04.2026 18:48 23,0 °C 14,1 °C 44 % 47 % 1026,3 hPa 0,0 l/m² 8,2 km/h (2 Bft) N 360 ° 0 min 44 W/m² 3,0 °C 13,0 °C 14,5 km/h (3 Bft)
07.04.2026 18:50 23,0 °C 14,0 °C 44 % 47 % 1026,3 hPa 0,0 l/m² 9,2 km/h (2 Bft) N 355 ° 2 min 63 W/m² 2,9 °C 12,4 °C 14,5 km/h (3 Bft)
07.04.2026 18:53 23,0 °C 13,9 °C 45 % 47 % 1026,4 hPa 0,0 l/m² 7,3 km/h (2 Bft) NW 319 ° 3 min 54 W/m² 2,8 °C 13,4 °C 14,5 km/h (3 Bft)
07.04.2026 18:55 23,0 °C 13,8 °C 45 % 48 % 1026,4 hPa 0,0 l/m² 6,0 km/h (2 Bft) N 355 ° 0 min 44 W/m² 3,0 °C 13,8 °C 14,5 km/h (3 Bft)
07.04.2026 18:57 23,0 °C 13,8 °C 45 % 47 % 1026,3 hPa 0,0 l/m² 4,5 km/h (1 Bft) N-NO 21 ° 0 min 42 W/m² 2,7 °C 13,8 °C 9,7 km/h (2 Bft)
07.04.2026 18:59 23,0 °C 13,8 °C 45 % 48 % 1026,4 hPa 0,0 l/m² 7,0 km/h (2 Bft) N 5 ° 2 min 58 W/m² 3,0 °C 13,4 °C 12,9 km/h (3 Bft)
07.04.2026 19:01 23,0 °C 13,7 °C 45 % 48 % 1026,4 hPa 0,0 l/m² 4,6 km/h (1 Bft) N-NO 17 ° 2 min 62 W/m² 2,9 °C 13,7 °C 9,7 km/h (2 Bft)
07.04.2026 19:02 23,0 °C 13,7 °C 45 % 48 % 1026,4 hPa 0,0 l/m² 6,4 km/h (2 Bft) N-NO 22 ° 1 min 60 W/m² 2,9 °C 13,7 °C 12,9 km/h (3 Bft)
07.04.2026 19:03 23,0 °C 13,7 °C 45 % 48 % 1026,4 hPa 0,0 l/m² 6,8 km/h (2 Bft) N 5 ° 1 min 58 W/m² 2,9 °C 13,5 °C 11,3 km/h (2 Bft)
07.04.2026 19:05 23,0 °C 13,6 °C 45 % 48 % 1026,4 hPa 0,0 l/m² 7,3 km/h (2 Bft) N-NO 17 ° 0 min 49 W/m² 2,8 °C 13,0 °C 12,9 km/h (3 Bft)
07.04.2026 19:06 23,0 °C 13,6 °C 45 % 48 % 1026,4 hPa 0,0 l/m² 6,7 km/h (2 Bft) N-NO 28 ° 0 min 49 W/m² 2,8 °C 13,4 °C 12,9 km/h (3 Bft)
07.04.2026 19:07 23,0 °C 13,6 °C 45 % 48 % 1026,5 hPa 0,0 l/m² 5,1 km/h (1 Bft) N 5 ° 0 min 49 W/m² 2,8 °C 13,6 °C 9,7 km/h (2 Bft)
07.04.2026 19:08 23,0 °C 13,5 °C 45 % 49 % 1026,5 hPa 0,0 l/m² 4,6 km/h (1 Bft) N-NW 346 ° 0 min 44 W/m² 3,0 °C 13,5 °C 8,0 km/h (2 Bft)
07.04.2026 19:10 23,1 °C 13,4 °C 45 % 49 % 1026,4 hPa 0,0 l/m² 4,8 km/h (1 Bft) N-NO 28 ° 0 min 39 W/m² 2,9 °C 13,4 °C 9,7 km/h (2 Bft)
07.04.2026 19:13 23,0 °C 13,3 °C 45 % 49 % 1026,4 hPa 0,0 l/m² 6,7 km/h (2 Bft) N 11 ° 0 min 37 W/m² 2,8 °C 13,1 °C 12,9 km/h (3 Bft)
07.04.2026 19:15 23,1 °C 13,2 °C 45 % 49 % 1026,5 hPa 0,0 l/m² 6,9 km/h (2 Bft) N 5 ° 0 min 33 W/m² 2,7 °C 12,9 °C 12,9 km/h (3 Bft)
07.04.2026 19:17 23,1 °C 13,2 °C 45 % 49 % 1026,5 hPa 0,0 l/m² 3,8 km/h (1 Bft) N-NO 18 ° 0 min 28 W/m² 2,7 °C 13,2 °C 6,4 km/h (2 Bft)
07.04.2026 19:19 23,0 °C 13,1 °C 45 % 49 % 1026,4 hPa 0,0 l/m² 3,0 km/h (1 Bft) N-NO 24 ° 0 min 25 W/m² 2,6 °C 13,1 °C 6,4 km/h (2 Bft)
07.04.2026 19:21 23,1 °C 13,0 °C 45 % 49 % 1026,5 hPa 0,0 l/m² 4,1 km/h (1 Bft) N-NO 21 ° 0 min 21 W/m² 2,5 °C 13,0 °C 8,0 km/h (2 Bft)
07.04.2026 19:22 23,0 °C 13,1 °C 45 % 50 % 1026,5 hPa 0,0 l/m² 4,2 km/h (1 Bft) N 355 ° 0 min 21 W/m² 2,9 °C 13,1 °C 6,4 km/h (2 Bft)
07.04.2026 19:23 23,0 °C 13,0 °C 45 % 50 % 1026,5 hPa 0,0 l/m² 5,6 km/h (2 Bft) N-NO 15 ° 0 min 19 W/m² 2,8 °C 13,0 °C 9,7 km/h (2 Bft)
07.04.2026 19:25 23,0 °C 12,9 °C 45 % 49 % 1026,5 hPa 0,0 l/m² 6,4 km/h (2 Bft) N-NO 26 ° 0 min 19 W/m² 2,5 °C 12,9 °C 9,7 km/h (2 Bft)
07.04.2026 19:26 23,0 °C 12,8 °C 45 % 49 % 1026,5 hPa 0,0 l/m² 5,4 km/h (2 Bft) N-NO 21 ° 0 min 19 W/m² 2,4 °C 12,8 °C 9,7 km/h (2 Bft)
07.04.2026 19:27 23,0 °C 12,8 °C 45 % 49 % 1026,5 hPa 0,0 l/m² 6,1 km/h (2 Bft) N-NO 23 ° 0 min 18 W/m² 2,4 °C 12,8 °C 9,7 km/h (2 Bft)
07.04.2026 19:29 23,0 °C 12,7 °C 45 % 49 % 1026,5 hPa 0,0 l/m² 5,8 km/h (2 Bft) N-NO 15 ° 0 min 18 W/m² 2,3 °C 12,7 °C 11,3 km/h (2 Bft)
07.04.2026 19:31 23,0 °C 12,6 °C 45 % 49 % 1026,5 hPa 0,0 l/m² 6,4 km/h (2 Bft) N 5 ° 0 min 16 W/m² 2,2 °C 12,6 °C 14,5 km/h (3 Bft)
07.04.2026 19:32 22,9 °C 12,6 °C 44 % 49 % 1026,5 hPa 0,0 l/m² 5,5 km/h (2 Bft) N-NO 32 ° 0 min 16 W/m² 2,2 °C 12,6 °C 8,0 km/h (2 Bft)
07.04.2026 19:33 22,9 °C 12,6 °C 44 % 49 % 1026,5 hPa 0,0 l/m² 6,4 km/h (2 Bft) N 360 ° 0 min 16 W/m² 2,2 °C 12,6 °C 12,9 km/h (3 Bft)
07.04.2026 19:35 22,9 °C 12,4 °C 44 % 50 % 1026,5 hPa 0,0 l/m² 6,1 km/h (2 Bft) N 5 ° 0 min 14 W/m² 2,3 °C 12,4 °C 8,0 km/h (2 Bft)
07.04.2026 19:36 23,0 °C 12,3 °C 44 % 50 % 1026,4 hPa 0,0 l/m² 4,5 km/h (1 Bft) N 350 ° 0 min 12 W/m² 2,2 °C 12,3 °C 8,0 km/h (2 Bft)
07.04.2026 19:37 23,0 °C 12,3 °C 44 % 50 % 1026,4 hPa 0,0 l/m² 3,6 km/h (1 Bft) NO 46 ° 0 min 12 W/m² 2,2 °C 12,3 °C 4,8 km/h (1 Bft)
07.04.2026 19:39 22,9 °C 12,2 °C 44 % 50 % 1026,5 hPa 0,0 l/m² 3,0 km/h (1 Bft) N-NO 21 ° 0 min 12 W/m² 2,1 °C 12,2 °C 8,0 km/h (2 Bft)
07.04.2026 19:41 22,9 °C 12,1 °C 44 % 50 % 1026,5 hPa 0,0 l/m² 3,9 km/h (1 Bft) N 355 ° 0 min 11 W/m² 2,0 °C 12,1 °C 6,4 km/h (2 Bft)
07.04.2026 19:42 22,9 °C 12,1 °C 44 % 51 % 1026,5 hPa 0,0 l/m² 4,7 km/h (1 Bft) N 5 ° 0 min 11 W/m² 2,3 °C 12,1 °C 6,4 km/h (2 Bft)
07.04.2026 19:43 22,9 °C 12,1 °C 44 % 51 % 1026,5 hPa 0,0 l/m² 3,6 km/h (1 Bft) N 5 ° 0 min 11 W/m² 2,3 °C 12,1 °C 4,8 km/h (1 Bft)
07.04.2026 19:45 22,9 °C 11,9 °C 44 % 51 % 1026,5 hPa 0,0 l/m² 2,8 km/h (1 Bft) NO 38 ° 0 min 9 W/m² 2,1 °C 11,9 °C 4,8 km/h (1 Bft)
07.04.2026 19:46 22,9 °C 11,9 °C 44 % 51 % 1026,5 hPa 0,0 l/m² 2,7 km/h (1 Bft) N 11 ° 0 min 9 W/m² 2,1 °C 11,9 °C 4,8 km/h (1 Bft)
07.04.2026 19:47 22,9 °C 11,8 °C 44 % 51 % 1026,5 hPa 0,0 l/m² 3,0 km/h (1 Bft) N-NO 17 ° 0 min 9 W/m² 2,0 °C 11,8 °C 4,8 km/h (1 Bft)
07.04.2026 19:48 22,9 °C 11,8 °C 44 % 51 % 1026,5 hPa 0,0 l/m² 3,6 km/h (1 Bft) NO 39 ° 0 min 7 W/m² 2,0 °C 11,8 °C 4,8 km/h (1 Bft)
07.04.2026 19:50 22,9 °C 11,8 °C 44 % 51 % 1026,5 hPa 0,0 l/m² 3,0 km/h (1 Bft) N-NO 19 ° 0 min 7 W/m² 2,0 °C 11,8 °C 6,4 km/h (2 Bft)
07.04.2026 19:53 22,9 °C 11,6 °C 44 % 52 % 1026,6 hPa 0,0 l/m² 2,3 km/h (1 Bft) N-NO 15 ° 0 min 5 W/m² 2,1 °C 11,6 °C 4,8 km/h (1 Bft)
07.04.2026 19:55 22,9 °C 11,5 °C 44 % 52 % 1026,5 hPa 0,0 l/m² 2,2 km/h (1 Bft) N-NO 22 ° 0 min 5 W/m² 2,0 °C 11,5 °C 4,8 km/h (1 Bft)
07.04.2026 19:57 22,9 °C 11,4 °C 45 % 52 % 1026,6 hPa 0,0 l/m² 1,7 km/h (1 Bft) NO 36 ° 0 min 5 W/m² 1,9 °C 11,4 °C 4,8 km/h (1 Bft)
07.04.2026 19:59 22,9 °C 11,3 °C 45 % 52 % 1026,7 hPa 0,0 l/m² 1,6 km/h (1 Bft) N-NO 19 ° 0 min 0 W/m² 1,8 °C 11,3 °C 3,2 km/h (1 Bft)
07.04.2026 20:02 22,9 °C 11,3 °C 45 % 52 % 1026,7 hPa 0,0 l/m² 1,2 km/h (1 Bft) N-NO 19 ° 0 min 0 W/m² 1,8 °C 11,3 °C 3,2 km/h (1 Bft)
07.04.2026 20:05 22,9 °C 11,1 °C 45 % 53 % 1026,7 hPa 0,0 l/m² 1,3 km/h (1 Bft) N-NO 17 ° 0 min 0 W/m² 1,9 °C 11,1 °C 3,2 km/h (1 Bft)
07.04.2026 20:07 22,9 °C 11,0 °C 45 % 53 % 1026,7 hPa 0,0 l/m² 0,6 km/h (0 Bft) N-NO 17 ° 0 min 0 W/m² 1,8 °C 11,0 °C 3,2 km/h (1 Bft)
07.04.2026 20:09 22,9 °C 10,9 °C 45 % 53 % 1026,7 hPa 0,0 l/m² 0,9 km/h (0 Bft) NO 39 ° 0 min 0 W/m² 1,7 °C 10,9 °C 1,6 km/h (1 Bft)
07.04.2026 20:11 22,9 °C 10,8 °C 45 % 54 % 1026,8 hPa 0,0 l/m² 0,6 km/h (0 Bft) NO 49 ° 0 min 0 W/m² 1,9 °C 10,8 °C 3,2 km/h (1 Bft)
07.04.2026 20:12 22,9 °C 10,8 °C 44 % 54 % 1026,8 hPa 0,0 l/m² 1,7 km/h (1 Bft) NO 46 ° 0 min 0 W/m² 1,9 °C 10,8 °C 3,2 km/h (1 Bft)
07.04.2026 20:13 22,9 °C 10,8 °C 44 % 54 % 1026,8 hPa 0,0 l/m² 2,1 km/h (1 Bft) NO 35 ° 0 min 0 W/m² 1,9 °C 10,8 °C 3,2 km/h (1 Bft)
07.04.2026 20:15 22,9 °C 10,7 °C 44 % 54 % 1026,9 hPa 0,0 l/m² 2,4 km/h (1 Bft) NO 34 ° 0 min 0 W/m² 1,8 °C 10,7 °C 4,8 km/h (1 Bft)
07.04.2026 20:17 22,8 °C 10,6 °C 44 % 55 % 1026,8 hPa 0,0 l/m² 1,3 km/h (1 Bft) NO 50 ° 0 min 0 W/m² 1,9 °C 10,6 °C 4,8 km/h (1 Bft)
07.04.2026 20:19 22,8 °C 10,4 °C 44 % 55 % 1026,8 hPa 0,0 l/m² 1,6 km/h (1 Bft) NO 40 ° 0 min 0 W/m² 1,8 °C 10,4 °C 4,8 km/h (1 Bft)
07.04.2026 20:21 22,9 °C 10,3 °C 44 % 55 % 1026,8 hPa 0,0 l/m² 2,5 km/h (1 Bft) N-NO 33 ° 0 min 0 W/m² 1,7 °C 10,3 °C 4,8 km/h (1 Bft)
07.04.2026 20:22 22,9 °C 10,3 °C 44 % 55 % 1026,9 hPa 0,0 l/m² 3,7 km/h (1 Bft) NO 34 ° 0 min 0 W/m² 1,7 °C 10,3 °C 6,4 km/h (2 Bft)
07.04.2026 20:23 22,9 °C 10,2 °C 44 % 55 % 1026,9 hPa 0,0 l/m² 2,4 km/h (1 Bft) NO 55 ° 0 min 0 W/m² 1,6 °C 10,2 °C 4,8 km/h (1 Bft)
07.04.2026 20:25 22,9 °C 10,1 °C 45 % 55 % 1027,0 hPa 0,0 l/m² 2,9 km/h (1 Bft) NO 49 ° 0 min 0 W/m² 1,5 °C 10,1 °C 6,4 km/h (2 Bft)
07.04.2026 20:26 22,9 °C 10,1 °C 45 % 55 % 1026,9 hPa 0,0 l/m² 2,1 km/h (1 Bft) O-NO 58 ° 0 min 0 W/m² 1,5 °C 10,1 °C 4,8 km/h (1 Bft)
07.04.2026 20:27 22,9 °C 10,0 °C 45 % 55 % 1026,9 hPa 0,0 l/m² 1,6 km/h (1 Bft) NO 49 ° 0 min 0 W/m² 1,4 °C 10,0 °C 3,2 km/h (1 Bft)
07.04.2026 20:28 22,9 °C 9,9 °C 45 % 55 % 1026,9 hPa 0,0 l/m² 1,1 km/h (1 Bft) NO 41 ° 0 min 0 W/m² 1,3 °C 9,9 °C 3,2 km/h (1 Bft)
07.04.2026 20:30 22,9 °C 9,9 °C 45 % 55 % 1026,8 hPa 0,0 l/m² 1,2 km/h (1 Bft) NO 41 ° 0 min 0 W/m² 1,3 °C 9,9 °C 3,2 km/h (1 Bft)
07.04.2026 20:33 22,9 °C 9,8 °C 45 % 56 % 1027,0 hPa 0,0 l/m² 1,0 km/h (0 Bft) NO 41 ° 0 min 0 W/m² 1,4 °C 9,8 °C 3,2 km/h (1 Bft)
07.04.2026 20:35 22,9 °C 9,7 °C 45 % 56 % 1026,9 hPa 0,0 l/m² 0,9 km/h (0 Bft) NO 41 ° 0 min 0 W/m² 1,4 °C 9,7 °C 3,2 km/h (1 Bft)
07.04.2026 20:37 22,9 °C 9,6 °C 45 % 56 % 1027,0 hPa 0,0 l/m² 0,5 km/h (0 Bft) NO 41 ° 0 min 0 W/m² 1,3 °C 9,6 °C 1,6 km/h (1 Bft)
07.04.2026 20:39 22,9 °C 9,6 °C 45 % 56 % 1027,0 hPa 0,0 l/m² 0,3 km/h (0 Bft) NO 41 ° 0 min 0 W/m² 1,3 °C 9,6 °C 1,6 km/h (1 Bft)
07.04.2026 20:41 22,9 °C 9,4 °C 45 % 56 % 1027,0 hPa 0,0 l/m² 0,1 km/h (0 Bft) NO 41 ° 0 min 0 W/m² 1,1 °C 9,4 °C 1,6 km/h (1 Bft)
07.04.2026 20:42 22,9 °C 9,4 °C 45 % 56 % 1027,0 hPa 0,0 l/m² 0,0 km/h (0 Bft) NO 41 ° 0 min 0 W/m² 1,1 °C 9,4 °C 0,0 km/h (0 Bft)
07.04.2026 20:43 22,9 °C 9,4 °C 45 % 57 % 1027,0 hPa 0,0 l/m² 0,0 km/h (0 Bft) NO 41 ° 0 min 0 W/m² 1,3 °C 9,4 °C 0,0 km/h (0 Bft)
07.04.2026 20:45 22,9 °C 9,3 °C 45 % 57 % 1027,1 hPa 0,0 l/m² 0,5 km/h (0 Bft) NO 41 ° 0 min 0 W/m² 1,2 °C 9,3 °C 1,6 km/h (1 Bft)
07.04.2026 20:46 22,9 °C 9,3 °C 45 % 57 % 1027,0 hPa 0,0 l/m² 0,3 km/h (0 Bft) NO 41 ° 0 min 0 W/m² 1,2 °C 9,3 °C 1,6 km/h (1 Bft)
07.04.2026 20:47 23,0 °C 9,3 °C 45 % 57 % 1027,1 hPa 0,0 l/m² 1,2 km/h (1 Bft) NO 41 ° 0 min 0 W/m² 1,2 °C 9,3 °C 3,2 km/h (1 Bft)
07.04.2026 20:48 23,0 °C 9,3 °C 45 % 57 % 1027,1 hPa 0,0 l/m² 1,8 km/h (1 Bft) NO 41 ° 0 min 0 W/m² 1,2 °C 9,3 °C 3,2 km/h (1 Bft)
07.04.2026 20:50 22,9 °C 9,2 °C 45 % 57 % 1027,0 hPa 0,0 l/m² 1,0 km/h (0 Bft) NO 41 ° 0 min 0 W/m² 1,1 °C 9,2 °C 3,2 km/h (1 Bft)
07.04.2026 20:53 23,0 °C 9,1 °C 45 % 58 % 1027,1 hPa 0,0 l/m² 1,1 km/h (1 Bft) NO 56 ° 0 min 0 W/m² 1,3 °C 9,1 °C 3,2 km/h (1 Bft)
07.04.2026 20:55 23,0 °C 9,0 °C 45 % 58 % 1027,1 hPa 0,0 l/m² 1,4 km/h (1 Bft) NO 49 ° 0 min 0 W/m² 1,2 °C 9,0 °C 3,2 km/h (1 Bft)
07.04.2026 20:57 23,0 °C 8,9 °C 45 % 58 % 1027,2 hPa 0,0 l/m² 0,9 km/h (0 Bft) NO 45 ° 0 min 0 W/m² 1,1 °C 8,9 °C 3,2 km/h (1 Bft)
07.04.2026 20:59 23,0 °C 8,8 °C 45 % 59 % 1027,2 hPa 0,0 l/m² 0,0 km/h (0 Bft) NO 45 ° 0 min 0 W/m² 1,2 °C 8,8 °C 0,0 km/h (0 Bft)
07.04.2026 21:01 23,0 °C 8,7 °C 45 % 59 % 1027,1 hPa 0,0 l/m² 0,0 km/h (0 Bft) NO 45 ° 0 min 0 W/m² 1,1 °C 8,7 °C 0,0 km/h (0 Bft)
07.04.2026 21:02 23,0 °C 8,7 °C 45 % 59 % 1027,1 hPa 0,0 l/m² 0,0 km/h (0 Bft) NO 45 ° 0 min 0 W/m² 1,1 °C 8,7 °C 0,0 km/h (0 Bft)
07.04.2026 21:03 23,0 °C 8,6 °C 45 % 59 % 1027,1 hPa 0,0 l/m² 0,0 km/h (0 Bft) NO 45 ° 0 min 0 W/m² 1,0 °C 8,6 °C 0,0 km/h (0 Bft)
07.04.2026 21:05 23,0 °C 8,6 °C 45 % 59 % 1027,1 hPa 0,0 l/m² 0,0 km/h (0 Bft) NO 45 ° 0 min 0 W/m² 1,0 °C 8,6 °C 0,0 km/h (0 Bft)
07.04.2026 21:06 23,1 °C 8,5 °C 45 % 59 % 1027,2 hPa 0,0 l/m² 0,0 km/h (0 Bft) NO 45 ° 0 min 0 W/m² 1,0 °C 8,5 °C 0,0 km/h (0 Bft)
07.04.2026 21:07 23,1 °C 8,4 °C 45 % 59 % 1027,2 hPa 0,0 l/m² 0,0 km/h (0 Bft) NO 45 ° 0 min 0 W/m² 0,9 °C 8,4 °C 0,0 km/h (0 Bft)
07.04.2026 21:08 23,0 °C 8,4 °C 45 % 59 % 1027,1 hPa 0,0 l/m² 0,0 km/h (0 Bft) NO 45 ° 0 min 0 W/m² 0,9 °C 8,4 °C 0,0 km/h (0 Bft)
07.04.2026 21:10 23,0 °C 8,3 °C 45 % 60 % 1027,1 hPa 0,0 l/m² 0,0 km/h (0 Bft) NO 45 ° 0 min 0 W/m² 1,0 °C 8,3 °C 0,0 km/h (0 Bft)
07.04.2026 21:13 23,1 °C 8,2 °C 45 % 60 % 1027,3 hPa 0,0 l/m² 0,0 km/h (0 Bft) NO 45 ° 0 min 0 W/m² 0,9 °C 8,2 °C 0,0 km/h (0 Bft)
07.04.2026 21:15 23,1 °C 8,1 °C 45 % 61 % 1027,2 hPa 0,0 l/m² 0,0 km/h (0 Bft) NO 45 ° 0 min 0 W/m² 1,0 °C 8,1 °C 0,0 km/h (0 Bft)
07.04.2026 21:17 23,1 °C 8,0 °C 45 % 61 % 1027,2 hPa 0,0 l/m² 0,0 km/h (0 Bft) NO 45 ° 0 min 0 W/m² 0,9 °C 8,0 °C 0,0 km/h (0 Bft)
07.04.2026 21:19 23,1 °C 7,9 °C 45 % 61 % 1027,2 hPa 0,0 l/m² 0,0 km/h (0 Bft) NO 45 ° 0 min 0 W/m² 0,9 °C 7,9 °C 0,0 km/h (0 Bft)
07.04.2026 21:21 23,1 °C 7,8 °C 45 % 61 % 1027,1 hPa 0,0 l/m² 0,0 km/h (0 Bft) NO 45 ° 0 min 0 W/m² 0,8 °C 7,8 °C 0,0 km/h (0 Bft)
07.04.2026 21:22 23,1 °C 7,8 °C 45 % 61 % 1027,1 hPa 0,0 l/m² 0,0 km/h (0 Bft) NO 45 ° 0 min 0 W/m² 0,8 °C 7,8 °C 0,0 km/h (0 Bft)
07.04.2026 21:23 23,1 °C 7,8 °C 45 % 61 % 1027,1 hPa 0,0 l/m² 0,0 km/h (0 Bft) NO 45 ° 0 min 0 W/m² 0,8 °C 7,8 °C 0,0 km/h (0 Bft)
07.04.2026 21:25 23,0 °C 7,6 °C 45 % 61 % 1027,2 hPa 0,0 l/m² 0,0 km/h (0 Bft) NO 45 ° 0 min 0 W/m² 0,6 °C 7,6 °C 0,0 km/h (0 Bft)
07.04.2026 21:26 23,1 °C 7,6 °C 45 % 61 % 1027,2 hPa 0,0 l/m² 0,0 km/h (0 Bft) NO 45 ° 0 min 0 W/m² 0,6 °C 7,6 °C 0,0 km/h (0 Bft)
07.04.2026 21:27 23,1 °C 7,6 °C 45 % 61 % 1027,2 hPa 0,0 l/m² 0,0 km/h (0 Bft) NO 45 ° 0 min 0 W/m² 0,6 °C 7,6 °C 0,0 km/h (0 Bft)
07.04.2026 21:28 23,1 °C 7,5 °C 45 % 61 % 1027,2 hPa 0,0 l/m² 0,0 km/h (0 Bft) NO 45 ° 0 min 0 W/m² 0,5 °C 7,5 °C 0,0 km/h (0 Bft)
07.04.2026 21:30 23,1 °C 7,3 °C 45 % 61 % 1027,2 hPa 0,0 l/m² 0,0 km/h (0 Bft) NO 45 ° 0 min 0 W/m² 0,3 °C 7,3 °C 0,0 km/h (0 Bft)
07.04.2026 21:33 23,1 °C 7,2 °C 45 % 62 % 1027,3 hPa 0,0 l/m² 0,0 km/h (0 Bft) NO 45 ° 0 min 0 W/m² 0,4 °C 7,2 °C 0,0 km/h (0 Bft)
07.04.2026 21:35 23,1 °C 7,2 °C 45 % 62 % 1027,2 hPa 0,0 l/m² 0,0 km/h (0 Bft) NO 45 ° 0 min 0 W/m² 0,4 °C 7,2 °C 0,0 km/h (0 Bft)
07.04.2026 21:37 23,1 °C 7,1 °C 45 % 62 % 1027,2 hPa 0,0 l/m² 0,0 km/h (0 Bft) NO 45 ° 0 min 0 W/m² 0,3 °C 7,1 °C 0,0 km/h (0 Bft)
07.04.2026 21:39 23,0 °C 6,9 °C 45 % 63 % 1027,3 hPa 0,0 l/m² 0,0 km/h (0 Bft) NO 45 ° 0 min 0 W/m² 0,4 °C 6,9 °C 0,0 km/h (0 Bft)
07.04.2026 21:41 23,1 °C 6,8 °C 45 % 64 % 1027,4 hPa 0,0 l/m² 0,0 km/h (0 Bft) NO 45 ° 0 min 0 W/m² 0,5 °C 6,8 °C 0,0 km/h (0 Bft)
07.04.2026 21:42 23,0 °C 6,7 °C 45 % 64 % 1027,3 hPa 0,0 l/m² 0,0 km/h (0 Bft) NO 45 ° 0 min 0 W/m² 0,4 °C 6,7 °C 0,0 km/h (0 Bft)
07.04.2026 21:43 23,0 °C 6,7 °C 45 % 64 % 1027,3 hPa 0,0 l/m² 0,0 km/h (0 Bft) NO 45 ° 0 min 0 W/m² 0,4 °C 6,7 °C 0,0 km/h (0 Bft)
07.04.2026 21:45 23,1 °C 6,5 °C 45 % 65 % 1027,4 hPa 0,0 l/m² 0,0 km/h (0 Bft) NO 45 ° 0 min 0 W/m² 0,4 °C 6,5 °C 0,0 km/h (0 Bft)
07.04.2026 21:48 23,1 °C 6,4 °C 45 % 65 % 1027,5 hPa 0,0 l/m² 0,0 km/h (0 Bft) NO 45 ° 0 min 0 W/m² 0,3 °C 6,4 °C 0,0 km/h (0 Bft)
07.04.2026 21:50 23,0 °C 6,3 °C 45 % 65 % 1027,4 hPa 0,0 l/m² 0,0 km/h (0 Bft) NO 45 ° 0 min 0 W/m² 0,2 °C 6,3 °C 0,0 km/h (0 Bft)
07.04.2026 21:53 23,0 °C 6,2 °C 45 % 66 % 1027,4 hPa 0,0 l/m² 0,0 km/h (0 Bft) NO 45 ° 0 min 0 W/m² 0,3 °C 6,2 °C 0,0 km/h (0 Bft)
07.04.2026 21:55 23,0 °C 6,2 °C 45 % 66 % 1027,4 hPa 0,0 l/m² 0,0 km/h (0 Bft) NO 45 ° 0 min 0 W/m² 0,3 °C 6,2 °C 0,0 km/h (0 Bft)
07.04.2026 21:57 23,1 °C 6,1 °C 45 % 67 % 1027,4 hPa 0,0 l/m² 0,0 km/h (0 Bft) NO 45 ° 0 min 0 W/m² 0,4 °C 6,1 °C 0,0 km/h (0 Bft)
07.04.2026 21:59 23,1 °C 6,1 °C 45 % 67 % 1027,4 hPa 0,0 l/m² 0,0 km/h (0 Bft) NO 45 ° 0 min 0 W/m² 0,4 °C 6,1 °C 0,0 km/h (0 Bft)
07.04.2026 22:01 23,0 °C 6,0 °C 45 % 67 % 1027,4 hPa 0,0 l/m² 0,0 km/h (0 Bft) NO 45 ° 0 min 0 W/m² 0,3 °C 6,0 °C 0,0 km/h (0 Bft)
07.04.2026 22:02 23,0 °C 5,9 °C 45 % 67 % 1027,4 hPa 0,0 l/m² 0,0 km/h (0 Bft) NO 45 ° 0 min 0 W/m² 0,3 °C 5,9 °C 0,0 km/h (0 Bft)
07.04.2026 22:03 23,0 °C 5,9 °C 45 % 67 % 1027,4 hPa 0,0 l/m² 0,0 km/h (0 Bft) NO 45 ° 0 min 0 W/m² 0,3 °C 5,9 °C 0,0 km/h (0 Bft)
07.04.2026 22:05 23,0 °C 5,8 °C 45 % 68 % 1027,4 hPa 0,0 l/m² 0,0 km/h (0 Bft) NO 45 ° 0 min 0 W/m² 0,4 °C 5,8 °C 0,0 km/h (0 Bft)
07.04.2026 22:06 23,0 °C 5,8 °C 45 % 69 % 1027,4 hPa 0,0 l/m² 0,0 km/h (0 Bft) NO 45 ° 0 min 0 W/m² 0,6 °C 5,8 °C 0,0 km/h (0 Bft)
07.04.2026 22:07 23,0 °C 5,7 °C 45 % 69 % 1027,4 hPa 0,0 l/m² 0,0 km/h (0 Bft) NO 45 ° 0 min 0 W/m² 0,5 °C 5,7 °C 0,0 km/h (0 Bft)
07.04.2026 22:08 23,0 °C 5,7 °C 45 % 69 % 1027,4 hPa 0,0 l/m² 0,0 km/h (0 Bft) NO 45 ° 0 min 0 W/m² 0,5 °C 5,7 °C 0,0 km/h (0 Bft)
07.04.2026 22:10 23,0 °C 5,7 °C 45 % 69 % 1027,4 hPa 0,0 l/m² 0,0 km/h (0 Bft) NO 45 ° 0 min 0 W/m² 0,5 °C 5,7 °C 0,0 km/h (0 Bft)
07.04.2026 22:13 23,0 °C 5,6 °C 45 % 68 % 1027,4 hPa 0,0 l/m² 0,0 km/h (0 Bft) NO 45 ° 0 min 0 W/m² 0,2 °C 5,6 °C 0,0 km/h (0 Bft)
07.04.2026 22:15 23,0 °C 5,4 °C 45 % 68 % 1027,4 hPa 0,0 l/m² 0,0 km/h (0 Bft) NO 45 ° 0 min 0 W/m² -0,0 °C 5,4 °C 0,0 km/h (0 Bft)
07.04.2026 22:17 23,0 °C 5,3 °C 45 % 69 % 1027,5 hPa 0,0 l/m² 0,0 km/h (0 Bft) NO 45 ° 0 min 0 W/m² 0,1 °C 5,3 °C 0,0 km/h (0 Bft)
07.04.2026 22:19 23,0 °C 5,3 °C 45 % 69 % 1027,4 hPa 0,0 l/m² 0,0 km/h (0 Bft) NO 45 ° 0 min 0 W/m² 0,1 °C 5,3 °C 0,0 km/h (0 Bft)
07.04.2026 22:21 23,0 °C 5,2 °C 45 % 69 % 1027,4 hPa 0,0 l/m² 0,0 km/h (0 Bft) NO 45 ° 0 min 0 W/m² -0,0 °C 5,2 °C 0,0 km/h (0 Bft)
07.04.2026 22:22 22,9 °C 5,2 °C 45 % 69 % 1027,4 hPa 0,0 l/m² 0,0 km/h (0 Bft) NO 45 ° 0 min 0 W/m² -0,0 °C 5,2 °C 0,0 km/h (0 Bft)
07.04.2026 22:23 22,9 °C 5,2 °C 45 % 69 % 1027,4 hPa 0,0 l/m² 0,0 km/h (0 Bft) NO 45 ° 0 min 0 W/m² -0,0 °C 5,2 °C 0,0 km/h (0 Bft)
07.04.2026 22:25 23,0 °C 5,0 °C 45 % 69 % 1027,4 hPa 0,0 l/m² 0,0 km/h (0 Bft) NO 45 ° 0 min 0 W/m² -0,2 °C 5,0 °C 0,0 km/h (0 Bft)
07.04.2026 22:26 22,9 °C 5,0 °C 45 % 70 % 1027,5 hPa 0,0 l/m² 0,0 km/h (0 Bft) NO 45 ° 0 min 0 W/m² -0,0 °C 5,0 °C 0,0 km/h (0 Bft)
07.04.2026 22:27 23,0 °C 4,9 °C 45 % 70 % 1027,4 hPa 0,0 l/m² 0,0 km/h (0 Bft) NO 45 ° 0 min 0 W/m² -0,1 °C 4,9 °C 0,0 km/h (0 Bft)
07.04.2026 22:28 23,0 °C 4,9 °C 45 % 71 % 1027,4 hPa 0,0 l/m² 0,0 km/h (0 Bft) NO 45 ° 0 min 0 W/m² 0,1 °C 4,9 °C 0,0 km/h (0 Bft)
07.04.2026 22:30 22,9 °C 4,8 °C 45 % 70 % 1027,5 hPa 0,0 l/m² 0,0 km/h (0 Bft) NO 45 ° 0 min 0 W/m² -0,2 °C 4,8 °C 0,0 km/h (0 Bft)
07.04.2026 22:33 22,9 °C 4,8 °C 45 % 71 % 1027,5 hPa 0,0 l/m² 0,0 km/h (0 Bft) NO 45 ° 0 min 0 W/m² -0,0 °C 4,8 °C 0,0 km/h (0 Bft)
07.04.2026 22:35 22,9 °C 4,7 °C 45 % 72 % 1027,5 hPa 0,0 l/m² 0,0 km/h (0 Bft) NO 45 ° 0 min 0 W/m² 0,1 °C 4,7 °C 0,0 km/h (0 Bft)
07.04.2026 22:37 22,9 °C 4,7 °C 45 % 72 % 1027,5 hPa 0,0 l/m² 0,0 km/h (0 Bft) NO 45 ° 0 min 0 W/m² 0,1 °C 4,7 °C 0,0 km/h (0 Bft)
07.04.2026 22:39 22,9 °C 4,6 °C 45 % 72 % 1027,6 hPa 0,0 l/m² 0,0 km/h (0 Bft) NO 45 ° 0 min 0 W/m² -0,0 °C 4,6 °C 0,0 km/h (0 Bft)
07.04.2026 22:41 22,9 °C 4,6 °C 45 % 73 % 1027,6 hPa 0,0 l/m² 0,0 km/h (0 Bft) NO 45 ° 0 min 0 W/m² 0,2 °C 4,6 °C 0,0 km/h (0 Bft)
07.04.2026 22:42 22,9 °C 4,5 °C 45 % 73 % 1027,6 hPa 0,0 l/m² 0,0 km/h (0 Bft) NO 45 ° 0 min 0 W/m² 0,1 °C 4,5 °C 0,0 km/h (0 Bft)
07.04.2026 22:43 22,9 °C 4,5 °C 45 % 73 % 1027,6 hPa 0,0 l/m² 0,0 km/h (0 Bft) NO 45 ° 0 min 0 W/m² 0,1 °C 4,5 °C 0,0 km/h (0 Bft)
07.04.2026 22:45 22,9 °C 4,4 °C 46 % 73 % 1027,6 hPa 0,0 l/m² 0,0 km/h (0 Bft) NO 45 ° 0 min 0 W/m² -0,0 °C 4,4 °C 0,0 km/h (0 Bft)
07.04.2026 22:46 22,9 °C 4,4 °C 46 % 73 % 1027,6 hPa 0,0 l/m² 0,0 km/h (0 Bft) NO 45 ° 0 min 0 W/m² -0,0 °C 4,4 °C 0,0 km/h (0 Bft)
07.04.2026 22:47 22,9 °C 4,4 °C 46 % 74 % 1027,7 hPa 0,0 l/m² 0,0 km/h (0 Bft) NO 45 ° 0 min 0 W/m² 0,2 °C 4,4 °C 0,0 km/h (0 Bft)
07.04.2026 22:48 22,9 °C 4,4 °C 46 % 74 % 1027,7 hPa 0,0 l/m² 0,0 km/h (0 Bft) NO 45 ° 0 min 0 W/m² 0,2 °C 4,4 °C 0,0 km/h (0 Bft)
07.04.2026 22:50 22,9 °C 4,3 °C 46 % 74 % 1027,7 hPa 0,0 l/m² 0,0 km/h (0 Bft) NO 45 ° 0 min 0 W/m² 0,1 °C 4,3 °C 0,0 km/h (0 Bft)
07.04.2026 22:53 22,9 °C 4,3 °C 46 % 75 % 1027,7 hPa 0,0 l/m² 0,0 km/h (0 Bft) NO 45 ° 0 min 0 W/m² 0,3 °C 4,3 °C 0,0 km/h (0 Bft)
07.04.2026 22:55 22,9 °C 4,2 °C 46 % 75 % 1027,7 hPa 0,0 l/m² 0,0 km/h (0 Bft) NO 45 ° 0 min 0 W/m² 0,2 °C 4,2 °C 0,0 km/h (0 Bft)
07.04.2026 22:57 22,9 °C 4,1 °C 46 % 75 % 1027,8 hPa 0,0 l/m² 0,0 km/h (0 Bft) NO 45 ° 0 min 0 W/m² 0,1 °C 4,1 °C 0,0 km/h (0 Bft)
07.04.2026 22:59 22,9 °C 4,1 °C 46 % 76 % 1027,8 hPa 0,0 l/m² 0,0 km/h (0 Bft) NO 45 ° 0 min 0 W/m² 0,3 °C 4,1 °C 0,0 km/h (0 Bft)
07.04.2026 23:01 22,9 °C 4,0 °C 46 % 76 % 1027,8 hPa 0,0 l/m² 0,0 km/h (0 Bft) NO 45 ° 0 min 0 W/m² 0,2 °C 4,0 °C 0,0 km/h (0 Bft)
07.04.2026 23:02 22,8 °C 4,0 °C 46 % 76 % 1027,8 hPa 0,0 l/m² 0,0 km/h (0 Bft) NO 45 ° 0 min 0 W/m² 0,2 °C 4,0 °C 0,0 km/h (0 Bft)
07.04.2026 23:03 22,8 °C 3,9 °C 46 % 76 % 1027,8 hPa 0,0 l/m² 0,0 km/h (0 Bft) NO 45 ° 0 min 0 W/m² 0,1 °C 3,9 °C 0,0 km/h (0 Bft)
07.04.2026 23:05 22,9 °C 3,9 °C 46 % 76 % 1027,9 hPa 0,0 l/m² 0,0 km/h (0 Bft) NO 45 ° 0 min 0 W/m² 0,1 °C 3,9 °C 0,0 km/h (0 Bft)
07.04.2026 23:06 22,9 °C 3,9 °C 46 % 76 % 1027,8 hPa 0,0 l/m² 0,0 km/h (0 Bft) NO 45 ° 0 min 0 W/m² 0,1 °C 3,9 °C 0,0 km/h (0 Bft)
07.04.2026 23:07 22,8 °C 3,8 °C 46 % 77 % 1027,9 hPa 0,0 l/m² 0,0 km/h (0 Bft) NO 45 ° 0 min 0 W/m² 0,1 °C 3,8 °C 0,0 km/h (0 Bft)
07.04.2026 23:08 22,8 °C 3,8 °C 46 % 77 % 1027,9 hPa 0,0 l/m² 0,0 km/h (0 Bft) NO 45 ° 0 min 0 W/m² 0,1 °C 3,8 °C 0,0 km/h (0 Bft)
07.04.2026 23:10 22,9 °C 3,8 °C 46 % 77 % 1027,8 hPa 0,0 l/m² 0,0 km/h (0 Bft) NO 45 ° 0 min 0 W/m² 0,1 °C 3,8 °C 0,0 km/h (0 Bft)
07.04.2026 23:13 22,8 °C 3,7 °C 46 % 77 % 1027,8 hPa 0,0 l/m² 0,0 km/h (0 Bft) NO 45 ° 0 min 0 W/m² 0,1 °C 3,7 °C 0,0 km/h (0 Bft)
07.04.2026 23:15 22,8 °C 3,7 °C 46 % 77 % 1027,9 hPa 0,0 l/m² 0,0 km/h (0 Bft) NO 45 ° 0 min 0 W/m² 0,1 °C 3,7 °C 0,0 km/h (0 Bft)
07.04.2026 23:16 22,8 °C 3,7 °C 46 % 77 % 1027,9 hPa 0,0 l/m² 0,0 km/h (0 Bft) N 0 ° 0 min 0 W/m² 0,1 °C 3,7 °C 0,0 km/h (0 Bft)
07.04.2026 23:17 22,8 °C 3,6 °C 46 % 77 % 1027,9 hPa 0,0 l/m² 0,0 km/h (0 Bft) N 0 ° 0 min 0 W/m² -0,0 °C 3,6 °C 0,0 km/h (0 Bft)
07.04.2026 23:22 22,8 °C 3,6 °C 46 % 78 % 1027,9 hPa 0,0 l/m² 0,0 km/h (0 Bft) NO 45 ° 0 min 0 W/m² 0,1 °C 3,6 °C 0,0 km/h (0 Bft)
07.04.2026 23:24 22,8 °C 3,4 °C 46 % 78 % 1028,0 hPa 0,0 l/m² 0,0 km/h (0 Bft) NO 45 ° 0 min 0 W/m² -0,1 °C 3,4 °C 0,0 km/h (0 Bft)
07.04.2026 23:25 22,8 °C 3,4 °C 46 % 78 % 1028,0 hPa 0,0 l/m² 0,0 km/h (0 Bft) NO 45 ° 0 min 0 W/m² -0,1 °C 3,4 °C 0,0 km/h (0 Bft)
07.04.2026 23:27 22,8 °C 3,4 °C 46 % 78 % 1028,0 hPa 0,0 l/m² 0,0 km/h (0 Bft) NO 45 ° 0 min 0 W/m² -0,1 °C 3,4 °C 0,0 km/h (0 Bft)
07.04.2026 23:29 22,8 °C 3,3 °C 46 % 77 % 1028,1 hPa 0,0 l/m² 0,0 km/h (0 Bft) NO 45 ° 0 min 0 W/m² -0,3 °C 3,3 °C 0,0 km/h (0 Bft)
07.04.2026 23:30 22,8 °C 3,3 °C 46 % 77 % 1028,1 hPa 0,0 l/m² 0,0 km/h (0 Bft) NO 45 ° 0 min 0 W/m² -0,3 °C 3,3 °C 0,0 km/h (0 Bft)
07.04.2026 23:31 22,8 °C 3,3 °C 46 % 77 % 1028,1 hPa 0,0 l/m² 0,0 km/h (0 Bft) NO 45 ° 0 min 0 W/m² -0,3 °C 3,3 °C 0,0 km/h (0 Bft)
07.04.2026 23:32 22,8 °C 3,3 °C 46 % 77 % 1028,1 hPa 0,0 l/m² 0,0 km/h (0 Bft) NO 45 ° 0 min 0 W/m² -0,3 °C 3,3 °C 0,0 km/h (0 Bft)
07.04.2026 23:34 22,8 °C 3,2 °C 46 % 77 % 1028,1 hPa 0,0 l/m² 0,0 km/h (0 Bft) NO 45 ° 0 min 0 W/m² -0,4 °C 3,2 °C 0,0 km/h (0 Bft)
07.04.2026 23:36 22,8 °C 3,2 °C 46 % 77 % 1028,1 hPa 0,0 l/m² 0,0 km/h (0 Bft) NO 45 ° 0 min 0 W/m² -0,4 °C 3,2 °C 0,0 km/h (0 Bft)
07.04.2026 23:38 22,8 °C 3,1 °C 46 % 78 % 1028,1 hPa 0,0 l/m² 0,0 km/h (0 Bft) NO 45 ° 0 min 0 W/m² -0,4 °C 3,1 °C 0,0 km/h (0 Bft)
07.04.2026 23:40 22,8 °C 3,1 °C 46 % 78 % 1028,2 hPa 0,0 l/m² 0,0 km/h (0 Bft) NO 45 ° 0 min 0 W/m² -0,4 °C 3,1 °C 0,0 km/h (0 Bft)
07.04.2026 23:41 22,8 °C 3,1 °C 46 % 78 % 1028,2 hPa 0,0 l/m² 0,0 km/h (0 Bft) NO 45 ° 0 min 0 W/m² -0,4 °C 3,1 °C 0,0 km/h (0 Bft)
07.04.2026 23:43 22,8 °C 3,0 °C 46 % 78 % 1028,2 hPa 0,0 l/m² 0,0 km/h (0 Bft) NO 45 ° 0 min 0 W/m² -0,5 °C 3,0 °C 0,0 km/h (0 Bft)
07.04.2026 23:45 22,8 °C 2,9 °C 46 % 77 % 1028,2 hPa 0,0 l/m² 0,0 km/h (0 Bft) NO 45 ° 0 min 0 W/m² -0,7 °C 2,9 °C 0,0 km/h (0 Bft)
07.04.2026 23:47 22,8 °C 2,9 °C 46 % 77 % 1028,2 hPa 0,0 l/m² 0,0 km/h (0 Bft) NO 45 ° 0 min 0 W/m² -0,7 °C 2,9 °C 0,0 km/h (0 Bft)
07.04.2026 23:49 22,8 °C 2,8 °C 46 % 77 % 1028,2 hPa 0,0 l/m² 0,0 km/h (0 Bft) NO 45 ° 0 min 0 W/m² -0,8 °C 2,8 °C 0,0 km/h (0 Bft)
07.04.2026 23:51 22,8 °C 2,8 °C 46 % 77 % 1028,2 hPa 0,0 l/m² 0,0 km/h (0 Bft) NO 45 ° 0 min 0 W/m² -0,8 °C 2,8 °C 0,0 km/h (0 Bft)
07.04.2026 23:52 22,8 °C 2,8 °C 46 % 77 % 1028,2 hPa 0,0 l/m² 0,0 km/h (0 Bft) NO 45 ° 0 min 0 W/m² -0,8 °C 2,8 °C 0,0 km/h (0 Bft)
07.04.2026 23:53 22,8 °C 2,8 °C 46 % 77 % 1028,2 hPa 0,0 l/m² 0,0 km/h (0 Bft) NO 45 ° 0 min 0 W/m² -0,8 °C 2,8 °C 0,0 km/h (0 Bft)
07.04.2026 23:56 22,8 °C 2,7 °C 46 % 77 % 1028,2 hPa 0,0 l/m² 0,0 km/h (0 Bft) NO 45 ° 0 min 0 W/m² -0,9 °C 2,7 °C 0,0 km/h (0 Bft)
07.04.2026 23:58 22,8 °C 2,7 °C 46 % 77 % 1028,2 hPa 0,0 l/m² 0,0 km/h (0 Bft) NO 45 ° 0 min 0 W/m² -0,9 °C 2,7 °C 0,0 km/h (0 Bft)
_ Min-Zeit 23:58 07:22 07:11 16:35 17:50 - 23:58 - - - - 07:13 07:22 23:58
Minimum _ 22,8 °C -0,8 °C 40 % 34 % 1026,0 hPa - 0,0 km/h (0 Bft) - - - - -3,0 °C -0,8 °C 0,0 km/h (0 Bft)
_ Max-Zeit 00:00 16:05 23:58 08:19 23:58 23:58 12:48 - - 12:06 13:29 14:19 14:48 17:13
Maximum _ 24,7 °C 16,7 °C 46 % 88 % 1028,2 hPa 0,0 l/m² 23,6 km/h
W (4 Bft)
- - 6 min 796 W/m² 3,3 °C 15,7 °C 27,4 km/h
N-NW (5 Bft)
Durchschnitt _ 23,4 °C 8,0 °C 43 % 62 % 1027,0 hPa #0,0 l/m² 5,7 km/h (2 Bft) SW - #11:26 h 251 W/m² 0,5 °C 6,8 °C 9,4 km/h (2 Bft)
© 2009 Mathias Hoßbach